Darstellungsparameter: Aktuell verwendete Einstellungen:
Skalierung der Graphiken ... ?
xyx+y,   Skalierungsfaktor:      Skalierung: Modus: x, Faktor: 1
Darstellungszeitraum ... ?
Vom - - bis: - -   Zeitraum: 20.10.2008 - 09.11.2008
Min/Max/Avg-Anzeige ... ?
Zeige MMA aktuell
Zeige MMA Monat
Zeige MMA alles
Zeige --A aktuell
Zeige --A Monat
Zeige --A alles
Keine MMA-Anzeige
MMA:
Average (ber die Originaldaten)
MMA-Basis: 17.04.2019 - 19.05.2019
Quicknavigation für Darstellung... ?
Tage:      1T, 2T, 3T, 5T -1T -2T -3T -5T +1T +2T +3T +5T
Wochen: 1W, 2W, 3W -1W -2W -3W +1W +2W +3W
Monate: 1M, 3M, 6M -1M -3M -6M +1M +3M +6M
Jahre:    1J, 3J, 5J, 10J -1J -3J -5J -10J +1J +3J +5J +10J
Nutze für die Darstellung ... ?
Originaldaten oder Mittelwerte auf ...
Stundenbasis Tagesbasis Wochenbasis
Monatsbasis Jahresbasis      Datenbasis: Original-Daten
Darstellen als:
Statistik (Auto) Statistik J:M      Darstellung:
Zur Graphik,    zurück zur Übersicht aller Sensoren.
 
Tabellarische Datenbersicht: ?
 
Sensor: Nr:Datum:Temp:Abs-Feuchte:Windchill:Wind:
Aussen-T/F 1 20-10-2008 00:01:03 6 C 6.24 g/m*3 6 C 0 km/h
2 20-10-2008 00:06:03 5.9 C 6.27 g/m*3 5.9 C 0 km/h
3 20-10-2008 00:11:03 5.9 C 6.27 g/m*3 5.9 C 0 km/h
4 20-10-2008 00:16:03 5.9 C 6.27 g/m*3 5.9 C 0 km/h
5 20-10-2008 00:21:03 5.9 C 6.27 g/m*3 5.9 C 0 km/h
6 20-10-2008 00:26:04 5.8 C 6.23 g/m*3 5.8 C 0 km/h
7 20-10-2008 00:31:04 5.7 C 6.19 g/m*3 5.7 C 0 km/h
8 20-10-2008 00:36:04 5.6 C 6.15 g/m*3 5.6 C 0 km/h
9 20-10-2008 00:41:04 5.4 C 6.07 g/m*3 5.4 C 0 km/h
10 20-10-2008 00:46:04 5.4 C 6.07 g/m*3 5.4 C 0 km/h
11 20-10-2008 00:51:04 5.4 C 6.07 g/m*3 5.4 C 0 km/h
12 20-10-2008 00:56:04 5.3 C 6.03 g/m*3 5.3 C 0 km/h
13 20-10-2008 01:01:04 5.2 C 5.99 g/m*3 5.2 C 0 km/h
14 20-10-2008 01:06:04 5.2 C 6.06 g/m*3 5.2 C 0 km/h
15 20-10-2008 01:11:04 5.1 C 6.02 g/m*3 5.1 C 0 km/h
16 20-10-2008 01:16:04 5.1 C 6.02 g/m*3 5.1 C 0 km/h
17 20-10-2008 01:21:04 5.1 C 6.02 g/m*3 5.1 C 0 km/h
18 20-10-2008 01:26:04 5 C 5.98 g/m*3 5 C 0 km/h
19 20-10-2008 01:31:04 5 C 5.98 g/m*3 5 C 0 km/h
20 20-10-2008 01:36:04 4.9 C 6.01 g/m*3 4.9 C 0 km/h
21 20-10-2008 01:41:04 4.8 C 5.97 g/m*3 4.8 C 0 km/h
22 20-10-2008 01:46:04 4.9 C 6.01 g/m*3 4.9 C 0 km/h
23 20-10-2008 01:51:04 4.9 C 6.01 g/m*3 4.9 C 0 km/h
24 20-10-2008 01:56:04 4.9 C 6.01 g/m*3 4.9 C 0 km/h
25 20-10-2008 02:01:05 4.7 C 5.93 g/m*3 4.7 C 0 km/h
Sensor: Nr:Datum:Temp:Abs-Feuchte:Windchill:Wind:
Aussen-T/F 26 20-10-2008 02:06:05 4.7 C 5.93 g/m*3 4.7 C 0 km/h
27 20-10-2008 02:11:05 4.6 C 5.89 g/m*3 4.6 C 0 km/h
28 20-10-2008 02:16:05 4.5 C 5.85 g/m*3 4.5 C 0 km/h
29 20-10-2008 02:21:05 4.4 C 5.81 g/m*3 4.4 C 0 km/h
30 20-10-2008 02:26:05 4.3 C 5.77 g/m*3 4.3 C 0 km/h
31 20-10-2008 02:31:05 4.3 C 5.77 g/m*3 4.3 C 0 km/h
32 20-10-2008 02:36:05 4.1 C 5.7 g/m*3 4.1 C 0 km/h
33 20-10-2008 02:41:05 4.1 C 5.7 g/m*3 4.1 C 0 km/h
34 20-10-2008 02:46:05 4.2 C 5.73 g/m*3 4.2 C 0 km/h
35 20-10-2008 02:51:05 4.2 C 5.73 g/m*3 4.2 C 0 km/h
36 20-10-2008 02:56:05 4.2 C 5.73 g/m*3 4.2 C 0 km/h
37 20-10-2008 03:01:05 4 C 5.66 g/m*3 4 C 0 km/h
38 20-10-2008 03:06:05 4 C 5.66 g/m*3 4 C 0 km/h
39 20-10-2008 03:11:05 4 C 5.66 g/m*3 4 C 0 km/h
40 20-10-2008 03:16:05 4 C 5.72 g/m*3 4 C 0 km/h
41 20-10-2008 03:21:05 4 C 5.72 g/m*3 4 C 0 km/h
42 20-10-2008 03:26:05 3.8 C 5.71 g/m*3 3.8 C 0 km/h
43 20-10-2008 03:31:05 3.8 C 5.71 g/m*3 3.8 C 0 km/h
44 20-10-2008 03:36:06 3.7 C 5.67 g/m*3 3.7 C 0 km/h
45 20-10-2008 03:41:06 3.7 C 5.67 g/m*3 3.7 C 0 km/h
46 20-10-2008 03:46:06 3.7 C 5.67 g/m*3 3.7 C 0 km/h
47 20-10-2008 03:51:06 3.6 C 5.63 g/m*3 3.6 C 0 km/h
48 20-10-2008 03:56:06 3.7 C 5.67 g/m*3 3.7 C 0 km/h
49 20-10-2008 04:01:06 3.7 C 5.67 g/m*3 3.7 C 0 km/h
50 20-10-2008 04:06:06 3.7 C 5.67 g/m*3 3.7 C 0 km/h
Sensor: Nr:Datum:Temp:Abs-Feuchte:Windchill:Wind:
Aussen-T/F 51 20-10-2008 04:11:06 3.5 C 5.6 g/m*3 3.5 C 0 km/h
52 20-10-2008 04:16:06 3.4 C 5.56 g/m*3 3.4 C 0 km/h
53 20-10-2008 04:21:06 3.3 C 5.52 g/m*3 3.3 C 0 km/h
54 20-10-2008 04:26:06 3.3 C 5.52 g/m*3 3.3 C 0 km/h
55 20-10-2008 04:31:06 3.2 C 5.48 g/m*3 3.2 C 0 km/h
56 20-10-2008 04:36:06 3.1 C 5.45 g/m*3 3.1 C 0 km/h
57 20-10-2008 04:41:06 3.1 C 5.45 g/m*3 3.1 C 0 km/h
58 20-10-2008 04:46:06 3.2 C 5.48 g/m*3 3.2 C 0 km/h
59 20-10-2008 04:51:06 3.1 C 5.45 g/m*3 3.1 C 0 km/h
60 20-10-2008 04:56:06 3.1 C 5.45 g/m*3 3.1 C 0 km/h
61 20-10-2008 05:01:06 3.1 C 5.45 g/m*3 3.1 C 0 km/h
62 20-10-2008 05:06:06 3 C 5.41 g/m*3 3 C 0 km/h
63 20-10-2008 05:11:06 3 C 5.41 g/m*3 3 C 0 km/h
64 20-10-2008 05:16:07 3 C 5.41 g/m*3 3 C 0 km/h
65 20-10-2008 05:21:07 3 C 5.41 g/m*3 3 C 0 km/h
66 20-10-2008 05:26:07 3 C 5.41 g/m*3 3 C 0 km/h
67 20-10-2008 05:31:07 3 C 5.41 g/m*3 3 C 0 km/h
68 20-10-2008 05:36:07 2.8 C 5.4 g/m*3 2.8 C 0 km/h
69 20-10-2008 05:41:07 2.8 C 5.4 g/m*3 2.8 C 0 km/h
70 20-10-2008 05:46:07 2.8 C 5.4 g/m*3 2.8 C 0 km/h
71 20-10-2008 05:51:07 2.8 C 5.46 g/m*3 2.8 C 0 km/h
72 20-10-2008 05:56:07 2.7 C 5.42 g/m*3 2.7 C 0 km/h
73 20-10-2008 06:01:07 2.8 C 5.46 g/m*3 2.8 C 0 km/h
74 20-10-2008 06:06:07 2.7 C 5.42 g/m*3 2.7 C 0 km/h
75 20-10-2008 06:11:07 2.7 C 5.42 g/m*3 2.7 C 0 km/h
Sensor: Nr:Datum:Temp:Abs-Feuchte:Windchill:Wind:
Aussen-T/F 76 20-10-2008 06:16:07 2.7 C 5.42 g/m*3 2.7 C 0 km/h
77 20-10-2008 06:21:07 2.6 C 5.38 g/m*3 2.6 C 0 km/h
78 20-10-2008 06:26:07 2.7 C 5.42 g/m*3 2.7 C 0 km/h
79 20-10-2008 06:31:07 2.7 C 5.42 g/m*3 2.7 C 0 km/h
80 20-10-2008 06:36:07 2.7 C 5.42 g/m*3 2.7 C 0 km/h
81 20-10-2008 06:41:07 2.6 C 5.38 g/m*3 2.6 C 0 km/h
82 20-10-2008 06:46:07 2.6 C 5.38 g/m*3 2.6 C 0 km/h
83 20-10-2008 06:51:08 2.7 C 5.42 g/m*3 2.7 C 0 km/h
84 20-10-2008 06:56:08 2.7 C 5.42 g/m*3 2.7 C 0 km/h
85 20-10-2008 07:01:02 2.7 C 5.42 g/m*3 2.7 C 0 km/h
86 20-10-2008 07:06:02 2.6 C 5.38 g/m*3 2.6 C 0 km/h
87 20-10-2008 07:11:02 2.6 C 5.38 g/m*3 2.6 C 0 km/h
88 20-10-2008 07:16:01 2.7 C 5.48 g/m*3 2.7 C 0 km/h
89 20-10-2008 07:21:01 2.7 C 5.48 g/m*3 2.7 C 0 km/h
90 20-10-2008 07:26:01 2.7 C 5.48 g/m*3 2.7 C 0 km/h
91 20-10-2008 07:31:02 2.7 C 5.42 g/m*3 2.7 C 0 km/h
92 20-10-2008 07:36:02 2.7 C 5.42 g/m*3 2.7 C 0 km/h
93 20-10-2008 07:41:02 2.7 C 5.42 g/m*3 2.7 C 0 km/h
94 20-10-2008 07:46:02 2.6 C 5.38 g/m*3 2.6 C 0 km/h
95 20-10-2008 07:51:02 2.6 C 5.38 g/m*3 2.6 C 0 km/h
96 20-10-2008 07:56:02 2.6 C 5.38 g/m*3 2.6 C 0 km/h
97 20-10-2008 08:01:01 2.6 C 5.38 g/m*3 2.6 C 0 km/h
98 20-10-2008 08:06:01 2.7 C 5.42 g/m*3 2.7 C 0 km/h
99 20-10-2008 08:11:01 2.7 C 5.48 g/m*3 2.7 C 0 km/h
100 20-10-2008 08:16:02 2.7 C 5.48 g/m*3 2.7 C 0 km/h
Sensor: Nr:Datum:Temp:Abs-Feuchte:Windchill:Wind:
Aussen-T/F 101 20-10-2008 08:21:02 2.6 C 5.38 g/m*3 2.6 C 0 km/h
102 20-10-2008 08:26:02 2.6 C 5.38 g/m*3 2.6 C 0 km/h
103 20-10-2008 08:31:02 2.6 C 5.38 g/m*3 2.6 C 0 km/h
104 20-10-2008 08:36:02 2.6 C 5.38 g/m*3 2.6 C 0 km/h
105 20-10-2008 08:41:02 2.7 C 5.42 g/m*3 2.7 C 0 km/h
106 20-10-2008 08:46:02 2.6 C 5.38 g/m*3 2.6 C 0 km/h
107 20-10-2008 08:51:02 2.6 C 5.38 g/m*3 2.6 C 0 km/h
108 20-10-2008 08:56:02 2.6 C 5.38 g/m*3 2.6 C 0 km/h
109 20-10-2008 09:01:02 2.7 C 5.42 g/m*3 2.7 C 0 km/h
110 20-10-2008 09:06:02 2.7 C 5.42 g/m*3 2.7 C 0 km/h
111 20-10-2008 09:11:02 2.8 C 5.51 g/m*3 2.8 C 0 km/h
112 20-10-2008 09:16:02 2.8 C 5.51 g/m*3 2.8 C 0 km/h
113 20-10-2008 09:21:02 2.9 C 5.55 g/m*3 2.9 C 0 km/h
114 20-10-2008 09:26:02 3.1 C 5.57 g/m*3 3.1 C 0 km/h
115 20-10-2008 09:31:03 3.3 C 5.64 g/m*3 3.3 C 0 km/h
116 20-10-2008 09:36:03 3.4 C 5.74 g/m*3 3.4 C 0 km/h
117 20-10-2008 09:41:03 3.3 C 5.64 g/m*3 3.3 C 0 km/h
118 20-10-2008 09:46:01 3.2 C 5.6 g/m*3 3.2 C 0 km/h
119 20-10-2008 09:51:01 3.2 C 5.6 g/m*3 3.2 C 0 km/h
120 20-10-2008 09:56:02 3.2 C 5.6 g/m*3 3.2 C 0 km/h
121 20-10-2008 10:01:01 3.3 C 5.64 g/m*3 3.3 C 0 km/h
122 20-10-2008 10:06:01 3.4 C 5.68 g/m*3 3.4 C 0 km/h
123 20-10-2008 10:11:01 3.4 C 5.68 g/m*3 3.4 C 0 km/h
124 20-10-2008 10:16:02 3.4 C 5.68 g/m*3 3.4 C 0 km/h
125 20-10-2008 10:21:02 3.4 C 5.68 g/m*3 3.4 C 0 km/h
Sensor: Nr:Datum:Temp:Abs-Feuchte:Windchill:Wind:
Aussen-T/F 126 20-10-2008 10:26:02 3.5 C 5.72 g/m*3 3.5 C 0 km/h
127 20-10-2008 10:31:01 3.6 C 5.76 g/m*3 3.6 C 0 km/h
128 20-10-2008 10:36:01 3.6 C 5.76 g/m*3 3.6 C 0 km/h
129 20-10-2008 10:41:01 3.6 C 5.76 g/m*3 3.6 C 0 km/h
130 20-10-2008 10:46:01 3.8 C 5.83 g/m*3 3.8 C 0 km/h
131 20-10-2008 10:51:01 4 C 5.91 g/m*3 4 C 0 km/h
132 20-10-2008 10:56:01 4.1 C 5.95 g/m*3 4.1 C 0 km/h
133 20-10-2008 11:01:02 4.4 C 6.07 g/m*3 4.4 C 0 km/h
134 20-10-2008 11:06:02 4.7 C 6.26 g/m*3 4.7 C 0 km/h
135 20-10-2008 11:11:02 5.1 C 6.36 g/m*3 5.1 C 0 km/h
136 20-10-2008 11:16:01 5.2 C 6.4 g/m*3 5.2 C 0 km/h
137 20-10-2008 11:21:01 5.4 C 6.56 g/m*3 5.4 C 0 km/h
138 20-10-2008 11:26:01 5.7 C 6.69 g/m*3 5.7 C 0 km/h
139 20-10-2008 11:31:02 5.8 C 6.73 g/m*3 5.8 C 0 km/h
140 20-10-2008 11:36:02 6.1 C 6.87 g/m*3 6.1 C 0 km/h
141 20-10-2008 11:41:02 6.4 C 7 g/m*3 6.4 C 0 km/h
142 20-10-2008 11:46:03 6.5 C 7.05 g/m*3 6.5 C 0 km/h
143 20-10-2008 11:51:03 7 C 7.28 g/m*3 7 C 0 km/h
144 20-10-2008 11:56:03 7.6 C 7.57 g/m*3 7.6 C 0 km/h
145 20-10-2008 12:01:02 8.2 C 7.87 g/m*3 8.2 C 0 km/h
146 20-10-2008 12:06:02 8.5 C 8.03 g/m*3 8.5 C 0 km/h
147 20-10-2008 12:11:02 9 C 8.2 g/m*3 9 C 0 km/h
148 20-10-2008 12:16:03 9.3 C 8.27 g/m*3 9.3 C 0 km/h
149 20-10-2008 12:21:03 9.6 C 8.43 g/m*3 9.6 C 0 km/h
150 20-10-2008 12:26:03 9.7 C 8.39 g/m*3 9.7 C 0 km/h
Sensor: Nr:Datum:Temp:Abs-Feuchte:Windchill:Wind:
Aussen-T/F 151 20-10-2008 12:31:02 10 C 8.36 g/m*3 10 C 0 km/h
152 20-10-2008 12:36:02 10.3 C 8.33 g/m*3 10.3 C 0 km/h
153 20-10-2008 12:41:03 10.8 C 8.2 g/m*3 10.8 C 0 km/h
154 20-10-2008 12:46:02 11.2 C 7.91 g/m*3 11.2 C 0 km/h
155 20-10-2008 12:51:02 11.4 C 7.8 g/m*3 11.4 C 0 km/h
156 20-10-2008 12:56:02 11.8 C 7.58 g/m*3 11.8 C 0 km/h
157 20-10-2008 13:01:01 12.2 C 7.55 g/m*3 12.2 C 0 km/h
158 20-10-2008 13:06:01 12.7 C 7.46 g/m*3 12.7 C 0 km/h
159 20-10-2008 13:11:01 12.9 C 7.44 g/m*3 12.9 C 0 km/h
160 20-10-2008 13:16:02 13.4 C 7.32 g/m*3 13.4 C 0 km/h
161 20-10-2008 13:21:02 13.6 C 7.41 g/m*3 13.6 C 0 km/h
162 20-10-2008 13:26:02 13.8 C 7.51 g/m*3 13.8 C 0 km/h
163 20-10-2008 13:31:01 14.1 C 7.4 g/m*3 14.1 C 0 km/h
164 20-10-2008 13:36:01 14.6 C 7.51 g/m*3 14.6 C 0 km/h
165 20-10-2008 13:41:01 14.8 C 7.47 g/m*3 14.8 C 0 km/h
166 20-10-2008 13:46:01 15.1 C 7.48 g/m*3 15.1 C 0 km/h
167 20-10-2008 13:51:01 15.6 C 7.45 g/m*3 15.6 C 0 km/h
168 20-10-2008 13:56:01 15.8 C 7.67 g/m*3 15.8 C 0 km/h
169 20-10-2008 14:01:02 16 C 7.49 g/m*3 16 C 0 km/h
170 20-10-2008 14:06:02 16.4 C 7.54 g/m*3 16.4 C 0 km/h
171 20-10-2008 14:11:02 16.7 C 7.53 g/m*3 16.7 C 0 km/h
172 20-10-2008 14:16:02 16.9 C 7.62 g/m*3 16.9 C 0 km/h
173 20-10-2008 14:21:02 17.3 C 7.51 g/m*3 17.3 C 0 km/h
174 20-10-2008 14:26:02 17.7 C 7.85 g/m*3 17.7 C 0 km/h
175 20-10-2008 14:31:02 17.9 C 7.94 g/m*3 17.9 C 0 km/h
Sensor: Nr:Datum:Temp:Abs-Feuchte:Windchill:Wind:
Aussen-T/F 176 20-10-2008 14:36:02 18.2 C 7.62 g/m*3 18.2 C 0 km/h
177 20-10-2008 14:41:02 18.5 C 7.91 g/m*3 18.5 C 0 km/h
178 20-10-2008 14:46:02 18.7 C 7.68 g/m*3 18.7 C 0 km/h
179 20-10-2008 14:51:02 18.9 C 7.61 g/m*3 18.9 C 0 km/h
180 20-10-2008 14:56:02 19.1 C 7.7 g/m*3 19.1 C 0 km/h
181 20-10-2008 15:01:01 19.3 C 7.63 g/m*3 19.3 C 0 km/h
182 20-10-2008 15:06:01 19.4 C 7.67 g/m*3 19.4 C 0 km/h
183 20-10-2008 15:11:01 19.6 C 7.6 g/m*3 19.6 C 0 km/h
184 20-10-2008 15:16:01 19.7 C 7.64 g/m*3 19.7 C 0 km/h
185 20-10-2008 15:21:01 19.6 C 7.43 g/m*3 19.6 C 0 km/h
186 20-10-2008 15:26:01 19.7 C 7.47 g/m*3 19.7 C 0 km/h
187 20-10-2008 15:31:01 19.9 C 7.56 g/m*3 19.9 C 0 km/h
188 20-10-2008 15:36:01 19.8 C 7.34 g/m*3 19.8 C 0 km/h
189 20-10-2008 15:41:02 19.8 C 7.52 g/m*3 19.8 C 0 km/h
190 20-10-2008 15:46:02 19.8 C 7.52 g/m*3 19.8 C 0 km/h
191 20-10-2008 15:51:02 20 C 7.43 g/m*3 20 C 0 km/h
192 20-10-2008 15:56:02 20 C 7.43 g/m*3 20 C 0 km/h
193 20-10-2008 16:01:02 20.1 C 7.47 g/m*3 20.1 C 0 km/h
194 20-10-2008 16:06:02 20.3 C 7.56 g/m*3 20.3 C 0 km/h
195 20-10-2008 16:11:02 20.3 C 7.56 g/m*3 20.3 C 0 km/h
196 20-10-2008 16:16:02 20.2 C 7.52 g/m*3 20.2 C 0 km/h
197 20-10-2008 16:21:03 20.2 C 7.52 g/m*3 20.2 C 0 km/h
198 20-10-2008 16:26:03 20.3 C 7.56 g/m*3 20.3 C 0 km/h
199 20-10-2008 16:31:01 20.3 C 7.56 g/m*3 20.3 C 0 km/h
200 20-10-2008 16:36:01 20.2 C 7.52 g/m*3 20.2 C 0 km/h
Sensor: Nr:Datum:Temp:Abs-Feuchte:Windchill:Wind:
Aussen-T/F 201 20-10-2008 16:41:01 20.2 C 7.52 g/m*3 20.2 C 0 km/h
202 20-10-2008 16:46:01 20.3 C 7.74 g/m*3 20.3 C 0 km/h
203 20-10-2008 16:51:01 20.5 C 8.01 g/m*3 20.5 C 0 km/h
204 20-10-2008 16:56:01 20.4 C 7.78 g/m*3 20.4 C 0 km/h
205 20-10-2008 17:01:02 20.4 C 7.61 g/m*3 20.4 C 0 km/h
206 20-10-2008 17:06:03 20.2 C 7.52 g/m*3 20.2 C 0 km/h
207 20-10-2008 17:11:03 20.2 C 7.52 g/m*3 20.2 C 0 km/h
208 20-10-2008 17:16:01 20.1 C 7.47 g/m*3 20.1 C 0 km/h
209 20-10-2008 17:21:01 20.1 C 7.65 g/m*3 20.1 C 0 km/h
210 20-10-2008 17:26:01 20.2 C 7.87 g/m*3 20.2 C 0 km/h
211 20-10-2008 17:31:02 20.2 C 7.69 g/m*3 20.2 C 0 km/h
212 20-10-2008 17:36:02 20.2 C 7.87 g/m*3 20.2 C 0 km/h
213 20-10-2008 17:41:02 20 C 7.6 g/m*3 20 C 0 km/h
214 20-10-2008 17:46:02 19.9 C 7.73 g/m*3 19.9 C 0 km/h
215 20-10-2008 17:51:02 19.7 C 7.81 g/m*3 19.7 C 0 km/h
216 20-10-2008 17:56:02 19.3 C 7.63 g/m*3 19.3 C 0 km/h
217 20-10-2008 18:01:02 18.9 C 7.78 g/m*3 18.9 C 0 km/h
218 20-10-2008 18:06:02 18.6 C 7.8 g/m*3 18.6 C 0 km/h
219 20-10-2008 18:11:02 18.2 C 7.77 g/m*3 18.2 C 0 km/h
220 20-10-2008 18:16:02 17.8 C 7.89 g/m*3 17.8 C 0 km/h
221 20-10-2008 18:21:02 17.6 C 7.95 g/m*3 17.6 C 0 km/h
222 20-10-2008 18:26:02 17.2 C 8.05 g/m*3 17.2 C 0 km/h
223 20-10-2008 18:31:02 17 C 8.1 g/m*3 17 C 0 km/h
224 20-10-2008 18:36:02 16.9 C 8.34 g/m*3 16.9 C 0 km/h
225 20-10-2008 18:41:02 16.7 C 8.38 g/m*3 16.7 C 0 km/h
Sensor: Nr:Datum:Temp:Abs-Feuchte:Windchill:Wind:
Aussen-T/F 226 20-10-2008 18:46:02 16.6 C 8.33 g/m*3 16.6 C 0 km/h
227 20-10-2008 18:51:02 16.5 C 8.43 g/m*3 16.5 C 0 km/h
228 20-10-2008 18:56:02 16.3 C 8.46 g/m*3 16.3 C 0 km/h
229 20-10-2008 19:01:02 16.2 C 8.55 g/m*3 16.2 C 0 km/h
230 20-10-2008 19:06:02 16 C 8.45 g/m*3 16 C 0 km/h
231 20-10-2008 19:11:02 16 C 8.58 g/m*3 16 C 0 km/h
232 20-10-2008 19:16:01 15.8 C 8.62 g/m*3 15.8 C 0 km/h
233 20-10-2008 19:21:01 15.8 C 8.75 g/m*3 15.8 C 0 km/h
234 20-10-2008 19:26:01 15.7 C 8.7 g/m*3 15.7 C 0 km/h
235 20-10-2008 19:31:02 15.6 C 8.78 g/m*3 15.6 C 0 km/h
236 20-10-2008 19:36:02 15.5 C 8.86 g/m*3 15.5 C 0 km/h
237 20-10-2008 19:41:02 15.5 C 8.99 g/m*3 15.5 C 0 km/h
238 20-10-2008 19:46:03 15.6 C 9.04 g/m*3 15.6 C 0 km/h
239 20-10-2008 19:51:03 15.7 C 9.1 g/m*3 15.7 C 0 km/h
240 20-10-2008 19:56:03 15.8 C 9.15 g/m*3 15.8 C 0 km/h
241 20-10-2008 20:01:02 15.8 C 9.15 g/m*3 15.8 C 0 km/h
242 20-10-2008 20:06:02 15.8 C 9.15 g/m*3 15.8 C 0 km/h
243 20-10-2008 20:11:02 15.8 C 9.15 g/m*3 15.8 C 0 km/h
244 20-10-2008 20:16:03 15.8 C 9.15 g/m*3 15.8 C 0 km/h
245 20-10-2008 20:21:03 15.5 C 8.99 g/m*3 15.5 C 0 km/h
246 20-10-2008 20:26:03 15.2 C 8.96 g/m*3 15.2 C 0 km/h
247 20-10-2008 20:31:02 15.2 C 9.09 g/m*3 15.2 C 0 km/h
248 20-10-2008 20:36:02 15 C 8.98 g/m*3 15 C 0 km/h
249 20-10-2008 20:41:02 14.9 C 9.18 g/m*3 14.9 C 0 km/h
250 20-10-2008 20:46:02 14.8 C 9.12 g/m*3 14.8 C 0 km/h
Sensor: Nr:Datum:Temp:Abs-Feuchte:Windchill:Wind:
Aussen-T/F 251 20-10-2008 20:51:02 14.7 C 9.19 g/m*3 14.7 C 0 km/h
252 20-10-2008 20:56:02 14.6 C 9.26 g/m*3 14.6 C 0 km/h
253 20-10-2008 21:01:02 14.6 C 9.39 g/m*3 14.6 C 0 km/h
254 20-10-2008 21:06:02 14.5 C 9.33 g/m*3 14.5 C 0 km/h
255 20-10-2008 21:11:02 14.4 C 9.27 g/m*3 14.4 C 0 km/h
256 20-10-2008 21:16:02 14.4 C 9.39 g/m*3 14.4 C 0 km/h
257 20-10-2008 21:21:02 14.4 C 9.39 g/m*3 14.4 C 0 km/h
258 20-10-2008 21:26:02 14.4 C 9.39 g/m*3 14.4 C 0 km/h
259 20-10-2008 21:31:01 14.2 C 9.4 g/m*3 14.2 C 0 km/h
260 20-10-2008 21:36:01 14.2 C 9.4 g/m*3 14.2 C 0 km/h
261 20-10-2008 21:41:01 14 C 9.29 g/m*3 14 C 0 km/h
262 20-10-2008 21:47:02 13.8 C 9.29 g/m*3 13.8 C 0 km/h
263 20-10-2008 21:52:02 13.7 C 9.24 g/m*3 13.7 C 0 km/h
264 20-10-2008 21:57:02 13.7 C 9.35 g/m*3 13.7 C 0 km/h
265 20-10-2008 22:02:02 13.6 C 9.3 g/m*3 13.6 C 0 km/h
266 20-10-2008 22:07:03 13.4 C 9.18 g/m*3 13.4 C 0 km/h
267 20-10-2008 22:12:03 13.4 C 9.3 g/m*3 13.4 C 0 km/h
268 20-10-2008 22:17:03 13.3 C 9.24 g/m*3 13.3 C 0 km/h
269 20-10-2008 22:22:03 13.3 C 9.36 g/m*3 13.3 C 0 km/h
270 20-10-2008 22:27:03 13.3 C 9.36 g/m*3 13.3 C 0 km/h
271 20-10-2008 22:32:03 13.3 C 9.36 g/m*3 13.3 C 0 km/h
272 20-10-2008 22:37:03 13.2 C 9.3 g/m*3 13.2 C 0 km/h
273 20-10-2008 22:42:03 13.2 C 9.3 g/m*3 13.2 C 0 km/h
274 20-10-2008 22:47:03 13.1 C 9.36 g/m*3 13.1 C 0 km/h
275 20-10-2008 22:52:03 13.1 C 9.36 g/m*3 13.1 C 0 km/h
Sensor: Nr:Datum:Temp:Abs-Feuchte:Windchill:Wind:
Aussen-T/F 276 20-10-2008 22:57:03 13 C 9.3 g/m*3 13 C 0 km/h
277 20-10-2008 23:02:03 13 C 9.3 g/m*3 13 C 0 km/h
278 20-10-2008 23:07:03 12.9 C 9.35 g/m*3 12.9 C 0 km/h
279 20-10-2008 23:12:03 13 C 9.41 g/m*3 13 C 0 km/h
280 20-10-2008 23:17:03 13 C 9.41 g/m*3 13 C 0 km/h
281 20-10-2008 23:22:03 12.9 C 9.47 g/m*3 12.9 C 0 km/h
282 20-10-2008 23:27:03 12.8 C 9.41 g/m*3 12.8 C 0 km/h
283 20-10-2008 23:32:03 12.9 C 9.47 g/m*3 12.9 C 0 km/h
284 20-10-2008 23:37:03 12.8 C 9.52 g/m*3 12.8 C 0 km/h
285 20-10-2008 23:42:04 12.9 C 9.58 g/m*3 12.9 C 0 km/h
286 20-10-2008 23:47:04 12.9 C 9.58 g/m*3 12.9 C 0 km/h
287 20-10-2008 23:52:04 13 C 9.64 g/m*3 13 C 0 km/h
288 20-10-2008 23:57:04 13 C 9.64 g/m*3 13 C 0 km/h
289 21-10-2008 00:02:04 12.9 C 9.69 g/m*3 12.9 C 0 km/h
290 21-10-2008 00:07:04 12.9 C 9.81 g/m*3 12.9 C 0 km/h
291 21-10-2008 00:12:04 13 C 9.75 g/m*3 13 C 0 km/h
292 21-10-2008 00:17:04 13.1 C 9.81 g/m*3 13.1 C 0 km/h
293 21-10-2008 00:22:04 13.3 C 9.94 g/m*3 13.3 C 0 km/h
294 21-10-2008 00:27:04 13.8 C 10.37 g/m*3 13.8 C 0 km/h
295 21-10-2008 00:32:04 14 C 10.37 g/m*3 14 C 0 km/h
296 21-10-2008 00:37:04 14.2 C 10.38 g/m*3 14.2 C 0 km/h
297 21-10-2008 00:42:04 14.6 C 10.51 g/m*3 14.6 C 0 km/h
298 21-10-2008 00:47:04 15.1 C 10.45 g/m*3 15.1 C 0 km/h
299 21-10-2008 00:52:04 15.1 C 10.06 g/m*3 15.1 C 0 km/h
300 21-10-2008 00:57:04 15.1 C 10.06 g/m*3 15.1 C 0 km/h
Sensor: Nr:Datum:Temp:Abs-Feuchte:Windchill:Wind:
Aussen-T/F 301 21-10-2008 01:02:04 15 C 10 g/m*3 15 C 0 km/h
302 21-10-2008 01:07:04 14.7 C 9.95 g/m*3 14.7 C 0 km/h
303 21-10-2008 01:12:04 14.7 C 9.95 g/m*3 14.7 C 0 km/h
304 21-10-2008 01:17:05 14.4 C 9.89 g/m*3 14.4 C 0 km/h
305 21-10-2008 01:22:05 14.4 C 9.89 g/m*3 14.4 C 0 km/h
306 21-10-2008 01:27:05 14.1 C 9.71 g/m*3 14.1 C 0 km/h
307 21-10-2008 01:32:05 13.8 C 9.65 g/m*3 13.8 C 0 km/h
308 21-10-2008 01:37:05 13.6 C 9.65 g/m*3 13.6 C 0 km/h
309 21-10-2008 01:42:05 13.6 C 9.65 g/m*3 13.6 C 0 km/h
310 21-10-2008 01:47:05 13.4 C 9.65 g/m*3 13.4 C 0 km/h
311 21-10-2008 01:52:05 13.3 C 9.59 g/m*3 13.3 C 0 km/h
312 21-10-2008 01:57:05 13.2 C 9.64 g/m*3 13.2 C 0 km/h
313 21-10-2008 02:02:05 13.1 C 9.59 g/m*3 13.1 C 0 km/h
314 21-10-2008 02:07:05 13.1 C 9.59 g/m*3 13.1 C 0 km/h
315 21-10-2008 02:12:05 13.1 C 9.59 g/m*3 13.1 C 0 km/h
316 21-10-2008 02:17:05 13.1 C 9.7 g/m*3 13.1 C 0 km/h
317 21-10-2008 02:22:05 13.1 C 9.7 g/m*3 13.1 C 0 km/h
318 21-10-2008 02:27:05 13.2 C 9.87 g/m*3 13.2 C 0 km/h
319 21-10-2008 02:32:05 13.2 C 9.87 g/m*3 13.2 C 0 km/h
320 21-10-2008 02:37:05 13.3 C 10.05 g/m*3 13.3 C 0 km/h
321 21-10-2008 02:42:05 13.4 C 10.11 g/m*3 13.4 C 0 km/h
322 21-10-2008 02:47:05 13.4 C 10.11 g/m*3 13.4 C 0 km/h
323 21-10-2008 02:52:05 13.5 C 10.18 g/m*3 13.5 C 0 km/h
324 21-10-2008 02:57:06 13.5 C 10.18 g/m*3 13.5 C 0 km/h
325 21-10-2008 03:02:06 13.2 C 9.87 g/m*3 13.2 C 0 km/h
Sensor: Nr:Datum:Temp:Abs-Feuchte:Windchill:Wind:
Aussen-T/F 326 21-10-2008 03:07:06 13.2 C 9.87 g/m*3 13.2 C 0 km/h
327 21-10-2008 03:12:06 13.2 C 9.87 g/m*3 13.2 C 0 km/h
328 21-10-2008 03:17:06 13.2 C 9.87 g/m*3 13.2 C 0 km/h
329 21-10-2008 03:22:06 13.2 C 9.87 g/m*3 13.2 C 0 km/h
330 21-10-2008 03:27:06 13.2 C 9.87 g/m*3 13.2 C 0 km/h
331 21-10-2008 03:32:06 13.1 C 9.81 g/m*3 13.1 C 0 km/h
332 21-10-2008 03:37:06 13.2 C 9.87 g/m*3 13.2 C 0 km/h
333 21-10-2008 03:42:06 13.2 C 9.87 g/m*3 13.2 C 0 km/h
334 21-10-2008 03:47:06 13.6 C 10.24 g/m*3 13.6 C 0 km/h
335 21-10-2008 03:52:06 13.7 C 10.3 g/m*3 13.7 C 0 km/h
336 21-10-2008 03:57:06 13.9 C 10.31 g/m*3 13.9 C 0 km/h
337 21-10-2008 04:02:06 14 C 10.25 g/m*3 14 C 0 km/h
338 21-10-2008 04:07:06 13.9 C 10.19 g/m*3 13.9 C 0 km/h
339 21-10-2008 04:12:06 13.9 C 10.19 g/m*3 13.9 C 0 km/h
340 21-10-2008 04:17:06 14 C 10.13 g/m*3 14 C 0 km/h
341 21-10-2008 04:22:06 13.9 C 10.07 g/m*3 13.9 C 0 km/h
342 21-10-2008 04:27:06 14 C 10.01 g/m*3 14 C 0 km/h
343 21-10-2008 04:32:07 13.9 C 10.07 g/m*3 13.9 C 0 km/h
344 21-10-2008 04:37:07 13.8 C 10.01 g/m*3 13.8 C 0 km/h
345 21-10-2008 04:42:07 13.8 C 10.01 g/m*3 13.8 C 0 km/h
346 21-10-2008 04:47:07 13.8 C 10.01 g/m*3 13.8 C 0 km/h
347 21-10-2008 04:52:07 13.9 C 10.07 g/m*3 13.9 C 0 km/h
348 21-10-2008 04:57:07 13.9 C 10.07 g/m*3 13.9 C 0 km/h
349 21-10-2008 05:02:07 14.3 C 10.32 g/m*3 14.3 C 0 km/h
350 21-10-2008 05:07:07 14.2 C 10.26 g/m*3 14.2 C 0 km/h
Sensor: Nr:Datum:Temp:Abs-Feuchte:Windchill:Wind:
Aussen-T/F 351 21-10-2008 05:12:07 14.6 C 10.39 g/m*3 14.6 C 0 km/h
352 21-10-2008 05:17:07 14.7 C 10.45 g/m*3 14.7 C 0 km/h
353 21-10-2008 05:22:07 14.8 C 10.51 g/m*3 14.8 C 0 km/h
354 21-10-2008 05:27:07 15 C 10.51 g/m*3 15 C 0 km/h
355 21-10-2008 05:32:07 15.1 C 10.32 g/m*3 15.1 C 0 km/h
356 21-10-2008 05:37:07 15.2 C 10.38 g/m*3 15.2 C 0 km/h
357 21-10-2008 05:42:07 15.2 C 10.38 g/m*3 15.2 C 0 km/h
358 21-10-2008 05:47:07 15.4 C 10.38 g/m*3 15.4 C 0 km/h
359 21-10-2008 05:52:07 15.6 C 10.51 g/m*3 15.6 C 0 km/h
360 21-10-2008 05:57:07 15.6 C 10.37 g/m*3 15.6 C 0 km/h
361 21-10-2008 06:02:07 15.7 C 10.44 g/m*3 15.7 C 0 km/h
362 21-10-2008 06:07:08 15.9 C 10.43 g/m*3 15.9 C 0 km/h
363 21-10-2008 06:12:08 16 C 10.22 g/m*3 16 C 0 km/h
364 21-10-2008 06:17:08 16.1 C 10.14 g/m*3 16.1 C 0 km/h
365 21-10-2008 06:22:08 16.2 C 10.07 g/m*3 16.2 C 0 km/h
366 21-10-2008 06:27:08 16.3 C 10.13 g/m*3 16.3 C 0 km/h
367 21-10-2008 06:32:03 16.4 C 10.05 g/m*3 16.4 C 0 km/h
368 21-10-2008 06:37:03 16.5 C 10.11 g/m*3 16.5 C 0 km/h
369 21-10-2008 06:42:03 16.5 C 10.11 g/m*3 16.5 C 0 km/h
370 21-10-2008 06:47:02 16.7 C 10.09 g/m*3 16.7 C 0 km/h
371 21-10-2008 06:52:02 16.6 C 10.03 g/m*3 16.6 C 0 km/h
372 21-10-2008 06:57:02 16.6 C 10.03 g/m*3 16.6 C 0 km/h
373 21-10-2008 07:02:02 16.6 C 10.03 g/m*3 16.6 C 0 km/h
374 21-10-2008 07:07:02 16.6 C 10.03 g/m*3 16.6 C 0 km/h
375 21-10-2008 07:12:02 16.5 C 9.97 g/m*3 16.5 C 0 km/h
Sensor: Nr:Datum:Temp:Abs-Feuchte:Windchill:Wind:
Aussen-T/F 376 21-10-2008 07:17:02 16.5 C 9.97 g/m*3 16.5 C 0 km/h
377 21-10-2008 07:22:02 16.5 C 9.97 g/m*3 16.5 C 0 km/h
378 21-10-2008 07:27:02 16.4 C 9.91 g/m*3 16.4 C 0 km/h
379 21-10-2008 07:32:02 16.4 C 9.91 g/m*3 16.4 C 0 km/h
380 21-10-2008 07:37:02 16.4 C 10.05 g/m*3 16.4 C 0 km/h
381 21-10-2008 07:42:03 16.6 C 10.03 g/m*3 16.6 C 0 km/h
382 21-10-2008 07:47:01 16.9 C 9.92 g/m*3 16.9 C 0 km/h
383 21-10-2008 07:52:01 17 C 9.84 g/m*3 17 C 0 km/h
384 21-10-2008 07:57:01 16.9 C 9.92 g/m*3 16.9 C 0 km/h
385 21-10-2008 08:02:01 16.9 C 9.92 g/m*3 16.9 C 0 km/h
386 21-10-2008 08:07:01 16.9 C 9.92 g/m*3 16.9 C 0 km/h
387 21-10-2008 08:12:01 16.9 C 9.78 g/m*3 16.9 C 0 km/h
388 21-10-2008 08:17:02 16.9 C 9.64 g/m*3 16.9 C 0 km/h
389 21-10-2008 08:22:03 17.2 C 9.67 g/m*3 17.2 C 0 km/h
390 21-10-2008 08:27:03 17.1 C 9.46 g/m*3 17.1 C 0 km/h
391 21-10-2008 08:32:01 17.2 C 9.37 g/m*3 17.2 C 0 km/h
392 21-10-2008 08:37:01 17.1 C 9.32 g/m*3 17.1 C 0 km/h
393 21-10-2008 08:42:01 17.1 C 9.17 g/m*3 17.1 C 0 km/h
394 21-10-2008 08:47:01 17.1 C 9.17 g/m*3 17.1 C 0 km/h
395 21-10-2008 08:52:01 17.1 C 9.17 g/m*3 17.1 C 0 km/h
396 21-10-2008 08:57:01 17.1 C 9.17 g/m*3 17.1 C 0 km/h
397 21-10-2008 09:02:02 17.2 C 9.08 g/m*3 17.2 C 0 km/h
398 21-10-2008 09:07:03 17.1 C 9.03 g/m*3 17.1 C 0 km/h
399 21-10-2008 09:12:03 17.2 C 9.08 g/m*3 17.2 C 0 km/h
400 21-10-2008 09:17:01 17.1 C 9.03 g/m*3 17.1 C 0 km/h
Sensor: Nr:Datum:Temp:Abs-Feuchte:Windchill:Wind:
Aussen-T/F 401 21-10-2008 09:22:01 17.2 C 9.08 g/m*3 17.2 C 0 km/h
402 21-10-2008 09:27:01 17.1 C 9.03 g/m*3 17.1 C 0 km/h
403 21-10-2008 09:32:02 17.2 C 8.93 g/m*3 17.2 C 0 km/h
404 21-10-2008 09:37:02 17.2 C 8.93 g/m*3 17.2 C 0 km/h
405 21-10-2008 09:42:02 17.3 C 8.99 g/m*3 17.3 C 0 km/h
406 21-10-2008 09:47:02 17.3 C 8.84 g/m*3 17.3 C 0 km/h
407 21-10-2008 09:52:02 17.3 C 8.84 g/m*3 17.3 C 0 km/h
408 21-10-2008 09:57:02 17.3 C 8.84 g/m*3 17.3 C 0 km/h
409 21-10-2008 10:02:02 17.3 C 8.84 g/m*3 17.3 C 0 km/h
410 21-10-2008 10:07:02 17.4 C 8.89 g/m*3 17.4 C 0 km/h
411 21-10-2008 10:12:02 17.5 C 8.8 g/m*3 17.5 C 0 km/h
412 21-10-2008 10:17:02 17.5 C 8.8 g/m*3 17.5 C 0 km/h
413 21-10-2008 10:22:03 17.5 C 8.8 g/m*3 17.5 C 0 km/h
414 21-10-2008 10:27:03 17.5 C 8.8 g/m*3 17.5 C 0 km/h
415 21-10-2008 10:32:01 17.4 C 8.74 g/m*3 17.4 C 0 km/h
416 21-10-2008 10:37:01 17.5 C 8.65 g/m*3 17.5 C 0 km/h
417 21-10-2008 10:42:01 17.5 C 8.65 g/m*3 17.5 C 0 km/h
418 21-10-2008 10:47:01 17.6 C 8.7 g/m*3 17.6 C 0 km/h
419 21-10-2008 10:52:01 17.6 C 8.7 g/m*3 17.6 C 0 km/h
420 21-10-2008 10:57:01 17.6 C 8.55 g/m*3 17.6 C 0 km/h
421 21-10-2008 11:02:02 17.7 C 8.6 g/m*3 17.7 C 0 km/h
422 21-10-2008 11:07:03 17.7 C 8.6 g/m*3 17.7 C 0 km/h
423 21-10-2008 11:12:03 17.8 C 8.5 g/m*3 17.8 C 0 km/h
424 21-10-2008 11:17:01 17.8 C 8.65 g/m*3 17.8 C 0 km/h
425 21-10-2008 11:22:01 17.9 C 8.7 g/m*3 17.9 C 0 km/h
Sensor: Nr:Datum:Temp:Abs-Feuchte:Windchill:Wind:
Aussen-T/F 426 21-10-2008 11:27:01 18 C 8.6 g/m*3 18 C 0 km/h
427 21-10-2008 11:32:02 18.1 C 8.34 g/m*3 18.1 C 0 km/h
428 21-10-2008 11:37:02 18.1 C 8.34 g/m*3 18.1 C 0 km/h
429 21-10-2008 11:42:02 18.1 C 8.34 g/m*3 18.1 C 0 km/h
430 21-10-2008 11:47:02 18.1 C 8.34 g/m*3 18.1 C 0 km/h
431 21-10-2008 11:52:03 18.1 C 8.34 g/m*3 18.1 C 0 km/h
432 21-10-2008 11:57:03 18.1 C 8.34 g/m*3 18.1 C 0 km/h
433 21-10-2008 12:02:02 18.3 C 8.44 g/m*3 18.3 C 0 km/h
434 21-10-2008 12:07:02 18.2 C 8.39 g/m*3 18.2 C 0 km/h
435 21-10-2008 12:12:02 18.2 C 8.39 g/m*3 18.2 C 0 km/h
436 21-10-2008 12:17:02 18.1 C 8.5 g/m*3 18.1 C 0 km/h
437 21-10-2008 12:22:02 17.7 C 8.45 g/m*3 17.7 C 0 km/h
438 21-10-2008 12:27:02 16.1 C 7.26 g/m*3 16.1 C 0 km/h
439 21-10-2008 12:32:02 14.8 C 7.6 g/m*3 14.8 C 0 km/h
440 21-10-2008 12:37:02 14.1 C 7.65 g/m*3 14.1 C 0 km/h
441 21-10-2008 12:42:02 13.7 C 7.93 g/m*3 13.7 C 0 km/h
442 21-10-2008 12:47:02 13.2 C 7.92 g/m*3 13.2 C 0 km/h
443 21-10-2008 12:52:02 12.6 C 8.19 g/m*3 12.6 C 0 km/h
444 21-10-2008 12:57:02 12.1 C 8.36 g/m*3 12.1 C 0 km/h
445 21-10-2008 13:02:02 12.1 C 8.47 g/m*3 12.1 C 0 km/h
446 21-10-2008 13:07:02 12 C 8.63 g/m*3 12 C 0 km/h
447 21-10-2008 13:12:02 12 C 8.74 g/m*3 12 C 0 km/h
448 21-10-2008 13:17:02 12 C 8.74 g/m*3 12 C 0 km/h
449 21-10-2008 13:22:02 11.8 C 8.74 g/m*3 11.8 C 0 km/h
450 21-10-2008 13:27:02 11.7 C 8.79 g/m*3 11.7 C 0 km/h
Sensor: Nr:Datum:Temp:Abs-Feuchte:Windchill:Wind:
Aussen-T/F 451 21-10-2008 13:32:03 11.7 C 8.89 g/m*3 11.7 C 0 km/h
452 21-10-2008 13:37:03 11.6 C 8.94 g/m*3 11.6 C 0 km/h
453 21-10-2008 13:42:03 11.6 C 8.94 g/m*3 11.6 C 0 km/h
454 21-10-2008 13:47:02 11.6 C 9.04 g/m*3 11.6 C 0 km/h
455 21-10-2008 13:52:02 11.7 C 9.2 g/m*3 11.7 C 0 km/h
456 21-10-2008 13:57:02 11.5 C 9.09 g/m*3 11.5 C 0 km/h
457 21-10-2008 14:02:02 11.3 C 8.98 g/m*3 11.3 C 0 km/h
458 21-10-2008 14:07:02 11.4 C 9.03 g/m*3 11.4 C 0 km/h
459 21-10-2008 14:12:02 11.4 C 9.03 g/m*3 11.4 C 0 km/h
460 21-10-2008 14:17:01 11.6 C 9.15 g/m*3 11.6 C 0 km/h
461 21-10-2008 14:22:01 11.6 C 9.15 g/m*3 11.6 C 0 km/h
462 21-10-2008 14:27:01 11.5 C 9.09 g/m*3 11.5 C 0 km/h
463 21-10-2008 14:32:02 11.4 C 9.14 g/m*3 11.4 C 0 km/h
464 21-10-2008 14:37:02 11.4 C 9.14 g/m*3 11.4 C 0 km/h
465 21-10-2008 14:42:03 11.4 C 9.14 g/m*3 11.4 C 0 km/h
466 21-10-2008 14:47:02 11.5 C 9.19 g/m*3 11.5 C 0 km/h
467 21-10-2008 14:52:02 11.5 C 9.19 g/m*3 11.5 C 0 km/h
468 21-10-2008 14:57:02 11.5 C 9.19 g/m*3 11.5 C 0 km/h
469 21-10-2008 15:02:02 11.5 C 9.19 g/m*3 11.5 C 0 km/h
470 21-10-2008 15:07:02 11.7 C 9.41 g/m*3 11.7 C 0 km/h
471 21-10-2008 15:12:02 11.7 C 9.41 g/m*3 11.7 C 0 km/h
472 21-10-2008 15:17:03 11.7 C 9.41 g/m*3 11.7 C 0 km/h
473 21-10-2008 15:22:03 11.7 C 9.41 g/m*3 11.7 C 0 km/h
474 21-10-2008 15:27:03 11.7 C 9.31 g/m*3 11.7 C 0 km/h
475 21-10-2008 15:32:02 11.4 C 9.14 g/m*3 11.4 C 0 km/h
Sensor: Nr:Datum:Temp:Abs-Feuchte:Windchill:Wind:
Aussen-T/F 476 21-10-2008 15:37:02 11.2 C 9.02 g/m*3 11.2 C 0 km/h
477 21-10-2008 15:42:02 11.3 C 9.08 g/m*3 11.3 C 0 km/h
478 21-10-2008 15:47:01 11.3 C 9.08 g/m*3 11.3 C 0 km/h
479 21-10-2008 15:52:01 11.2 C 9.02 g/m*3 11.2 C 0 km/h
480 21-10-2008 15:57:01 11.2 C 9.02 g/m*3 11.2 C 0 km/h
481 21-10-2008 16:02:02 11.2 C 9.02 g/m*3 11.2 C 0 km/h
482 21-10-2008 16:07:02 11.1 C 8.96 g/m*3 11.1 C 0 km/h
483 21-10-2008 16:12:02 11 C 8.91 g/m*3 11 C 0 km/h
484 21-10-2008 16:17:01 11.1 C 8.96 g/m*3 11.1 C 0 km/h
485 21-10-2008 16:22:01 11.3 C 9.18 g/m*3 11.3 C 0 km/h
486 21-10-2008 16:27:01 11.1 C 9.07 g/m*3 11.1 C 0 km/h
487 21-10-2008 16:32:02 11 C 9.01 g/m*3 11 C 0 km/h
488 21-10-2008 16:37:02 10.9 C 8.95 g/m*3 10.9 C 0 km/h
489 21-10-2008 16:42:02 10.7 C 8.84 g/m*3 10.7 C 0 km/h
490 21-10-2008 16:47:02 10.8 C 8.99 g/m*3 10.8 C 0 km/h
491 21-10-2008 16:52:02 10.9 C 9.05 g/m*3 10.9 C 0 km/h
492 21-10-2008 16:57:02 10.9 C 9.05 g/m*3 10.9 C 0 km/h
493 21-10-2008 17:02:02 10.9 C 9.15 g/m*3 10.9 C 0 km/h
494 21-10-2008 17:07:02 11 C 9.11 g/m*3 11 C 0 km/h
495 21-10-2008 17:12:02 11.1 C 9.17 g/m*3 11.1 C 0 km/h
496 21-10-2008 17:17:02 11 C 9.11 g/m*3 11 C 0 km/h
497 21-10-2008 17:22:02 10.9 C 9.15 g/m*3 10.9 C 0 km/h
498 21-10-2008 17:27:02 10.9 C 9.15 g/m*3 10.9 C 0 km/h
499 21-10-2008 17:32:02 11 C 9.11 g/m*3 11 C 0 km/h
500 21-10-2008 17:37:02 10.9 C 9.15 g/m*3 10.9 C 0 km/h
Sensor: Nr:Datum:Temp:Abs-Feuchte:Windchill:Wind:
Aussen-T/F 501 21-10-2008 17:42:02 10.9 C 9.15 g/m*3 10.9 C 0 km/h
502 21-10-2008 17:47:02 11 C 9.21 g/m*3 11 C 0 km/h
503 21-10-2008 17:52:02 10.9 C 9.15 g/m*3 10.9 C 0 km/h
504 21-10-2008 17:57:02 11 C 9.21 g/m*3 11 C 0 km/h
505 21-10-2008 18:02:02 10.9 C 9.15 g/m*3 10.9 C 0 km/h
506 21-10-2008 18:07:02 10.8 C 9.09 g/m*3 10.8 C 0 km/h
507 21-10-2008 18:12:02 10.6 C 8.98 g/m*3 10.6 C 0 km/h
508 21-10-2008 18:17:02 10.5 C 8.92 g/m*3 10.5 C 0 km/h
509 21-10-2008 18:22:02 10.2 C 8.76 g/m*3 10.2 C 0 km/h
510 21-10-2008 18:27:02 10.2 C 8.76 g/m*3 10.2 C 0 km/h
511 21-10-2008 18:32:03 10.2 C 8.76 g/m*3 10.2 C 0 km/h
512 21-10-2008 18:37:03 10.1 C 8.7 g/m*3 10.1 C 0 km/h
513 21-10-2008 18:42:03 10.3 C 8.81 g/m*3 10.3 C 0 km/h
514 21-10-2008 18:47:02 10.3 C 8.81 g/m*3 10.3 C 0 km/h
515 21-10-2008 18:52:02 10.1 C 8.7 g/m*3 10.1 C 0 km/h
516 21-10-2008 18:57:02 10 C 8.64 g/m*3 10 C 0 km/h
517 21-10-2008 19:02:02 10 C 8.64 g/m*3 10 C 0 km/h
518 21-10-2008 19:07:02 9.9 C 8.78 g/m*3 9.9 C 0 km/h
519 21-10-2008 19:12:02 9.9 C 8.78 g/m*3 9.9 C 0 km/h
520 21-10-2008 19:17:02 9.9 C 8.78 g/m*3 9.9 C 0 km/h
521 21-10-2008 19:22:02 9.9 C 8.78 g/m*3 9.9 C 0 km/h
522 21-10-2008 19:27:02 9.9 C 8.78 g/m*3 9.9 C 0 km/h
523 21-10-2008 19:32:02 9.8 C 8.72 g/m*3 9.8 C 0 km/h
524 21-10-2008 19:37:03 9.9 C 8.78 g/m*3 9.9 C 0 km/h
525 21-10-2008 19:42:03 9.7 C 8.67 g/m*3 9.7 C 0 km/h
Sensor: Nr:Datum:Temp:Abs-Feuchte:Windchill:Wind:
Aussen-T/F 526 21-10-2008 19:47:01 9.7 C 8.67 g/m*3 9.7 C 0 km/h
527 21-10-2008 19:52:01 9.6 C 8.61 g/m*3 9.6 C 0 km/h
528 21-10-2008 19:57:01 9.6 C 8.61 g/m*3 9.6 C 0 km/h
529 21-10-2008 20:02:01 9.4 C 8.5 g/m*3 9.4 C 0 km/h
530 21-10-2008 20:07:01 9.4 C 8.5 g/m*3 9.4 C 0 km/h
531 21-10-2008 20:12:01 9.4 C 8.5 g/m*3 9.4 C 0 km/h
532 21-10-2008 20:17:02 9.4 C 8.5 g/m*3 9.4 C 0 km/h
533 21-10-2008 20:22:02 9.5 C 8.56 g/m*3 9.5 C 0 km/h
534 21-10-2008 20:27:02 9.5 C 8.56 g/m*3 9.5 C 0 km/h
535 21-10-2008 20:32:01 9.5 C 8.56 g/m*3 9.5 C 0 km/h
536 21-10-2008 20:37:01 9.5 C 8.56 g/m*3 9.5 C 0 km/h
537 21-10-2008 20:42:01 9.7 C 8.67 g/m*3 9.7 C 0 km/h
538 21-10-2008 20:47:01 9.7 C 8.67 g/m*3 9.7 C 0 km/h
539 21-10-2008 20:52:01 9.5 C 8.56 g/m*3 9.5 C 0 km/h
540 21-10-2008 20:57:01 9.7 C 8.67 g/m*3 9.7 C 0 km/h
541 21-10-2008 21:02:02 9.7 C 8.76 g/m*3 9.7 C 0 km/h
542 21-10-2008 21:07:03 9.5 C 8.65 g/m*3 9.5 C 0 km/h
543 21-10-2008 21:12:03 9.7 C 8.76 g/m*3 9.7 C 0 km/h
544 21-10-2008 21:17:01 9.6 C 8.7 g/m*3 9.6 C 0 km/h
545 21-10-2008 21:22:01 9.6 C 8.7 g/m*3 9.6 C 0 km/h
546 21-10-2008 21:27:01 9.6 C 8.7 g/m*3 9.6 C 0 km/h
547 21-10-2008 21:32:02 9.5 C 8.65 g/m*3 9.5 C 0 km/h
548 21-10-2008 21:37:02 9.5 C 8.65 g/m*3 9.5 C 0 km/h
549 21-10-2008 21:42:02 9.3 C 8.54 g/m*3 9.3 C 0 km/h
550 21-10-2008 21:47:02 9.3 C 8.54 g/m*3 9.3 C 0 km/h
Sensor: Nr:Datum:Temp:Abs-Feuchte:Windchill:Wind:
Aussen-T/F 551 21-10-2008 21:52:02 9.2 C 8.48 g/m*3 9.2 C 0 km/h
552 21-10-2008 21:57:02 9.1 C 8.43 g/m*3 9.1 C 0 km/h
553 21-10-2008 22:02:02 9.1 C 8.34 g/m*3 9.1 C 0 km/h
554 21-10-2008 22:07:02 9.1 C 8.34 g/m*3 9.1 C 0 km/h
555 21-10-2008 22:12:02 9.1 C 8.34 g/m*3 9.1 C 0 km/h
556 21-10-2008 22:18:04 9.1 C 8.34 g/m*3 9.1 C 0 km/h
557 21-10-2008 22:23:04 9.2 C 8.39 g/m*3 9.2 C 0 km/h
558 21-10-2008 22:28:04 9.2 C 8.39 g/m*3 9.2 C 0 km/h
559 21-10-2008 22:33:04 9.1 C 8.34 g/m*3 9.1 C 0 km/h
560 21-10-2008 22:38:04 9 C 8.29 g/m*3 9 C 0 km/h
561 21-10-2008 22:43:04 9 C 8.29 g/m*3 9 C 0 km/h
562 21-10-2008 22:48:04 8.9 C 8.32 g/m*3 8.9 C 0 km/h
563 21-10-2008 22:53:04 8.8 C 8.27 g/m*3 8.8 C 0 km/h
564 21-10-2008 22:58:04 8.8 C 8.27 g/m*3 8.8 C 0 km/h
565 21-10-2008 23:03:04 8.7 C 8.22 g/m*3 8.7 C 0 km/h
566 21-10-2008 23:08:05 8.7 C 8.22 g/m*3 8.7 C 0 km/h
567 21-10-2008 23:13:05 8.7 C 8.22 g/m*3 8.7 C 0 km/h
568 21-10-2008 23:18:05 8.7 C 8.22 g/m*3 8.7 C 0 km/h
569 21-10-2008 23:23:05 8.7 C 8.22 g/m*3 8.7 C 0 km/h
570 21-10-2008 23:28:05 8.7 C 8.22 g/m*3 8.7 C 0 km/h
571 21-10-2008 23:33:05 8.6 C 8.16 g/m*3 8.6 C 0 km/h
572 21-10-2008 23:38:05 8.7 C 8.22 g/m*3 8.7 C 0 km/h
573 21-10-2008 23:43:05 8.6 C 8.16 g/m*3 8.6 C 0 km/h
574 21-10-2008 23:48:05 8.6 C 8.16 g/m*3 8.6 C 0 km/h
575 21-10-2008 23:53:05 8.7 C 8.22 g/m*3 8.7 C 0 km/h
Sensor: Nr:Datum:Temp:Abs-Feuchte:Windchill:Wind:
Aussen-T/F 576 21-10-2008 23:58:05 8.8 C 8.27 g/m*3 8.8 C 0 km/h
577 22-10-2008 00:03:05 8.8 C 8.27 g/m*3 8.8 C 0 km/h
578 22-10-2008 00:08:05 8.7 C 8.22 g/m*3 8.7 C 0 km/h
579 22-10-2008 00:13:05 8.8 C 8.27 g/m*3 8.8 C 0 km/h
580 22-10-2008 00:18:05 8.7 C 8.22 g/m*3 8.7 C 0 km/h
581 22-10-2008 00:23:05 8.7 C 8.22 g/m*3 8.7 C 0 km/h
582 22-10-2008 00:28:05 8.8 C 8.27 g/m*3 8.8 C 0 km/h
583 22-10-2008 00:33:05 8.8 C 8.27 g/m*3 8.8 C 0 km/h
584 22-10-2008 00:38:05 8.8 C 8.27 g/m*3 8.8 C 0 km/h
585 22-10-2008 00:43:06 8.8 C 8.27 g/m*3 8.8 C 0 km/h
586 22-10-2008 00:48:06 8.8 C 8.18 g/m*3 8.8 C 0 km/h
587 22-10-2008 00:53:06 8.8 C 8.27 g/m*3 8.8 C 0 km/h
588 22-10-2008 00:58:06 8.8 C 8.18 g/m*3 8.8 C 0 km/h
589 22-10-2008 01:03:06 8.8 C 8.18 g/m*3 8.8 C 0 km/h
590 22-10-2008 01:08:06 8.8 C 8.18 g/m*3 8.8 C 0 km/h
591 22-10-2008 01:13:06 8.8 C 8.18 g/m*3 8.8 C 0 km/h
592 22-10-2008 01:18:06 8.7 C 8.13 g/m*3 8.7 C 0 km/h
593 22-10-2008 01:23:06 8.7 C 8.13 g/m*3 8.7 C 0 km/h
594 22-10-2008 01:28:06 8.7 C 8.13 g/m*3 8.7 C 0 km/h
595 22-10-2008 01:33:06 8.8 C 8.18 g/m*3 8.8 C 0 km/h
596 22-10-2008 01:38:06 8.7 C 8.13 g/m*3 8.7 C 0 km/h
597 22-10-2008 01:43:06 8.7 C 8.13 g/m*3 8.7 C 0 km/h
598 22-10-2008 01:48:06 8.7 C 8.13 g/m*3 8.7 C 0 km/h
599 22-10-2008 01:53:06 8.7 C 8.13 g/m*3 8.7 C 0 km/h
600 22-10-2008 01:58:06 8.7 C 8.13 g/m*3 8.7 C 0 km/h
Sensor: Nr:Datum:Temp:Abs-Feuchte:Windchill:Wind:
Aussen-T/F 601 22-10-2008 02:03:06 8.7 C 8.13 g/m*3 8.7 C 0 km/h
602 22-10-2008 02:08:06 8.7 C 8.13 g/m*3 8.7 C 0 km/h
603 22-10-2008 02:13:06 8.7 C 8.13 g/m*3 8.7 C 0 km/h
604 22-10-2008 02:18:06 8.6 C 8.08 g/m*3 8.6 C 0 km/h
605 22-10-2008 02:23:07 8.6 C 8.08 g/m*3 8.6 C 0 km/h
606 22-10-2008 02:28:07 8.6 C 8.08 g/m*3 8.6 C 0 km/h
607 22-10-2008 02:33:07 8.6 C 8.08 g/m*3 8.6 C 0 km/h
608 22-10-2008 02:38:07 8.6 C 8.08 g/m*3 8.6 C 0 km/h
609 22-10-2008 02:43:07 8.6 C 8.16 g/m*3 8.6 C 0 km/h
610 22-10-2008 02:48:07 8.5 C 8.03 g/m*3 8.5 C 0 km/h
611 22-10-2008 02:53:07 8.5 C 8.03 g/m*3 8.5 C 0 km/h
612 22-10-2008 02:58:07 8.5 C 8.03 g/m*3 8.5 C 0 km/h
613 22-10-2008 03:03:07 8.5 C 8.03 g/m*3 8.5 C 0 km/h
614 22-10-2008 03:08:07 8.5 C 8.11 g/m*3 8.5 C 0 km/h
615 22-10-2008 03:13:07 8.5 C 8.11 g/m*3 8.5 C 0 km/h
616 22-10-2008 03:18:07 8.5 C 8.11 g/m*3 8.5 C 0 km/h
617 22-10-2008 03:23:07 8.5 C 8.11 g/m*3 8.5 C 0 km/h
618 22-10-2008 03:28:07 8.5 C 8.11 g/m*3 8.5 C 0 km/h
619 22-10-2008 03:33:07 8.5 C 8.11 g/m*3 8.5 C 0 km/h
620 22-10-2008 03:38:07 8.5 C 8.11 g/m*3 8.5 C 0 km/h
621 22-10-2008 03:43:07 8.5 C 8.11 g/m*3 8.5 C 0 km/h
622 22-10-2008 03:48:07 8.5 C 8.11 g/m*3 8.5 C 0 km/h
623 22-10-2008 03:53:07 8.5 C 8.11 g/m*3 8.5 C 0 km/h
624 22-10-2008 03:58:08 8.5 C 8.11 g/m*3 8.5 C 0 km/h
625 22-10-2008 04:03:08 8.5 C 8.11 g/m*3 8.5 C 0 km/h
Sensor: Nr:Datum:Temp:Abs-Feuchte:Windchill:Wind:
Aussen-T/F 626 22-10-2008 04:08:08 8.4 C 8.06 g/m*3 8.4 C 0 km/h
627 22-10-2008 04:13:08 8.5 C 8.11 g/m*3 8.5 C 0 km/h
628 22-10-2008 04:18:08 8.4 C 8.06 g/m*3 8.4 C 0 km/h
629 22-10-2008 04:23:08 8.4 C 8.06 g/m*3 8.4 C 0 km/h
630 22-10-2008 04:28:08 8.4 C 8.06 g/m*3 8.4 C 0 km/h
631 22-10-2008 04:33:08 8.4 C 8.06 g/m*3 8.4 C 0 km/h
632 22-10-2008 04:38:08 8.4 C 8.06 g/m*3 8.4 C 0 km/h
633 22-10-2008 04:43:08 8.4 C 8.06 g/m*3 8.4 C 0 km/h
634 22-10-2008 04:48:08 8.4 C 8.06 g/m*3 8.4 C 0 km/h
635 22-10-2008 04:53:08 8.4 C 8.06 g/m*3 8.4 C 0 km/h
636 22-10-2008 04:58:08 8.4 C 8.06 g/m*3 8.4 C 0 km/h
637 22-10-2008 05:03:08 8.3 C 8.01 g/m*3 8.3 C 0 km/h
638 22-10-2008 05:08:08 8.3 C 8.01 g/m*3 8.3 C 0 km/h
639 22-10-2008 05:13:08 8.3 C 8.01 g/m*3 8.3 C 0 km/h
640 22-10-2008 05:18:08 8.3 C 8.01 g/m*3 8.3 C 0 km/h
641 22-10-2008 05:23:08 8.3 C 8.01 g/m*3 8.3 C 0 km/h
642 22-10-2008 05:28:08 8.3 C 8.01 g/m*3 8.3 C 0 km/h
643 22-10-2008 05:33:08 8.3 C 8.01 g/m*3 8.3 C 0 km/h
644 22-10-2008 05:38:09 8.2 C 7.96 g/m*3 8.2 C 0 km/h
645 22-10-2008 05:43:09 8.2 C 7.96 g/m*3 8.2 C 0 km/h
646 22-10-2008 05:48:09 8.2 C 7.96 g/m*3 8.2 C 0 km/h
647 22-10-2008 05:53:09 8.2 C 7.96 g/m*3 8.2 C 0 km/h
648 22-10-2008 05:58:09 8.2 C 7.96 g/m*3 8.2 C 0 km/h
649 22-10-2008 06:03:09 8.2 C 7.96 g/m*3 8.2 C 0 km/h
650 22-10-2008 06:08:09 8.1 C 7.9 g/m*3 8.1 C 0 km/h
Sensor: Nr:Datum:Temp:Abs-Feuchte:Windchill:Wind:
Aussen-T/F 651 22-10-2008 06:13:09 8.2 C 7.96 g/m*3 8.2 C 0 km/h
652 22-10-2008 06:18:09 8.2 C 7.96 g/m*3 8.2 C 0 km/h
653 22-10-2008 06:23:09 8.2 C 7.96 g/m*3 8.2 C 0 km/h
654 22-10-2008 06:28:09 8.2 C 7.96 g/m*3 8.2 C 0 km/h
655 22-10-2008 06:33:09 8.1 C 7.9 g/m*3 8.1 C 0 km/h
656 22-10-2008 06:38:09 8.1 C 7.9 g/m*3 8.1 C 0 km/h
657 22-10-2008 06:43:09 8.1 C 7.9 g/m*3 8.1 C 0 km/h
658 22-10-2008 06:48:02 8.1 C 7.9 g/m*3 8.1 C 0 km/h
659 22-10-2008 06:53:02 8.1 C 7.9 g/m*3 8.1 C 0 km/h
660 22-10-2008 06:58:02 8.1 C 7.9 g/m*3 8.1 C 0 km/h
661 22-10-2008 07:03:02 8.1 C 7.9 g/m*3 8.1 C 0 km/h
662 22-10-2008 07:08:02 8 C 7.85 g/m*3 8 C 0 km/h
663 22-10-2008 07:13:02 8 C 7.85 g/m*3 8 C 0 km/h
664 22-10-2008 07:18:03 8 C 7.85 g/m*3 8 C 0 km/h
665 22-10-2008 07:23:03 8 C 7.85 g/m*3 8 C 0 km/h
666 22-10-2008 07:28:03 8 C 7.85 g/m*3 8 C 0 km/h
667 22-10-2008 07:33:02 8 C 7.85 g/m*3 8 C 0 km/h
668 22-10-2008 07:38:02 8 C 7.85 g/m*3 8 C 0 km/h
669 22-10-2008 07:43:02 8 C 7.85 g/m*3 8 C 0 km/h
670 22-10-2008 07:48:01 8 C 7.85 g/m*3 8 C 0 km/h
671 22-10-2008 07:53:01 8 C 7.85 g/m*3 8 C 0 km/h
672 22-10-2008 07:58:01 8 C 7.85 g/m*3 8 C 0 km/h
673 22-10-2008 08:03:02 8 C 7.85 g/m*3 8 C 0 km/h
674 22-10-2008 08:08:02 8 C 7.85 g/m*3 8 C 0 km/h
675 22-10-2008 08:13:02 8 C 7.85 g/m*3 8 C 0 km/h
Sensor: Nr:Datum:Temp:Abs-Feuchte:Windchill:Wind:
Aussen-T/F 676 22-10-2008 08:18:01 8 C 7.85 g/m*3 8 C 0 km/h
677 22-10-2008 08:23:01 8 C 7.85 g/m*3 8 C 0 km/h
678 22-10-2008 08:28:01 8 C 7.85 g/m*3 8 C 0 km/h
679 22-10-2008 08:33:02 8 C 7.85 g/m*3 8 C 0 km/h
680 22-10-2008 08:38:02 8.1 C 7.9 g/m*3 8.1 C 0 km/h
681 22-10-2008 08:43:02 8.1 C 7.9 g/m*3 8.1 C 0 km/h
682 22-10-2008 08:48:02 8.1 C 7.9 g/m*3 8.1 C 0 km/h
683 22-10-2008 08:53:02 8.1 C 7.9 g/m*3 8.1 C 0 km/h
684 22-10-2008 08:58:02 8.1 C 7.9 g/m*3 8.1 C 0 km/h
685 22-10-2008 09:03:02 8.2 C 7.96 g/m*3 8.2 C 0 km/h
686 22-10-2008 09:08:02 8.2 C 7.96 g/m*3 8.2 C 0 km/h
687 22-10-2008 09:13:02 8.2 C 7.96 g/m*3 8.2 C 0 km/h
688 22-10-2008 09:18:02 8.3 C 8.01 g/m*3 8.3 C 0 km/h
689 22-10-2008 09:23:02 8.4 C 8.06 g/m*3 8.4 C 0 km/h
690 22-10-2008 09:28:02 8.5 C 8.11 g/m*3 8.5 C 0 km/h
691 22-10-2008 09:33:02 8.5 C 8.11 g/m*3 8.5 C 0 km/h
692 22-10-2008 09:38:02 8.6 C 8.16 g/m*3 8.6 C 0 km/h
693 22-10-2008 09:43:02 8.6 C 8.16 g/m*3 8.6 C 0 km/h
694 22-10-2008 09:48:02 8.7 C 8.22 g/m*3 8.7 C 0 km/h
695 22-10-2008 09:53:02 8.7 C 8.22 g/m*3 8.7 C 0 km/h
696 22-10-2008 09:58:02 8.8 C 8.27 g/m*3 8.8 C 0 km/h
697 22-10-2008 10:03:02 8.7 C 8.22 g/m*3 8.7 C 0 km/h
698 22-10-2008 10:08:02 8.7 C 8.13 g/m*3 8.7 C 0 km/h
699 22-10-2008 10:13:02 8.7 C 8.13 g/m*3 8.7 C 0 km/h
700 22-10-2008 10:18:02 8.7 C 8.13 g/m*3 8.7 C 0 km/h
Sensor: Nr:Datum:Temp:Abs-Feuchte:Windchill:Wind:
Aussen-T/F 701 22-10-2008 10:23:02 8.8 C 8.18 g/m*3 8.8 C 0 km/h
702 22-10-2008 10:28:02 8.8 C 8.09 g/m*3 8.8 C 0 km/h
703 22-10-2008 10:33:03 8.8 C 8.09 g/m*3 8.8 C 0 km/h
704 22-10-2008 10:38:03 8.8 C 8.09 g/m*3 8.8 C 0 km/h
705 22-10-2008 10:43:03 8.8 C 8.09 g/m*3 8.8 C 0 km/h
706 22-10-2008 10:48:02 8.8 C 8.01 g/m*3 8.8 C 0 km/h
707 22-10-2008 10:53:02 8.9 C 8.06 g/m*3 8.9 C 0 km/h
708 22-10-2008 10:58:02 8.9 C 8.06 g/m*3 8.9 C 0 km/h
709 22-10-2008 11:03:02 9 C 7.93 g/m*3 9 C 0 km/h
710 22-10-2008 11:08:02 9.1 C 7.99 g/m*3 9.1 C 0 km/h
711 22-10-2008 11:13:02 9.2 C 8.04 g/m*3 9.2 C 0 km/h
712 22-10-2008 11:18:02 9.3 C 8.09 g/m*3 9.3 C 0 km/h
713 22-10-2008 11:23:02 9.3 C 8.09 g/m*3 9.3 C 0 km/h
714 22-10-2008 11:28:02 9.3 C 8 g/m*3 9.3 C 0 km/h
715 22-10-2008 11:33:02 9.5 C 8.1 g/m*3 9.5 C 0 km/h
716 22-10-2008 11:38:02 9.7 C 8.2 g/m*3 9.7 C 0 km/h
717 22-10-2008 11:43:02 9.7 C 8.11 g/m*3 9.7 C 0 km/h
718 22-10-2008 11:48:02 10 C 8.08 g/m*3 10 C 0 km/h
719 22-10-2008 11:53:02 10.2 C 8.09 g/m*3 10.2 C 0 km/h
720 22-10-2008 11:58:02 10.4 C 8.1 g/m*3 10.4 C 0 km/h
721 22-10-2008 12:03:03 10.5 C 8.05 g/m*3 10.5 C 0 km/h
722 22-10-2008 12:08:03 10.4 C 7.9 g/m*3 10.4 C 0 km/h
723 22-10-2008 12:13:03 10.5 C 7.76 g/m*3 10.5 C 0 km/h
724 22-10-2008 12:18:02 10.5 C 7.66 g/m*3 10.5 C 0 km/h
725 22-10-2008 12:23:02 10.5 C 7.66 g/m*3 10.5 C 0 km/h
Sensor: Nr:Datum:Temp:Abs-Feuchte:Windchill:Wind:
Aussen-T/F 726 22-10-2008 12:28:03 10.9 C 7.86 g/m*3 10.9 C 0 km/h
727 22-10-2008 12:33:02 10.9 C 7.66 g/m*3 10.9 C 0 km/h
728 22-10-2008 12:38:02 11 C 7.61 g/m*3 11 C 0 km/h
729 22-10-2008 12:43:02 11.1 C 7.66 g/m*3 11.1 C 0 km/h
730 22-10-2008 12:48:03 11.2 C 7.6 g/m*3 11.2 C 0 km/h
731 22-10-2008 12:53:03 11.2 C 7.6 g/m*3 11.2 C 0 km/h
732 22-10-2008 12:58:03 11.3 C 7.45 g/m*3 11.3 C 0 km/h
733 22-10-2008 13:03:02 11.2 C 7.5 g/m*3 11.2 C 0 km/h
734 22-10-2008 13:08:02 11.2 C 7.4 g/m*3 11.2 C 0 km/h
735 22-10-2008 13:13:03 11.4 C 7.6 g/m*3 11.4 C 0 km/h
736 22-10-2008 13:18:02 11.5 C 7.44 g/m*3 11.5 C 0 km/h
737 22-10-2008 13:23:02 11.5 C 7.44 g/m*3 11.5 C 0 km/h
738 22-10-2008 13:28:02 11.6 C 7.38 g/m*3 11.6 C 0 km/h
739 22-10-2008 13:33:02 11.7 C 7.32 g/m*3 11.7 C 0 km/h
740 22-10-2008 13:38:02 12 C 7.35 g/m*3 12 C 0 km/h
741 22-10-2008 13:43:02 12.2 C 7.34 g/m*3 12.2 C 0 km/h
742 22-10-2008 13:48:01 12.3 C 7.38 g/m*3 12.3 C 0 km/h
743 22-10-2008 13:53:01 12.1 C 7.08 g/m*3 12.1 C 0 km/h
744 22-10-2008 13:58:02 12.1 C 6.97 g/m*3 12.1 C 0 km/h
745 22-10-2008 14:03:01 12.1 C 6.86 g/m*3 12.1 C 0 km/h
746 22-10-2008 14:08:01 12.3 C 6.95 g/m*3 12.3 C 0 km/h
747 22-10-2008 14:13:01 12.4 C 6.99 g/m*3 12.4 C 0 km/h
748 22-10-2008 14:18:02 12.4 C 6.99 g/m*3 12.4 C 0 km/h
749 22-10-2008 14:23:02 12.3 C 6.84 g/m*3 12.3 C 0 km/h
750 22-10-2008 14:28:02 12.2 C 6.58 g/m*3 12.2 C 0 km/h
Sensor: Nr:Datum:Temp:Abs-Feuchte:Windchill:Wind:
Aussen-T/F 751 22-10-2008 14:33:01 12.2 C 6.47 g/m*3 12.2 C 0 km/h
752 22-10-2008 14:38:01 12.3 C 6.73 g/m*3 12.3 C 0 km/h
753 22-10-2008 14:43:01 12.4 C 6.77 g/m*3 12.4 C 0 km/h
754 22-10-2008 14:48:01 12.4 C 6.66 g/m*3 12.4 C 0 km/h
755 22-10-2008 14:53:01 12.3 C 6.52 g/m*3 12.3 C 0 km/h
756 22-10-2008 14:58:01 12.4 C 6.66 g/m*3 12.4 C 0 km/h
757 22-10-2008 15:03:02 12.4 C 6.56 g/m*3 12.4 C 0 km/h
758 22-10-2008 15:08:02 12.3 C 6.52 g/m*3 12.3 C 0 km/h
759 22-10-2008 15:13:02 12.2 C 6.47 g/m*3 12.2 C 0 km/h
760 22-10-2008 15:18:01 12.3 C 6.52 g/m*3 12.3 C 0 km/h
761 22-10-2008 15:23:01 12.2 C 6.37 g/m*3 12.2 C 0 km/h
762 22-10-2008 15:28:01 12.3 C 6.41 g/m*3 12.3 C 0 km/h
763 22-10-2008 15:33:02 12.2 C 6.47 g/m*3 12.2 C 0 km/h
764 22-10-2008 15:38:02 12.2 C 6.37 g/m*3 12.2 C 0 km/h
765 22-10-2008 15:43:02 12.2 C 6.47 g/m*3 12.2 C 0 km/h
766 22-10-2008 15:48:02 12.2 C 6.47 g/m*3 12.2 C 0 km/h
767 22-10-2008 15:53:02 12.2 C 6.47 g/m*3 12.2 C 0 km/h
768 22-10-2008 15:58:02 12.1 C 6.22 g/m*3 12.1 C 0 km/h
769 22-10-2008 16:03:01 12.1 C 6.11 g/m*3 12.1 C 0 km/h
770 22-10-2008 16:08:01 12 C 6.07 g/m*3 12 C 0 km/h
771 22-10-2008 16:13:01 12.1 C 6.11 g/m*3 12.1 C 0 km/h
772 22-10-2008 16:18:01 11.8 C 6.1 g/m*3 11.8 C 0 km/h
773 22-10-2008 16:23:01 11.8 C 6.1 g/m*3 11.8 C 0 km/h
774 22-10-2008 16:28:01 11.7 C 6.07 g/m*3 11.7 C 0 km/h
775 22-10-2008 16:33:01 11.7 C 6.28 g/m*3 11.7 C 0 km/h
Sensor: Nr:Datum:Temp:Abs-Feuchte:Windchill:Wind:
Aussen-T/F 776 22-10-2008 16:38:01 11.7 C 6.28 g/m*3 11.7 C 0 km/h
777 22-10-2008 16:43:01 11.7 C 6.28 g/m*3 11.7 C 0 km/h
778 22-10-2008 16:48:01 11.7 C 6.28 g/m*3 11.7 C 0 km/h
779 22-10-2008 16:53:01 11.7 C 6.38 g/m*3 11.7 C 0 km/h
780 22-10-2008 16:58:01 11.7 C 6.38 g/m*3 11.7 C 0 km/h
781 22-10-2008 17:03:02 11.7 C 6.38 g/m*3 11.7 C 0 km/h
782 22-10-2008 17:08:02 11.7 C 6.48 g/m*3 11.7 C 0 km/h
783 22-10-2008 17:13:02 11.6 C 6.34 g/m*3 11.6 C 0 km/h
784 22-10-2008 17:18:02 11.5 C 6.4 g/m*3 11.5 C 0 km/h
785 22-10-2008 17:23:02 11.4 C 6.36 g/m*3 11.4 C 0 km/h
786 22-10-2008 17:28:02 11.3 C 6.32 g/m*3 11.3 C 0 km/h
787 22-10-2008 17:33:01 11.2 C 6.39 g/m*3 11.2 C 0 km/h
788 22-10-2008 17:38:01 11.1 C 6.35 g/m*3 11.1 C 0 km/h
789 22-10-2008 17:43:01 11.1 C 6.35 g/m*3 11.1 C 0 km/h
790 22-10-2008 17:48:02 11 C 6.31 g/m*3 11 C 0 km/h
791 22-10-2008 17:53:02 10.9 C 6.37 g/m*3 10.9 C 0 km/h
792 22-10-2008 17:58:02 10.8 C 6.42 g/m*3 10.8 C 0 km/h
793 22-10-2008 18:03:01 10.8 C 6.42 g/m*3 10.8 C 0 km/h
794 22-10-2008 18:08:01 10.7 C 6.48 g/m*3 10.7 C 0 km/h
795 22-10-2008 18:13:01 10.6 C 6.54 g/m*3 10.6 C 0 km/h
796 22-10-2008 18:18:01 10.6 C 6.54 g/m*3 10.6 C 0 km/h
797 22-10-2008 18:23:01 10.5 C 6.5 g/m*3 10.5 C 0 km/h
798 22-10-2008 18:28:01 10.4 C 6.55 g/m*3 10.4 C 0 km/h
799 22-10-2008 18:33:02 10.4 C 6.65 g/m*3 10.4 C 0 km/h
800 22-10-2008 18:38:02 10.3 C 6.61 g/m*3 10.3 C 0 km/h
Sensor: Nr:Datum:Temp:Abs-Feuchte:Windchill:Wind:
Aussen-T/F 801 22-10-2008 18:43:02 10.2 C 6.57 g/m*3 10.2 C 0 km/h
802 22-10-2008 18:48:02 10.1 C 6.62 g/m*3 10.1 C 0 km/h
803 22-10-2008 18:53:02 10.1 C 6.62 g/m*3 10.1 C 0 km/h
804 22-10-2008 18:58:02 10 C 6.67 g/m*3 10 C 0 km/h
805 22-10-2008 19:03:01 9.9 C 6.72 g/m*3 9.9 C 0 km/h
806 22-10-2008 19:08:01 9.9 C 6.72 g/m*3 9.9 C 0 km/h
807 22-10-2008 19:13:01 9.8 C 6.77 g/m*3 9.8 C 0 km/h
808 22-10-2008 19:18:02 9.7 C 6.73 g/m*3 9.7 C 0 km/h
809 22-10-2008 19:23:02 9.7 C 6.73 g/m*3 9.7 C 0 km/h
810 22-10-2008 19:28:02 9.7 C 6.73 g/m*3 9.7 C 0 km/h
811 22-10-2008 19:33:02 9.7 C 6.73 g/m*3 9.7 C 0 km/h
812 22-10-2008 19:38:02 9.6 C 6.69 g/m*3 9.6 C 0 km/h
813 22-10-2008 19:43:02 9.6 C 6.69 g/m*3 9.6 C 0 km/h
814 22-10-2008 19:48:01 9.6 C 6.69 g/m*3 9.6 C 0 km/h
815 22-10-2008 19:53:01 9.6 C 6.69 g/m*3 9.6 C 0 km/h
816 22-10-2008 19:58:01 9.6 C 6.69 g/m*3 9.6 C 0 km/h
817 22-10-2008 20:03:02 9.5 C 6.64 g/m*3 9.5 C 0 km/h
818 22-10-2008 20:08:02 9.4 C 6.6 g/m*3 9.4 C 0 km/h
819 22-10-2008 20:13:02 9.3 C 6.65 g/m*3 9.3 C 0 km/h
820 22-10-2008 20:18:02 9.3 C 6.65 g/m*3 9.3 C 0 km/h
821 22-10-2008 20:23:02 9.2 C 6.61 g/m*3 9.2 C 0 km/h
822 22-10-2008 20:28:02 9.1 C 6.65 g/m*3 9.1 C 0 km/h
823 22-10-2008 20:33:02 9.1 C 6.65 g/m*3 9.1 C 0 km/h
824 22-10-2008 20:38:02 9 C 6.7 g/m*3 9 C 0 km/h
825 22-10-2008 20:43:02 9 C 6.79 g/m*3 9 C 0 km/h
Sensor: Nr:Datum:Temp:Abs-Feuchte:Windchill:Wind:
Aussen-T/F 826 22-10-2008 20:48:02 9 C 6.79 g/m*3 9 C 0 km/h
827 22-10-2008 20:53:02 9 C 6.79 g/m*3 9 C 0 km/h
828 22-10-2008 20:58:02 9 C 6.79 g/m*3 9 C 0 km/h
829 22-10-2008 21:03:01 8.9 C 6.83 g/m*3 8.9 C 0 km/h
830 22-10-2008 21:08:01 8.9 C 6.92 g/m*3 8.9 C 0 km/h
831 22-10-2008 21:13:01 8.8 C 6.88 g/m*3 8.8 C 0 km/h
832 22-10-2008 21:18:02 8.7 C 6.83 g/m*3 8.7 C 0 km/h
833 22-10-2008 21:23:02 8.7 C 6.83 g/m*3 8.7 C 0 km/h
834 22-10-2008 21:28:02 8.6 C 6.87 g/m*3 8.6 C 0 km/h
835 22-10-2008 21:33:01 8.4 C 6.79 g/m*3 8.4 C 0 km/h
836 22-10-2008 21:38:01 8.3 C 6.74 g/m*3 8.3 C 0 km/h
837 22-10-2008 21:43:01 8.2 C 6.78 g/m*3 8.2 C 0 km/h
838 22-10-2008 21:49:03 8 C 6.78 g/m*3 8 C 0 km/h
839 22-10-2008 21:54:03 8 C 6.78 g/m*3 8 C 0 km/h
840 22-10-2008 21:59:03 7.9 C 6.9 g/m*3 7.9 C 0 km/h
841 22-10-2008 22:04:03 7.8 C 6.86 g/m*3 7.8 C 0 km/h
842 22-10-2008 22:09:03 7.7 C 6.81 g/m*3 7.7 C 0 km/h
843 22-10-2008 22:14:03 7.7 C 6.81 g/m*3 7.7 C 0 km/h
844 22-10-2008 22:19:03 7.7 C 6.89 g/m*3 7.7 C 0 km/h
845 22-10-2008 22:24:03 7.7 C 6.89 g/m*3 7.7 C 0 km/h
846 22-10-2008 22:29:03 7.7 C 6.97 g/m*3 7.7 C 0 km/h
847 22-10-2008 22:34:03 7.5 C 6.88 g/m*3 7.5 C 0 km/h
848 22-10-2008 22:39:03 7.5 C 6.88 g/m*3 7.5 C 0 km/h
849 22-10-2008 22:44:03 7.5 C 6.88 g/m*3 7.5 C 0 km/h
850 22-10-2008 22:49:03 7.5 C 6.96 g/m*3 7.5 C 0 km/h
Sensor: Nr:Datum:Temp:Abs-Feuchte:Windchill:Wind:
Aussen-T/F 851 22-10-2008 22:54:03 7.4 C 6.92 g/m*3 7.4 C 0 km/h
852 22-10-2008 22:59:03 7.4 C 6.92 g/m*3 7.4 C 0 km/h
853 22-10-2008 23:04:04 7.3 C 6.87 g/m*3 7.3 C 0 km/h
854 22-10-2008 23:09:04 7.2 C 6.83 g/m*3 7.2 C 0 km/h
855 22-10-2008 23:14:04 7.2 C 6.91 g/m*3 7.2 C 0 km/h
856 22-10-2008 23:19:04 7.2 C 6.91 g/m*3 7.2 C 0 km/h
857 22-10-2008 23:24:04 7.1 C 6.86 g/m*3 7.1 C 0 km/h
858 22-10-2008 23:29:04 7 C 6.82 g/m*3 7 C 0 km/h
859 22-10-2008 23:34:04 6.9 C 6.85 g/m*3 6.9 C 0 km/h
860 22-10-2008 23:39:04 6.8 C 6.81 g/m*3 6.8 C 0 km/h
861 22-10-2008 23:44:04 6.8 C 6.81 g/m*3 6.8 C 0 km/h
862 22-10-2008 23:49:04 6.8 C 6.88 g/m*3 6.8 C 0 km/h
863 22-10-2008 23:54:04 6.8 C 6.88 g/m*3 6.8 C 0 km/h
864 22-10-2008 23:59:04 6.8 C 6.96 g/m*3 6.8 C 0 km/h
865 23-10-2008 00:04:04 6.6 C 6.87 g/m*3 6.6 C 0 km/h
866 23-10-2008 00:09:04 6.6 C 6.87 g/m*3 6.6 C 0 km/h
867 23-10-2008 00:14:04 6.6 C 6.87 g/m*3 6.6 C 0 km/h
868 23-10-2008 00:19:04 6.5 C 6.82 g/m*3 6.5 C 0 km/h
869 23-10-2008 00:24:04 6.5 C 6.9 g/m*3 6.5 C 0 km/h
870 23-10-2008 00:29:04 6.3 C 6.81 g/m*3 6.3 C 0 km/h
871 23-10-2008 00:34:04 6.3 C 6.81 g/m*3 6.3 C 0 km/h
872 23-10-2008 00:39:04 6.3 C 6.81 g/m*3 6.3 C 0 km/h
873 23-10-2008 00:44:04 6.2 C 6.77 g/m*3 6.2 C 0 km/h
874 23-10-2008 00:49:05 6.2 C 6.77 g/m*3 6.2 C 0 km/h
875 23-10-2008 00:54:05 6.1 C 6.72 g/m*3 6.1 C 0 km/h
Sensor: Nr:Datum:Temp:Abs-Feuchte:Windchill:Wind:
Aussen-T/F 876 23-10-2008 00:59:05 6.1 C 6.72 g/m*3 6.1 C 0 km/h
877 23-10-2008 01:04:05 6.1 C 6.72 g/m*3 6.1 C 0 km/h
878 23-10-2008 01:09:05 6 C 6.75 g/m*3 6 C 0 km/h
879 23-10-2008 01:14:05 6 C 6.75 g/m*3 6 C 0 km/h
880 23-10-2008 01:19:05 6 C 6.75 g/m*3 6 C 0 km/h
881 23-10-2008 01:24:05 5.9 C 6.78 g/m*3 5.9 C 0 km/h
882 23-10-2008 01:29:05 5.8 C 6.73 g/m*3 5.8 C 0 km/h
883 23-10-2008 01:34:05 5.9 C 6.78 g/m*3 5.9 C 0 km/h
884 23-10-2008 01:39:05 5.9 C 6.85 g/m*3 5.9 C 0 km/h
885 23-10-2008 01:44:05 6 C 6.82 g/m*3 6 C 0 km/h
886 23-10-2008 01:49:05 6 C 6.82 g/m*3 6 C 0 km/h
887 23-10-2008 01:54:05 5.8 C 6.81 g/m*3 5.8 C 0 km/h
888 23-10-2008 01:59:05 5.8 C 6.81 g/m*3 5.8 C 0 km/h
889 23-10-2008 02:04:05 5.9 C 6.85 g/m*3 5.9 C 0 km/h
890 23-10-2008 02:09:05 5.8 C 6.81 g/m*3 5.8 C 0 km/h
891 23-10-2008 02:14:05 5.9 C 6.85 g/m*3 5.9 C 0 km/h
892 23-10-2008 02:19:05 5.9 C 6.85 g/m*3 5.9 C 0 km/h
893 23-10-2008 02:24:05 6 C 6.82 g/m*3 6 C 0 km/h
894 23-10-2008 02:29:05 6 C 6.82 g/m*3 6 C 0 km/h
895 23-10-2008 02:34:06 6.1 C 6.87 g/m*3 6.1 C 0 km/h
896 23-10-2008 02:39:06 6.4 C 7.08 g/m*3 6.4 C 0 km/h
897 23-10-2008 02:44:06 6.5 C 7.12 g/m*3 6.5 C 0 km/h
898 23-10-2008 02:49:06 6.7 C 7.22 g/m*3 6.7 C 0 km/h
899 23-10-2008 02:54:06 6.7 C 7.22 g/m*3 6.7 C 0 km/h
900 23-10-2008 02:59:06 6.8 C 7.27 g/m*3 6.8 C 0 km/h
Sensor: Nr:Datum:Temp:Abs-Feuchte:Windchill:Wind:
Aussen-T/F 901 23-10-2008 03:04:06 6.8 C 7.27 g/m*3 6.8 C 0 km/h
902 23-10-2008 03:09:06 6.9 C 7.31 g/m*3 6.9 C 0 km/h
903 23-10-2008 03:14:06 6.9 C 7.31 g/m*3 6.9 C 0 km/h
904 23-10-2008 03:19:06 7 C 7.28 g/m*3 7 C 0 km/h
905 23-10-2008 03:24:06 7 C 7.28 g/m*3 7 C 0 km/h
906 23-10-2008 03:29:06 7 C 7.28 g/m*3 7 C 0 km/h
907 23-10-2008 03:34:06 7 C 7.28 g/m*3 7 C 0 km/h
908 23-10-2008 03:39:06 7 C 7.28 g/m*3 7 C 0 km/h
909 23-10-2008 03:44:06 6.9 C 7.24 g/m*3 6.9 C 0 km/h
910 23-10-2008 03:49:06 7 C 7.21 g/m*3 7 C 0 km/h
911 23-10-2008 03:54:06 7 C 7.21 g/m*3 7 C 0 km/h
912 23-10-2008 03:59:06 7 C 7.21 g/m*3 7 C 0 km/h
913 23-10-2008 04:04:06 7 C 7.21 g/m*3 7 C 0 km/h
914 23-10-2008 04:09:06 7.1 C 7.25 g/m*3 7.1 C 0 km/h
915 23-10-2008 04:14:07 7.3 C 7.27 g/m*3 7.3 C 0 km/h
916 23-10-2008 04:19:07 7.3 C 7.35 g/m*3 7.3 C 0 km/h
917 23-10-2008 04:24:07 7.2 C 7.3 g/m*3 7.2 C 0 km/h
918 23-10-2008 04:29:07 7.3 C 7.27 g/m*3 7.3 C 0 km/h
919 23-10-2008 04:34:07 7.3 C 7.27 g/m*3 7.3 C 0 km/h
920 23-10-2008 04:39:07 7.3 C 7.27 g/m*3 7.3 C 0 km/h
921 23-10-2008 04:44:07 7.3 C 7.27 g/m*3 7.3 C 0 km/h
922 23-10-2008 04:49:07 7.3 C 7.27 g/m*3 7.3 C 0 km/h
923 23-10-2008 04:54:07 7.3 C 7.27 g/m*3 7.3 C 0 km/h
924 23-10-2008 04:59:07 7.4 C 7.24 g/m*3 7.4 C 0 km/h
925 23-10-2008 05:04:07 7.3 C 7.19 g/m*3 7.3 C 0 km/h
Sensor: Nr:Datum:Temp:Abs-Feuchte:Windchill:Wind:
Aussen-T/F 926 23-10-2008 05:09:07 7.3 C 7.19 g/m*3 7.3 C 0 km/h
927 23-10-2008 05:14:07 7.3 C 7.11 g/m*3 7.3 C 0 km/h
928 23-10-2008 05:19:07 7.3 C 7.11 g/m*3 7.3 C 0 km/h
929 23-10-2008 05:24:07 7.3 C 7.11 g/m*3 7.3 C 0 km/h
930 23-10-2008 05:29:07 7.3 C 7.03 g/m*3 7.3 C 0 km/h
931 23-10-2008 05:34:07 7.3 C 6.95 g/m*3 7.3 C 0 km/h
932 23-10-2008 05:39:07 7.4 C 6.92 g/m*3 7.4 C 0 km/h
933 23-10-2008 05:44:07 7.4 C 6.92 g/m*3 7.4 C 0 km/h
934 23-10-2008 05:49:07 7.4 C 6.84 g/m*3 7.4 C 0 km/h
935 23-10-2008 05:54:08 7.4 C 6.84 g/m*3 7.4 C 0 km/h
936 23-10-2008 05:59:08 7.4 C 6.76 g/m*3 7.4 C 0 km/h
937 23-10-2008 06:04:08 7.4 C 6.76 g/m*3 7.4 C 0 km/h
938 23-10-2008 06:09:08 7.5 C 6.8 g/m*3 7.5 C 0 km/h
939 23-10-2008 06:14:08 7.5 C 6.8 g/m*3 7.5 C 0 km/h
940 23-10-2008 06:19:08 7.5 C 6.8 g/m*3 7.5 C 0 km/h
941 23-10-2008 06:24:08 7.5 C 6.72 g/m*3 7.5 C 0 km/h
942 23-10-2008 06:29:08 7.5 C 6.72 g/m*3 7.5 C 0 km/h
943 23-10-2008 06:34:08 7.5 C 6.72 g/m*3 7.5 C 0 km/h
944 23-10-2008 06:39:08 7.4 C 6.68 g/m*3 7.4 C 0 km/h
945 23-10-2008 06:44:08 7.4 C 6.68 g/m*3 7.4 C 0 km/h
946 23-10-2008 06:49:08 7.4 C 6.68 g/m*3 7.4 C 0 km/h
947 23-10-2008 06:54:08 7.4 C 6.68 g/m*3 7.4 C 0 km/h
948 23-10-2008 06:59:08 7.4 C 6.68 g/m*3 7.4 C 0 km/h
949 23-10-2008 07:04:02 7.4 C 6.68 g/m*3 7.4 C 0 km/h
950 23-10-2008 07:09:02 7.4 C 6.68 g/m*3 7.4 C 0 km/h
Sensor: Nr:Datum:Temp:Abs-Feuchte:Windchill:Wind:
Aussen-T/F 951 23-10-2008 07:14:02 7.4 C 6.76 g/m*3 7.4 C 0 km/h
952 23-10-2008 07:19:03 7.4 C 6.76 g/m*3 7.4 C 0 km/h
953 23-10-2008 07:24:03 7.4 C 6.76 g/m*3 7.4 C 0 km/h
954 23-10-2008 07:29:03 7.4 C 6.76 g/m*3 7.4 C 0 km/h
955 23-10-2008 07:34:02 7.4 C 6.76 g/m*3 7.4 C 0 km/h
956 23-10-2008 07:39:02 7.4 C 6.76 g/m*3 7.4 C 0 km/h
957 23-10-2008 07:44:02 7.4 C 6.76 g/m*3 7.4 C 0 km/h
958 23-10-2008 07:49:01 7.4 C 6.76 g/m*3 7.4 C 0 km/h
959 23-10-2008 07:54:01 7.4 C 6.76 g/m*3 7.4 C 0 km/h
960 23-10-2008 07:59:01 7.4 C 6.76 g/m*3 7.4 C 0 km/h
961 23-10-2008 08:04:02 7.4 C 6.76 g/m*3 7.4 C 0 km/h
962 23-10-2008 08:09:02 7.4 C 6.76 g/m*3 7.4 C 0 km/h
963 23-10-2008 08:14:02 7.4 C 6.76 g/m*3 7.4 C 0 km/h
964 23-10-2008 08:19:01 7.4 C 6.76 g/m*3 7.4 C 0 km/h
965 23-10-2008 08:24:01 7.3 C 6.72 g/m*3 7.3 C 0 km/h
966 23-10-2008 08:29:01 7.4 C 6.76 g/m*3 7.4 C 0 km/h
967 23-10-2008 08:34:01 7.4 C 6.76 g/m*3 7.4 C 0 km/h
968 23-10-2008 08:39:01 7.4 C 6.76 g/m*3 7.4 C 0 km/h
969 23-10-2008 08:44:01 7.4 C 6.76 g/m*3 7.4 C 0 km/h
970 23-10-2008 08:49:02 7.5 C 6.8 g/m*3 7.5 C 0 km/h
971 23-10-2008 08:54:02 7.5 C 6.88 g/m*3 7.5 C 0 km/h
972 23-10-2008 08:59:02 7.6 C 6.85 g/m*3 7.6 C 0 km/h
973 23-10-2008 09:04:01 7.7 C 6.81 g/m*3 7.7 C 0 km/h
974 23-10-2008 09:09:01 7.8 C 6.77 g/m*3 7.8 C 0 km/h
975 23-10-2008 09:14:01 7.8 C 6.77 g/m*3 7.8 C 0 km/h
Sensor: Nr:Datum:Temp:Abs-Feuchte:Windchill:Wind:
Aussen-T/F 976 23-10-2008 09:19:01 7.9 C 6.74 g/m*3 7.9 C 0 km/h
977 23-10-2008 09:24:01 8 C 6.53 g/m*3 8 C 0 km/h
978 23-10-2008 09:29:01 8 C 6.45 g/m*3 8 C 0 km/h
979 23-10-2008 09:34:01 8.1 C 6.41 g/m*3 8.1 C 0 km/h
980 23-10-2008 09:39:01 8.1 C 6.41 g/m*3 8.1 C 0 km/h
981 23-10-2008 09:44:01 8.2 C 6.45 g/m*3 8.2 C 0 km/h
982 23-10-2008 09:49:03 8.3 C 6.49 g/m*3 8.3 C 0 km/h
983 23-10-2008 09:54:03 8.3 C 6.32 g/m*3 8.3 C 0 km/h
984 23-10-2008 09:59:03 8.4 C 6.36 g/m*3 8.4 C 0 km/h
985 23-10-2008 10:04:02 8.4 C 6.36 g/m*3 8.4 C 0 km/h
986 23-10-2008 10:09:02 8.5 C 6.32 g/m*3 8.5 C 0 km/h
987 23-10-2008 10:14:02 8.6 C 6.36 g/m*3 8.6 C 0 km/h
988 23-10-2008 10:19:02 8.7 C 6.4 g/m*3 8.7 C 0 km/h
989 23-10-2008 10:24:02 8.7 C 6.31 g/m*3 8.7 C 0 km/h
990 23-10-2008 10:29:02 8.7 C 6.23 g/m*3 8.7 C 0 km/h
991 23-10-2008 10:34:02 8.8 C 6.27 g/m*3 8.8 C 0 km/h
992 23-10-2008 10:39:02 8.9 C 6.22 g/m*3 8.9 C 0 km/h
993 23-10-2008 10:44:02 9.1 C 6.21 g/m*3 9.1 C 0 km/h
994 23-10-2008 10:49:02 9.1 C 6.3 g/m*3 9.1 C 0 km/h
995 23-10-2008 10:54:03 9.2 C 6.34 g/m*3 9.2 C 0 km/h
996 23-10-2008 10:59:03 9.2 C 6.25 g/m*3 9.2 C 0 km/h
997 23-10-2008 11:04:01 9.3 C 6.2 g/m*3 9.3 C 0 km/h
998 23-10-2008 11:09:01 9.2 C 6.16 g/m*3 9.2 C 0 km/h
999 23-10-2008 11:14:01 9.4 C 6.24 g/m*3 9.4 C 0 km/h
1000 23-10-2008 11:19:02 9.4 C 6.15 g/m*3 9.4 C 0 km/h
Sensor: Nr:Datum:Temp:Abs-Feuchte:Windchill:Wind:
Aussen-T/F 1001 23-10-2008 11:24:02 9.6 C 6.14 g/m*3 9.6 C 0 km/h
1002 23-10-2008 11:29:02 9.5 C 6.1 g/m*3 9.5 C 0 km/h
1003 23-10-2008 11:34:01 9.4 C 6.06 g/m*3 9.4 C 0 km/h
1004 23-10-2008 11:39:01 9.4 C 6.06 g/m*3 9.4 C 0 km/h
1005 23-10-2008 11:44:01 9.4 C 6.06 g/m*3 9.4 C 0 km/h
1006 23-10-2008 11:49:02 9.3 C 6.11 g/m*3 9.3 C 0 km/h
1007 23-10-2008 11:54:02 9.3 C 6.11 g/m*3 9.3 C 0 km/h
1008 23-10-2008 11:59:02 9.6 C 6.32 g/m*3 9.6 C 0 km/h
1009 23-10-2008 12:04:02 9.8 C 6.31 g/m*3 9.8 C 0 km/h
1010 23-10-2008 12:09:02 10.2 C 6.38 g/m*3 10.2 C 0 km/h
1011 23-10-2008 12:14:02 10.3 C 6.32 g/m*3 10.3 C 0 km/h
1012 23-10-2008 12:19:02 10.4 C 6.17 g/m*3 10.4 C 0 km/h
1013 23-10-2008 12:24:02 10.5 C 6.11 g/m*3 10.5 C 0 km/h
1014 23-10-2008 12:29:02 10.6 C 6.25 g/m*3 10.6 C 0 km/h
1015 23-10-2008 12:34:02 10.7 C 6.29 g/m*3 10.7 C 0 km/h
1016 23-10-2008 12:39:02 10.9 C 6.27 g/m*3 10.9 C 0 km/h
1017 23-10-2008 12:44:02 10.9 C 6.27 g/m*3 10.9 C 0 km/h
1018 23-10-2008 12:49:02 11.1 C 6.14 g/m*3 11.1 C 0 km/h
1019 23-10-2008 12:54:02 11.3 C 6.43 g/m*3 11.3 C 0 km/h
1020 23-10-2008 12:59:02 11.5 C 6.4 g/m*3 11.5 C 0 km/h
1021 23-10-2008 13:04:01 11.6 C 6.44 g/m*3 11.6 C 0 km/h
1022 23-10-2008 13:09:01 11.9 C 6.46 g/m*3 11.9 C 0 km/h
1023 23-10-2008 13:14:01 12.2 C 6.37 g/m*3 12.2 C 0 km/h
1024 23-10-2008 13:19:01 12.3 C 6.19 g/m*3 12.3 C 0 km/h
1025 23-10-2008 13:24:01 12.3 C 5.97 g/m*3 12.3 C 0 km/h
Sensor: Nr:Datum:Temp:Abs-Feuchte:Windchill:Wind:
Aussen-T/F 1026 23-10-2008 13:29:01 12.5 C 6.16 g/m*3 12.5 C 0 km/h
1027 23-10-2008 13:34:02 12.6 C 6.08 g/m*3 12.6 C 0 km/h
1028 23-10-2008 13:39:03 12.8 C 6.05 g/m*3 12.8 C 0 km/h
1029 23-10-2008 13:44:03 12.9 C 5.86 g/m*3 12.9 C 0 km/h
1030 23-10-2008 13:49:02 12.9 C 5.86 g/m*3 12.9 C 0 km/h
1031 23-10-2008 13:54:02 13 C 5.9 g/m*3 13 C 0 km/h
1032 23-10-2008 13:59:02 13.2 C 5.97 g/m*3 13.2 C 0 km/h
1033 23-10-2008 14:04:02 13.2 C 5.97 g/m*3 13.2 C 0 km/h
1034 23-10-2008 14:09:02 13.3 C 6.01 g/m*3 13.3 C 0 km/h
1035 23-10-2008 14:14:02 13.2 C 5.86 g/m*3 13.2 C 0 km/h
1036 23-10-2008 14:19:02 13.3 C 5.89 g/m*3 13.3 C 0 km/h
1037 23-10-2008 14:24:02 13.6 C 6.12 g/m*3 13.6 C 0 km/h
1038 23-10-2008 14:29:02 14.1 C 6.07 g/m*3 14.1 C 0 km/h
1039 23-10-2008 14:34:02 14.2 C 5.62 g/m*3 14.2 C 0 km/h
1040 23-10-2008 14:39:02 14.2 C 5.62 g/m*3 14.2 C 0 km/h
1041 23-10-2008 14:44:02 14 C 5.43 g/m*3 14 C 0 km/h
1042 23-10-2008 14:49:02 14.3 C 5.65 g/m*3 14.3 C 0 km/h
1043 23-10-2008 14:54:02 14.6 C 5.63 g/m*3 14.6 C 0 km/h
1044 23-10-2008 14:59:02 14.7 C 5.54 g/m*3 14.7 C 0 km/h
1045 23-10-2008 15:04:02 14.9 C 5.48 g/m*3 14.9 C 0 km/h
1046 23-10-2008 15:09:02 15.2 C 5.45 g/m*3 15.2 C 0 km/h
1047 23-10-2008 15:14:02 15.4 C 5.39 g/m*3 15.4 C 0 km/h
1048 23-10-2008 15:19:02 15.8 C 5.65 g/m*3 15.8 C 0 km/h
1049 23-10-2008 15:24:02 16 C 5.31 g/m*3 16 C 0 km/h
1050 23-10-2008 15:29:02 15.9 C 5.01 g/m*3 15.9 C 0 km/h
Sensor: Nr:Datum:Temp:Abs-Feuchte:Windchill:Wind:
Aussen-T/F 1051 23-10-2008 15:34:02 15.8 C 4.98 g/m*3 15.8 C 0 km/h
1052 23-10-2008 15:39:02 16.1 C 5.35 g/m*3 16.1 C 0 km/h
1053 23-10-2008 15:44:02 16.2 C 5.38 g/m*3 16.2 C 0 km/h
1054 23-10-2008 15:49:02 16 C 5.04 g/m*3 16 C 0 km/h
1055 23-10-2008 15:54:02 15.9 C 5.15 g/m*3 15.9 C 0 km/h
1056 23-10-2008 15:59:02 15.6 C 5.05 g/m*3 15.6 C 0 km/h
1057 23-10-2008 16:04:01 15.4 C 4.86 g/m*3 15.4 C 0 km/h
1058 23-10-2008 16:09:01 15.2 C 5.19 g/m*3 15.2 C 0 km/h
1059 23-10-2008 16:14:01 15.2 C 5.19 g/m*3 15.2 C 0 km/h
1060 23-10-2008 16:19:02 15.1 C 5.16 g/m*3 15.1 C 0 km/h
1061 23-10-2008 16:24:02 14.9 C 5.23 g/m*3 14.9 C 0 km/h
1062 23-10-2008 16:29:02 15.1 C 5.16 g/m*3 15.1 C 0 km/h
1063 23-10-2008 16:34:02 15.1 C 5.03 g/m*3 15.1 C 0 km/h
1064 23-10-2008 16:39:02 15.3 C 5.22 g/m*3 15.3 C 0 km/h
1065 23-10-2008 16:44:02 15.4 C 5.39 g/m*3 15.4 C 0 km/h
1066 23-10-2008 16:49:02 15.5 C 5.29 g/m*3 15.5 C 0 km/h
1067 23-10-2008 16:54:02 15.7 C 5.35 g/m*3 15.7 C 0 km/h
1068 23-10-2008 16:59:02 15.9 C 5.42 g/m*3 15.9 C 0 km/h
1069 23-10-2008 17:04:02 15.9 C 5.55 g/m*3 15.9 C 0 km/h
1070 23-10-2008 17:09:02 15.9 C 5.55 g/m*3 15.9 C 0 km/h
1071 23-10-2008 17:14:02 15.8 C 5.38 g/m*3 15.8 C 0 km/h
1072 23-10-2008 17:19:02 15.7 C 6.02 g/m*3 15.7 C 0 km/h
1073 23-10-2008 17:24:02 15.5 C 5.95 g/m*3 15.5 C 0 km/h
1074 23-10-2008 17:29:02 15.2 C 5.71 g/m*3 15.2 C 0 km/h
1075 23-10-2008 17:34:01 14.9 C 5.99 g/m*3 14.9 C 0 km/h
Sensor: Nr:Datum:Temp:Abs-Feuchte:Windchill:Wind:
Aussen-T/F 1076 23-10-2008 17:39:01 14.7 C 6.04 g/m*3 14.7 C 0 km/h
1077 23-10-2008 17:44:01 14.2 C 5.74 g/m*3 14.2 C 0 km/h
1078 23-10-2008 17:49:02 13.9 C 5.75 g/m*3 13.9 C 0 km/h
1079 23-10-2008 17:54:02 13.3 C 5.55 g/m*3 13.3 C 0 km/h
1080 23-10-2008 17:59:02 13.2 C 5.63 g/m*3 13.2 C 0 km/h
1081 23-10-2008 18:04:02 12.6 C 5.53 g/m*3 12.6 C 0 km/h
1082 23-10-2008 18:09:02 11.9 C 5.61 g/m*3 11.9 C 0 km/h
1083 23-10-2008 18:14:02 11.8 C 5.68 g/m*3 11.8 C 0 km/h
1084 23-10-2008 18:19:01 11.3 C 5.51 g/m*3 11.3 C 0 km/h
1085 23-10-2008 18:24:01 11.1 C 5.54 g/m*3 11.1 C 0 km/h
1086 23-10-2008 18:29:01 10.8 C 5.63 g/m*3 10.8 C 0 km/h
1087 23-10-2008 18:34:02 10.5 C 5.72 g/m*3 10.5 C 0 km/h
1088 23-10-2008 18:39:02 10.2 C 5.71 g/m*3 10.2 C 0 km/h
1089 23-10-2008 18:44:02 10.1 C 5.67 g/m*3 10.1 C 0 km/h
1090 23-10-2008 18:49:02 10 C 5.73 g/m*3 10 C 0 km/h
1091 23-10-2008 18:54:02 9.7 C 5.72 g/m*3 9.7 C 0 km/h
1092 23-10-2008 18:59:03 9.5 C 5.73 g/m*3 9.5 C 0 km/h
1093 23-10-2008 19:04:02 9.5 C 5.73 g/m*3 9.5 C 0 km/h
1094 23-10-2008 19:09:02 9.3 C 5.75 g/m*3 9.3 C 0 km/h
1095 23-10-2008 19:14:02 9.3 C 5.75 g/m*3 9.3 C 0 km/h
1096 23-10-2008 19:19:02 9.2 C 5.8 g/m*3 9.2 C 0 km/h
1097 23-10-2008 19:24:02 9.1 C 5.77 g/m*3 9.1 C 0 km/h
1098 23-10-2008 19:29:02 9.1 C 5.86 g/m*3 9.1 C 0 km/h
1099 23-10-2008 19:34:02 9 C 5.82 g/m*3 9 C 0 km/h
1100 23-10-2008 19:39:02 9 C 5.91 g/m*3 9 C 0 km/h
Sensor: Nr:Datum:Temp:Abs-Feuchte:Windchill:Wind:
Aussen-T/F 1101 23-10-2008 19:44:02 8.9 C 5.96 g/m*3 8.9 C 0 km/h
1102 23-10-2008 19:49:02 8.8 C 5.92 g/m*3 8.8 C 0 km/h
1103 23-10-2008 19:54:02 8.8 C 5.92 g/m*3 8.8 C 0 km/h
1104 23-10-2008 19:59:02 8.7 C 5.97 g/m*3 8.7 C 0 km/h
1105 23-10-2008 20:04:02 8.7 C 5.97 g/m*3 8.7 C 0 km/h
1106 23-10-2008 20:09:02 8.6 C 5.93 g/m*3 8.6 C 0 km/h
1107 23-10-2008 20:14:02 8.6 C 5.93 g/m*3 8.6 C 0 km/h
1108 23-10-2008 20:19:02 8.5 C 5.98 g/m*3 8.5 C 0 km/h
1109 23-10-2008 20:24:02 8.5 C 5.98 g/m*3 8.5 C 0 km/h
1110 23-10-2008 20:29:02 8.4 C 5.94 g/m*3 8.4 C 0 km/h
1111 23-10-2008 20:34:03 8.4 C 5.94 g/m*3 8.4 C 0 km/h
1112 23-10-2008 20:39:03 8.3 C 5.9 g/m*3 8.3 C 0 km/h
1113 23-10-2008 20:44:03 8.2 C 5.95 g/m*3 8.2 C 0 km/h
1114 23-10-2008 20:49:02 8.2 C 5.95 g/m*3 8.2 C 0 km/h
1115 23-10-2008 20:54:02 8.1 C 5.99 g/m*3 8.1 C 0 km/h
1116 23-10-2008 20:59:02 8.1 C 5.99 g/m*3 8.1 C 0 km/h
1117 23-10-2008 21:04:02 8 C 5.95 g/m*3 8 C 0 km/h
1118 23-10-2008 21:09:02 7.9 C 6 g/m*3 7.9 C 0 km/h
1119 23-10-2008 21:14:02 7.9 C 6 g/m*3 7.9 C 0 km/h
1120 23-10-2008 21:19:02 7.8 C 6.04 g/m*3 7.8 C 0 km/h
1121 23-10-2008 21:24:02 7.7 C 6 g/m*3 7.7 C 0 km/h
1122 23-10-2008 21:29:02 7.6 C 6.04 g/m*3 7.6 C 0 km/h
1123 23-10-2008 21:34:02 7.6 C 6.04 g/m*3 7.6 C 0 km/h
1124 23-10-2008 21:39:02 7.5 C 6 g/m*3 7.5 C 0 km/h
1125 23-10-2008 21:44:03 7.6 C 6.04 g/m*3 7.6 C 0 km/h
Sensor: Nr:Datum:Temp:Abs-Feuchte:Windchill:Wind:
Aussen-T/F 1126 23-10-2008 21:49:01 7.5 C 6 g/m*3 7.5 C 0 km/h
1127 23-10-2008 21:54:01 7.4 C 5.96 g/m*3 7.4 C 0 km/h
1128 23-10-2008 21:59:01 7.5 C 6 g/m*3 7.5 C 0 km/h
1129 23-10-2008 22:04:01 7.5 C 6 g/m*3 7.5 C 0 km/h
1130 23-10-2008 22:09:01 7.5 C 6 g/m*3 7.5 C 0 km/h
1131 23-10-2008 22:14:01 7.3 C 5.93 g/m*3 7.3 C 0 km/h
1132 23-10-2008 22:20:02 7.2 C 5.89 g/m*3 7.2 C 0 km/h
1133 23-10-2008 22:25:02 7.2 C 5.97 g/m*3 7.2 C 0 km/h
1134 23-10-2008 22:30:02 7.2 C 6.04 g/m*3 7.2 C 0 km/h
1135 23-10-2008 22:35:02 7 C 5.97 g/m*3 7 C 0 km/h
1136 23-10-2008 22:40:02 7 C 5.97 g/m*3 7 C 0 km/h
1137 23-10-2008 22:45:02 6.9 C 6 g/m*3 6.9 C 0 km/h
1138 23-10-2008 22:50:02 6.8 C 6.04 g/m*3 6.8 C 0 km/h
1139 23-10-2008 22:55:02 6.7 C 6 g/m*3 6.7 C 0 km/h
1140 23-10-2008 23:00:02 6.6 C 5.96 g/m*3 6.6 C 0 km/h
1141 23-10-2008 23:05:02 6.5 C 6 g/m*3 6.5 C 0 km/h
1142 23-10-2008 23:10:02 6.6 C 6.04 g/m*3 6.6 C 0 km/h
1143 23-10-2008 23:15:02 6.5 C 6 g/m*3 6.5 C 0 km/h
1144 23-10-2008 23:20:02 6.4 C 5.96 g/m*3 6.4 C 0 km/h
1145 23-10-2008 23:25:02 6.4 C 5.96 g/m*3 6.4 C 0 km/h
1146 23-10-2008 23:30:02 6.3 C 6 g/m*3 6.3 C 0 km/h
1147 23-10-2008 23:35:02 6.1 C 5.92 g/m*3 6.1 C 0 km/h
1148 23-10-2008 23:40:02 6.1 C 5.92 g/m*3 6.1 C 0 km/h
1149 23-10-2008 23:45:03 6 C 5.88 g/m*3 6 C 0 km/h
1150 23-10-2008 23:50:03 5.9 C 5.91 g/m*3 5.9 C 0 km/h
Sensor: Nr:Datum:Temp:Abs-Feuchte:Windchill:Wind:
Aussen-T/F 1151 23-10-2008 23:55:03 5.8 C 5.95 g/m*3 5.8 C 0 km/h
1152 24-10-2008 00:00:03 5.8 C 5.95 g/m*3 5.8 C 0 km/h
1153 24-10-2008 00:05:03 5.7 C 5.91 g/m*3 5.7 C 0 km/h
1154 24-10-2008 00:10:03 5.6 C 5.87 g/m*3 5.6 C 0 km/h
1155 24-10-2008 00:15:03 5.6 C 5.87 g/m*3 5.6 C 0 km/h
1156 24-10-2008 00:20:03 5.4 C 5.79 g/m*3 5.4 C 0 km/h
1157 24-10-2008 00:25:03 5.4 C 5.79 g/m*3 5.4 C 0 km/h
1158 24-10-2008 00:30:03 5.3 C 5.82 g/m*3 5.3 C 0 km/h
1159 24-10-2008 00:35:03 5.2 C 5.78 g/m*3 5.2 C 0 km/h
1160 24-10-2008 00:40:03 5.1 C 5.75 g/m*3 5.1 C 0 km/h
1161 24-10-2008 00:45:03 5.1 C 5.75 g/m*3 5.1 C 0 km/h
1162 24-10-2008 00:50:03 5.1 C 5.75 g/m*3 5.1 C 0 km/h
1163 24-10-2008 00:55:03 5 C 5.78 g/m*3 5 C 0 km/h
1164 24-10-2008 01:00:03 4.9 C 5.81 g/m*3 4.9 C 0 km/h
1165 24-10-2008 01:05:03 4.9 C 5.81 g/m*3 4.9 C 0 km/h
1166 24-10-2008 01:10:03 4.9 C 5.81 g/m*3 4.9 C 0 km/h
1167 24-10-2008 01:15:03 4.7 C 5.73 g/m*3 4.7 C 0 km/h
1168 24-10-2008 01:20:03 4.7 C 5.73 g/m*3 4.7 C 0 km/h
1169 24-10-2008 01:25:04 4.6 C 5.69 g/m*3 4.6 C 0 km/h
1170 24-10-2008 01:30:04 4.6 C 5.76 g/m*3 4.6 C 0 km/h
1171 24-10-2008 01:35:04 4.5 C 5.72 g/m*3 4.5 C 0 km/h
1172 24-10-2008 01:40:04 4.5 C 5.72 g/m*3 4.5 C 0 km/h
1173 24-10-2008 01:45:04 4.5 C 5.72 g/m*3 4.5 C 0 km/h
1174 24-10-2008 01:50:04 4.5 C 5.72 g/m*3 4.5 C 0 km/h
1175 24-10-2008 01:55:04 4.5 C 5.72 g/m*3 4.5 C 0 km/h
Sensor: Nr:Datum:Temp:Abs-Feuchte:Windchill:Wind:
Aussen-T/F 1176 24-10-2008 02:00:04 4.4 C 5.68 g/m*3 4.4 C 0 km/h
1177 24-10-2008 02:05:04 4.3 C 5.64 g/m*3 4.3 C 0 km/h
1178 24-10-2008 02:10:04 4.3 C 5.64 g/m*3 4.3 C 0 km/h
1179 24-10-2008 02:15:04 4.3 C 5.64 g/m*3 4.3 C 0 km/h
1180 24-10-2008 02:20:04 4.2 C 5.61 g/m*3 4.2 C 0 km/h
1181 24-10-2008 02:25:04 4.1 C 5.57 g/m*3 4.1 C 0 km/h
1182 24-10-2008 02:30:04 4.1 C 5.63 g/m*3 4.1 C 0 km/h
1183 24-10-2008 02:35:04 4 C 5.59 g/m*3 4 C 0 km/h
1184 24-10-2008 02:40:04 3.9 C 5.56 g/m*3 3.9 C 0 km/h
1185 24-10-2008 02:45:04 3.8 C 5.52 g/m*3 3.8 C 0 km/h
1186 24-10-2008 02:50:04 3.8 C 5.58 g/m*3 3.8 C 0 km/h
1187 24-10-2008 02:55:04 3.8 C 5.58 g/m*3 3.8 C 0 km/h
1188 24-10-2008 03:00:05 3.8 C 5.58 g/m*3 3.8 C 0 km/h
1189 24-10-2008 03:05:05 3.8 C 5.58 g/m*3 3.8 C 0 km/h
1190 24-10-2008 03:10:05 3.6 C 5.51 g/m*3 3.6 C 0 km/h
1191 24-10-2008 03:15:05 3.5 C 5.53 g/m*3 3.5 C 0 km/h
1192 24-10-2008 03:20:05 3.6 C 5.51 g/m*3 3.6 C 0 km/h
1193 24-10-2008 03:25:05 3.6 C 5.51 g/m*3 3.6 C 0 km/h
1194 24-10-2008 03:30:05 3.7 C 5.61 g/m*3 3.7 C 0 km/h
1195 24-10-2008 03:35:05 3.7 C 5.61 g/m*3 3.7 C 0 km/h
1196 24-10-2008 03:40:05 3.7 C 5.61 g/m*3 3.7 C 0 km/h
1197 24-10-2008 03:45:05 3.8 C 5.65 g/m*3 3.8 C 0 km/h
1198 24-10-2008 03:50:05 3.8 C 5.71 g/m*3 3.8 C 0 km/h
1199 24-10-2008 03:55:05 3.8 C 5.71 g/m*3 3.8 C 0 km/h
1200 24-10-2008 04:00:05 3.9 C 5.75 g/m*3 3.9 C 0 km/h
Sensor: Nr:Datum:Temp:Abs-Feuchte:Windchill:Wind:
Aussen-T/F 1201 24-10-2008 04:05:05 3.9 C 5.75 g/m*3 3.9 C 0 km/h
1202 24-10-2008 04:10:05 4 C 5.72 g/m*3 4 C 0 km/h
1203 24-10-2008 04:15:05 4 C 5.79 g/m*3 4 C 0 km/h
1204 24-10-2008 04:20:05 4.1 C 5.82 g/m*3 4.1 C 0 km/h
1205 24-10-2008 04:25:05 4.1 C 5.82 g/m*3 4.1 C 0 km/h
1206 24-10-2008 04:30:05 4 C 5.79 g/m*3 4 C 0 km/h
1207 24-10-2008 04:35:06 4 C 5.72 g/m*3 4 C 0 km/h
1208 24-10-2008 04:40:06 4 C 5.72 g/m*3 4 C 0 km/h
1209 24-10-2008 04:45:06 4 C 5.72 g/m*3 4 C 0 km/h
1210 24-10-2008 04:50:06 3.9 C 5.75 g/m*3 3.9 C 0 km/h
1211 24-10-2008 04:55:06 3.8 C 5.71 g/m*3 3.8 C 0 km/h
1212 24-10-2008 05:00:06 3.8 C 5.71 g/m*3 3.8 C 0 km/h
1213 24-10-2008 05:05:06 3.8 C 5.71 g/m*3 3.8 C 0 km/h
1214 24-10-2008 05:10:06 3.7 C 5.67 g/m*3 3.7 C 0 km/h
1215 24-10-2008 05:15:06 3.6 C 5.63 g/m*3 3.6 C 0 km/h
1216 24-10-2008 05:20:06 3.5 C 5.6 g/m*3 3.5 C 0 km/h
1217 24-10-2008 05:25:06 3.5 C 5.6 g/m*3 3.5 C 0 km/h
1218 24-10-2008 05:30:06 3.5 C 5.6 g/m*3 3.5 C 0 km/h
1219 24-10-2008 05:35:06 3.5 C 5.6 g/m*3 3.5 C 0 km/h
1220 24-10-2008 05:40:06 3.4 C 5.56 g/m*3 3.4 C 0 km/h
1221 24-10-2008 05:45:06 3.4 C 5.56 g/m*3 3.4 C 0 km/h
1222 24-10-2008 05:50:06 3.4 C 5.56 g/m*3 3.4 C 0 km/h
1223 24-10-2008 05:55:06 3.4 C 5.56 g/m*3 3.4 C 0 km/h
1224 24-10-2008 06:00:06 3.3 C 5.52 g/m*3 3.3 C 0 km/h
1225 24-10-2008 06:05:06 3.2 C 5.48 g/m*3 3.2 C 0 km/h
Sensor: Nr:Datum:Temp:Abs-Feuchte:Windchill:Wind:
Aussen-T/F 1226 24-10-2008 06:10:07 3.3 C 5.52 g/m*3 3.3 C 0 km/h
1227 24-10-2008 06:15:07 3.3 C 5.52 g/m*3 3.3 C 0 km/h
1228 24-10-2008 06:20:07 3.3 C 5.52 g/m*3 3.3 C 0 km/h
1229 24-10-2008 06:25:07 3.2 C 5.48 g/m*3 3.2 C 0 km/h
1230 24-10-2008 06:30:07 3.2 C 5.48 g/m*3 3.2 C 0 km/h
1231 24-10-2008 06:35:07 3.1 C 5.45 g/m*3 3.1 C 0 km/h
1232 24-10-2008 06:40:07 3.1 C 5.39 g/m*3 3.1 C 0 km/h
1233 24-10-2008 06:45:07 3.1 C 5.39 g/m*3 3.1 C 0 km/h
1234 24-10-2008 06:50:07 3 C 5.35 g/m*3 3 C 0 km/h
1235 24-10-2008 06:55:07 3 C 5.35 g/m*3 3 C 0 km/h
1236 24-10-2008 07:00:07 3 C 5.35 g/m*3 3 C 0 km/h
1237 24-10-2008 07:05:02 3 C 5.35 g/m*3 3 C 0 km/h
1238 24-10-2008 07:10:02 3 C 5.35 g/m*3 3 C 0 km/h
1239 24-10-2008 07:15:02 3 C 5.35 g/m*3 3 C 0 km/h
1240 24-10-2008 07:20:03 3 C 5.35 g/m*3 3 C 0 km/h
1241 24-10-2008 07:25:03 3.1 C 5.39 g/m*3 3.1 C 0 km/h
1242 24-10-2008 07:30:03 3.1 C 5.39 g/m*3 3.1 C 0 km/h
1243 24-10-2008 07:35:02 3.2 C 5.42 g/m*3 3.2 C 0 km/h
1244 24-10-2008 07:40:02 3.1 C 5.39 g/m*3 3.1 C 0 km/h
1245 24-10-2008 07:45:02 3 C 5.35 g/m*3 3 C 0 km/h
1246 24-10-2008 07:50:02 2.9 C 5.37 g/m*3 2.9 C 0 km/h
1247 24-10-2008 07:55:02 2.9 C 5.37 g/m*3 2.9 C 0 km/h
1248 24-10-2008 08:00:02 3 C 5.35 g/m*3 3 C 0 km/h
1249 24-10-2008 08:05:03 2.9 C 5.37 g/m*3 2.9 C 0 km/h
1250 24-10-2008 08:10:03 2.9 C 5.37 g/m*3 2.9 C 0 km/h
Sensor: Nr:Datum:Temp:Abs-Feuchte:Windchill:Wind:
Aussen-T/F 1251 24-10-2008 08:15:02 2.9 C 5.43 g/m*3 2.9 C 0 km/h
1252 24-10-2008 08:20:02 2.8 C 5.4 g/m*3 2.8 C 0 km/h
1253 24-10-2008 08:25:02 2.7 C 5.36 g/m*3 2.7 C 0 km/h
1254 24-10-2008 08:30:02 2.7 C 5.36 g/m*3 2.7 C 0 km/h
1255 24-10-2008 08:35:03 2.8 C 5.46 g/m*3 2.8 C 0 km/h
1256 24-10-2008 08:40:03 3 C 5.47 g/m*3 3 C 0 km/h
1257 24-10-2008 08:45:02 3.1 C 5.57 g/m*3 3.1 C 0 km/h
1258 24-10-2008 08:50:02 3.3 C 5.64 g/m*3 3.3 C 0 km/h
1259 24-10-2008 08:55:02 3.5 C 5.72 g/m*3 3.5 C 0 km/h
1260 24-10-2008 09:00:02 3.5 C 5.66 g/m*3 3.5 C 0 km/h
1261 24-10-2008 09:05:02 3.4 C 5.62 g/m*3 3.4 C 0 km/h
1262 24-10-2008 09:10:02 3.5 C 5.66 g/m*3 3.5 C 0 km/h
1263 24-10-2008 09:15:02 3.8 C 5.77 g/m*3 3.8 C 0 km/h
1264 24-10-2008 09:20:02 4 C 5.79 g/m*3 4 C 0 km/h
1265 24-10-2008 09:25:02 4.3 C 5.9 g/m*3 4.3 C 0 km/h
1266 24-10-2008 09:30:02 4.4 C 5.88 g/m*3 4.4 C 0 km/h
1267 24-10-2008 09:35:02 4.4 C 5.81 g/m*3 4.4 C 0 km/h
1268 24-10-2008 09:40:02 4.3 C 5.71 g/m*3 4.3 C 0 km/h
1269 24-10-2008 09:45:02 4.4 C 5.75 g/m*3 4.4 C 0 km/h
1270 24-10-2008 09:50:02 4.5 C 5.78 g/m*3 4.5 C 0 km/h
1271 24-10-2008 09:55:02 4.5 C 5.72 g/m*3 4.5 C 0 km/h
1272 24-10-2008 10:00:02 4.6 C 5.76 g/m*3 4.6 C 0 km/h
1273 24-10-2008 10:05:01 4.6 C 5.76 g/m*3 4.6 C 0 km/h
1274 24-10-2008 10:10:01 4.7 C 5.73 g/m*3 4.7 C 0 km/h
1275 24-10-2008 10:15:02 4.8 C 5.77 g/m*3 4.8 C 0 km/h
Sensor: Nr:Datum:Temp:Abs-Feuchte:Windchill:Wind:
Aussen-T/F 1276 24-10-2008 10:20:02 4.8 C 5.77 g/m*3 4.8 C 0 km/h
1277 24-10-2008 10:25:02 5.1 C 5.75 g/m*3 5.1 C 0 km/h
1278 24-10-2008 10:30:02 5.4 C 5.79 g/m*3 5.4 C 0 km/h
1279 24-10-2008 10:35:01 5.7 C 5.91 g/m*3 5.7 C 0 km/h
1280 24-10-2008 10:40:01 6 C 5.88 g/m*3 6 C 0 km/h
1281 24-10-2008 10:45:02 6 C 5.81 g/m*3 6 C 0 km/h
1282 24-10-2008 10:50:02 5.7 C 5.69 g/m*3 5.7 C 0 km/h
1283 24-10-2008 10:55:02 5.6 C 5.66 g/m*3 5.6 C 0 km/h
1284 24-10-2008 11:00:02 5.7 C 5.69 g/m*3 5.7 C 0 km/h
1285 24-10-2008 11:05:02 5.5 C 5.62 g/m*3 5.5 C 0 km/h
1286 24-10-2008 11:10:02 5.6 C 5.73 g/m*3 5.6 C 0 km/h
1287 24-10-2008 11:15:02 5.6 C 5.8 g/m*3 5.6 C 0 km/h
1288 24-10-2008 11:20:02 5.6 C 5.8 g/m*3 5.6 C 0 km/h
1289 24-10-2008 11:25:02 5.8 C 5.95 g/m*3 5.8 C 0 km/h
1290 24-10-2008 11:30:02 5.8 C 5.95 g/m*3 5.8 C 0 km/h
1291 24-10-2008 11:35:01 6.2 C 6.03 g/m*3 6.2 C 0 km/h
1292 24-10-2008 11:40:01 6.3 C 6.07 g/m*3 6.3 C 0 km/h
1293 24-10-2008 11:45:02 6.4 C 6.11 g/m*3 6.4 C 0 km/h
1294 24-10-2008 11:50:02 6.5 C 6.15 g/m*3 6.5 C 0 km/h
1295 24-10-2008 11:55:02 6.5 C 6.15 g/m*3 6.5 C 0 km/h
1296 24-10-2008 12:00:02 6.6 C 6.19 g/m*3 6.6 C 0 km/h
1297 24-10-2008 12:05:02 6.8 C 6.27 g/m*3 6.8 C 0 km/h
1298 24-10-2008 12:10:02 6.9 C 6.31 g/m*3 6.9 C 0 km/h
1299 24-10-2008 12:15:01 7.1 C 6.24 g/m*3 7.1 C 0 km/h
1300 24-10-2008 12:20:01 7.3 C 6.32 g/m*3 7.3 C 0 km/h
Sensor: Nr:Datum:Temp:Abs-Feuchte:Windchill:Wind:
Aussen-T/F 1301 24-10-2008 12:25:01 7.8 C 6.53 g/m*3 7.8 C 0 km/h
1302 24-10-2008 12:30:01 8.3 C 6.57 g/m*3 8.3 C 0 km/h
1303 24-10-2008 12:35:02 8.7 C 6.4 g/m*3 8.7 C 0 km/h
1304 24-10-2008 12:40:02 9 C 6.44 g/m*3 9 C 0 km/h
1305 24-10-2008 12:45:02 9.2 C 6.34 g/m*3 9.2 C 0 km/h
1306 24-10-2008 12:50:02 9.7 C 6.45 g/m*3 9.7 C 0 km/h
1307 24-10-2008 12:55:03 9.9 C 6.44 g/m*3 9.9 C 0 km/h
1308 24-10-2008 13:00:03 10.3 C 6.32 g/m*3 10.3 C 0 km/h
1309 24-10-2008 13:05:02 10.3 C 6.13 g/m*3 10.3 C 0 km/h
1310 24-10-2008 13:10:02 10.4 C 6.17 g/m*3 10.4 C 0 km/h
1311 24-10-2008 13:15:02 10.7 C 6.19 g/m*3 10.7 C 0 km/h
1312 24-10-2008 13:20:02 10.8 C 6.13 g/m*3 10.8 C 0 km/h
1313 24-10-2008 13:25:02 10.9 C 6.17 g/m*3 10.9 C 0 km/h
1314 24-10-2008 13:30:02 11.1 C 6.04 g/m*3 11.1 C 0 km/h
1315 24-10-2008 13:35:02 11.4 C 5.95 g/m*3 11.4 C 0 km/h
1316 24-10-2008 13:40:02 11.7 C 5.86 g/m*3 11.7 C 0 km/h
1317 24-10-2008 13:45:02 11.7 C 5.75 g/m*3 11.7 C 0 km/h
1318 24-10-2008 13:50:02 12.1 C 5.68 g/m*3 12.1 C 0 km/h
1319 24-10-2008 13:55:02 12.2 C 5.83 g/m*3 12.2 C 0 km/h
1320 24-10-2008 14:00:02 12.4 C 5.79 g/m*3 12.4 C 0 km/h
1321 24-10-2008 14:05:02 12.5 C 5.61 g/m*3 12.5 C 0 km/h
1322 24-10-2008 14:10:02 12.6 C 5.53 g/m*3 12.6 C 0 km/h
1323 24-10-2008 14:15:02 12.6 C 5.53 g/m*3 12.6 C 0 km/h
1324 24-10-2008 14:20:02 12.8 C 5.6 g/m*3 12.8 C 0 km/h
1325 24-10-2008 14:25:02 13.2 C 5.51 g/m*3 13.2 C 0 km/h
Sensor: Nr:Datum:Temp:Abs-Feuchte:Windchill:Wind:
Aussen-T/F 1326 24-10-2008 14:30:02 13.1 C 5.48 g/m*3 13.1 C 0 km/h
1327 24-10-2008 14:35:02 13.1 C 5.48 g/m*3 13.1 C 0 km/h
1328 24-10-2008 14:40:02 13.2 C 5.51 g/m*3 13.2 C 0 km/h
1329 24-10-2008 14:45:02 12.9 C 5.52 g/m*3 12.9 C 0 km/h
1330 24-10-2008 14:50:02 12.8 C 5.49 g/m*3 12.8 C 0 km/h
1331 24-10-2008 14:55:02 13 C 5.56 g/m*3 13 C 0 km/h
1332 24-10-2008 15:00:02 13 C 5.56 g/m*3 13 C 0 km/h
1333 24-10-2008 15:05:02 13 C 5.44 g/m*3 13 C 0 km/h
1334 24-10-2008 15:10:02 13 C 5.44 g/m*3 13 C 0 km/h
1335 24-10-2008 15:15:02 13.1 C 5.36 g/m*3 13.1 C 0 km/h
1336 24-10-2008 15:20:02 13.1 C 5.36 g/m*3 13.1 C 0 km/h
1337 24-10-2008 15:25:02 13 C 5.22 g/m*3 13 C 0 km/h
1338 24-10-2008 15:30:02 13.2 C 5.4 g/m*3 13.2 C 0 km/h
1339 24-10-2008 15:35:02 13.5 C 5.38 g/m*3 13.5 C 0 km/h
1340 24-10-2008 15:40:03 13.9 C 5.51 g/m*3 13.9 C 0 km/h
1341 24-10-2008 15:45:02 13.7 C 5.33 g/m*3 13.7 C 0 km/h
1342 24-10-2008 15:50:02 13.3 C 5.31 g/m*3 13.3 C 0 km/h
1343 24-10-2008 15:55:02 13 C 5.33 g/m*3 13 C 0 km/h
1344 24-10-2008 16:00:02 13.1 C 5.48 g/m*3 13.1 C 0 km/h
1345 24-10-2008 16:05:02 13 C 5.44 g/m*3 13 C 0 km/h
1346 24-10-2008 16:10:02 13 C 5.44 g/m*3 13 C 0 km/h
1347 24-10-2008 16:15:02 13.1 C 5.59 g/m*3 13.1 C 0 km/h
1348 24-10-2008 16:20:03 13.1 C 5.59 g/m*3 13.1 C 0 km/h
1349 24-10-2008 16:25:03 13.1 C 5.48 g/m*3 13.1 C 0 km/h
1350 24-10-2008 16:30:03 13.2 C 5.51 g/m*3 13.2 C 0 km/h
Sensor: Nr:Datum:Temp:Abs-Feuchte:Windchill:Wind:
Aussen-T/F 1351 24-10-2008 16:35:02 13.3 C 5.55 g/m*3 13.3 C 0 km/h
1352 24-10-2008 16:40:02 13.1 C 5.36 g/m*3 13.1 C 0 km/h
1353 24-10-2008 16:45:02 12.9 C 5.41 g/m*3 12.9 C 0 km/h
1354 24-10-2008 16:50:03 12.8 C 5.71 g/m*3 12.8 C 0 km/h
1355 24-10-2008 16:55:03 12.7 C 5.68 g/m*3 12.7 C 0 km/h
1356 24-10-2008 17:00:03 12.7 C 5.9 g/m*3 12.7 C 0 km/h
1357 24-10-2008 17:05:01 12.5 C 5.83 g/m*3 12.5 C 0 km/h
1358 24-10-2008 17:10:01 12.4 C 6.01 g/m*3 12.4 C 0 km/h
1359 24-10-2008 17:15:02 12.3 C 5.97 g/m*3 12.3 C 0 km/h
1360 24-10-2008 17:20:02 12.1 C 5.9 g/m*3 12.1 C 0 km/h
1361 24-10-2008 17:25:02 11.8 C 6.1 g/m*3 11.8 C 0 km/h
1362 24-10-2008 17:30:02 11.6 C 6.03 g/m*3 11.6 C 0 km/h
1363 24-10-2008 17:35:02 11.5 C 5.99 g/m*3 11.5 C 0 km/h
1364 24-10-2008 17:40:02 11.3 C 6.02 g/m*3 11.3 C 0 km/h
1365 24-10-2008 17:45:02 11.2 C 5.98 g/m*3 11.2 C 0 km/h
1366 24-10-2008 17:50:02 11.1 C 5.94 g/m*3 11.1 C 0 km/h
1367 24-10-2008 17:55:03 11 C 6.01 g/m*3 11 C 0 km/h
1368 24-10-2008 18:00:03 10.8 C 6.03 g/m*3 10.8 C 0 km/h
1369 24-10-2008 18:05:02 10.8 C 6.13 g/m*3 10.8 C 0 km/h
1370 24-10-2008 18:10:02 10.7 C 6.09 g/m*3 10.7 C 0 km/h
1371 24-10-2008 18:15:02 10.7 C 5.99 g/m*3 10.7 C 0 km/h
1372 24-10-2008 18:20:02 10.6 C 6.05 g/m*3 10.6 C 0 km/h
1373 24-10-2008 18:25:02 10.6 C 6.15 g/m*3 10.6 C 0 km/h
1374 24-10-2008 18:30:02 10.5 C 6.11 g/m*3 10.5 C 0 km/h
1375 24-10-2008 18:35:02 10.5 C 6.11 g/m*3 10.5 C 0 km/h
Sensor: Nr:Datum:Temp:Abs-Feuchte:Windchill:Wind:
Aussen-T/F 1376 24-10-2008 18:40:02 10.5 C 6.11 g/m*3 10.5 C 0 km/h
1377 24-10-2008 18:45:02 10.5 C 6.21 g/m*3 10.5 C 0 km/h
1378 24-10-2008 18:50:02 10.5 C 6.21 g/m*3 10.5 C 0 km/h
1379 24-10-2008 18:55:02 10.5 C 6.21 g/m*3 10.5 C 0 km/h
1380 24-10-2008 19:00:02 10.4 C 6.26 g/m*3 10.4 C 0 km/h
1381 24-10-2008 19:05:02 10.4 C 6.26 g/m*3 10.4 C 0 km/h
1382 24-10-2008 19:10:02 10.4 C 6.26 g/m*3 10.4 C 0 km/h
1383 24-10-2008 19:15:02 10.4 C 6.26 g/m*3 10.4 C 0 km/h
1384 24-10-2008 19:20:02 10.4 C 6.36 g/m*3 10.4 C 0 km/h
1385 24-10-2008 19:25:02 10.4 C 6.36 g/m*3 10.4 C 0 km/h
1386 24-10-2008 19:30:02 10.3 C 6.42 g/m*3 10.3 C 0 km/h
1387 24-10-2008 19:35:02 10.2 C 6.47 g/m*3 10.2 C 0 km/h
1388 24-10-2008 19:40:02 10.1 C 6.52 g/m*3 10.1 C 0 km/h
1389 24-10-2008 19:45:02 10 C 6.58 g/m*3 10 C 0 km/h
1390 24-10-2008 19:50:02 10 C 6.77 g/m*3 10 C 0 km/h
1391 24-10-2008 19:55:02 9.9 C 6.91 g/m*3 9.9 C 0 km/h
1392 24-10-2008 20:00:02 9.8 C 6.87 g/m*3 9.8 C 0 km/h
1393 24-10-2008 20:05:02 9.8 C 6.96 g/m*3 9.8 C 0 km/h
1394 24-10-2008 20:10:02 9.9 C 7.1 g/m*3 9.9 C 0 km/h
1395 24-10-2008 20:15:01 9.9 C 7.1 g/m*3 9.9 C 0 km/h
1396 24-10-2008 20:20:01 9.9 C 7.1 g/m*3 9.9 C 0 km/h
1397 24-10-2008 20:25:01 10 C 7.14 g/m*3 10 C 0 km/h
1398 24-10-2008 20:30:01 10 C 7.14 g/m*3 10 C 0 km/h
1399 24-10-2008 20:35:02 10 C 7.05 g/m*3 10 C 0 km/h
1400 24-10-2008 20:40:02 10 C 6.95 g/m*3 10 C 0 km/h
Sensor: Nr:Datum:Temp:Abs-Feuchte:Windchill:Wind:
Aussen-T/F 1401 24-10-2008 20:45:02 10 C 7.05 g/m*3 10 C 0 km/h
1402 24-10-2008 20:50:02 10 C 7.05 g/m*3 10 C 0 km/h
1403 24-10-2008 20:55:03 10 C 6.95 g/m*3 10 C 0 km/h
1404 24-10-2008 21:00:03 10 C 6.95 g/m*3 10 C 0 km/h
1405 24-10-2008 21:05:02 10 C 6.86 g/m*3 10 C 0 km/h
1406 24-10-2008 21:10:02 10 C 6.86 g/m*3 10 C 0 km/h
1407 24-10-2008 21:15:02 9.9 C 6.91 g/m*3 9.9 C 0 km/h
1408 24-10-2008 21:20:02 9.9 C 6.91 g/m*3 9.9 C 0 km/h
1409 24-10-2008 21:25:02 9.9 C 6.91 g/m*3 9.9 C 0 km/h
1410 24-10-2008 21:30:02 9.8 C 6.87 g/m*3 9.8 C 0 km/h
1411 24-10-2008 21:35:02 9.7 C 6.82 g/m*3 9.7 C 0 km/h
1412 24-10-2008 21:40:02 9.7 C 6.82 g/m*3 9.7 C 0 km/h
1413 24-10-2008 21:45:02 9.6 C 6.78 g/m*3 9.6 C 0 km/h
1414 24-10-2008 21:50:02 9.5 C 6.74 g/m*3 9.5 C 0 km/h
1415 24-10-2008 21:55:02 9.5 C 6.74 g/m*3 9.5 C 0 km/h
1416 24-10-2008 22:00:02 9.5 C 6.74 g/m*3 9.5 C 0 km/h
1417 24-10-2008 22:05:03 9.5 C 6.74 g/m*3 9.5 C 0 km/h
1418 24-10-2008 22:10:03 9.5 C 6.74 g/m*3 9.5 C 0 km/h
1419 24-10-2008 22:15:02 9.5 C 6.74 g/m*3 9.5 C 0 km/h
1420 24-10-2008 22:20:02 9.5 C 6.74 g/m*3 9.5 C 0 km/h
1421 24-10-2008 22:25:02 9.5 C 6.74 g/m*3 9.5 C 0 km/h
1422 24-10-2008 22:30:02 9.5 C 6.74 g/m*3 9.5 C 0 km/h
1423 24-10-2008 22:35:03 9.3 C 6.65 g/m*3 9.3 C 0 km/h
1424 24-10-2008 22:40:03 9.3 C 6.65 g/m*3 9.3 C 0 km/h
1425 24-10-2008 22:46:03 9.3 C 6.65 g/m*3 9.3 C 0 km/h
Sensor: Nr:Datum:Temp:Abs-Feuchte:Windchill:Wind:
Aussen-T/F 1426 24-10-2008 22:51:03 9.2 C 6.7 g/m*3 9.2 C 0 km/h
1427 24-10-2008 22:56:03 9.1 C 6.65 g/m*3 9.1 C 0 km/h
1428 24-10-2008 23:01:03 9 C 6.61 g/m*3 9 C 0 km/h
1429 24-10-2008 23:06:03 8.8 C 6.61 g/m*3 8.8 C 0 km/h
1430 24-10-2008 23:11:03 8.7 C 6.66 g/m*3 8.7 C 0 km/h
1431 24-10-2008 23:16:03 8.6 C 6.7 g/m*3 8.6 C 0 km/h
1432 24-10-2008 23:21:03 8.6 C 6.7 g/m*3 8.6 C 0 km/h
1433 24-10-2008 23:26:04 8.6 C 6.7 g/m*3 8.6 C 0 km/h
1434 24-10-2008 23:31:04 8.6 C 6.79 g/m*3 8.6 C 0 km/h
1435 24-10-2008 23:36:04 8.7 C 6.83 g/m*3 8.7 C 0 km/h
1436 24-10-2008 23:41:04 8.8 C 6.88 g/m*3 8.8 C 0 km/h
1437 24-10-2008 23:46:04 8.9 C 6.92 g/m*3 8.9 C 0 km/h
1438 24-10-2008 23:51:04 8.9 C 6.92 g/m*3 8.9 C 0 km/h
1439 24-10-2008 23:56:04 8.9 C 6.92 g/m*3 8.9 C 0 km/h
1440 25-10-2008 00:01:04 9 C 6.88 g/m*3 9 C 0 km/h
1441 25-10-2008 00:06:04 9 C 6.88 g/m*3 9 C 0 km/h
1442 25-10-2008 00:11:04 9 C 6.88 g/m*3 9 C 0 km/h
1443 25-10-2008 00:16:04 9.1 C 6.92 g/m*3 9.1 C 0 km/h
1444 25-10-2008 00:21:04 9.1 C 6.92 g/m*3 9.1 C 0 km/h
1445 25-10-2008 00:26:04 9.2 C 6.97 g/m*3 9.2 C 0 km/h
1446 25-10-2008 00:31:04 9.2 C 6.97 g/m*3 9.2 C 0 km/h
1447 25-10-2008 00:36:04 9.2 C 6.97 g/m*3 9.2 C 0 km/h
1448 25-10-2008 00:41:04 9.2 C 6.97 g/m*3 9.2 C 0 km/h
1449 25-10-2008 00:46:04 9.3 C 7.01 g/m*3 9.3 C 0 km/h
1450 25-10-2008 00:51:04 9.5 C 7.01 g/m*3 9.5 C 0 km/h
Sensor: Nr:Datum:Temp:Abs-Feuchte:Windchill:Wind:
Aussen-T/F 1451 25-10-2008 00:56:04 9.7 C 7.1 g/m*3 9.7 C 0 km/h
1452 25-10-2008 01:01:04 9.7 C 7.01 g/m*3 9.7 C 0 km/h
1453 25-10-2008 01:06:05 9.7 C 6.91 g/m*3 9.7 C 0 km/h
1454 25-10-2008 01:11:05 9.7 C 6.91 g/m*3 9.7 C 0 km/h
1455 25-10-2008 01:16:05 9.7 C 6.91 g/m*3 9.7 C 0 km/h
1456 25-10-2008 01:21:05 9.8 C 6.96 g/m*3 9.8 C 0 km/h
1457 25-10-2008 01:26:05 9.8 C 6.87 g/m*3 9.8 C 0 km/h
1458 25-10-2008 01:31:05 9.9 C 6.91 g/m*3 9.9 C 0 km/h
1459 25-10-2008 01:36:05 9.9 C 6.91 g/m*3 9.9 C 0 km/h
1460 25-10-2008 01:41:05 10 C 6.86 g/m*3 10 C 0 km/h
1461 25-10-2008 01:46:05 10 C 6.86 g/m*3 10 C 0 km/h
1462 25-10-2008 01:51:05 10 C 6.86 g/m*3 10 C 0 km/h
1463 25-10-2008 01:56:05 10.1 C 6.9 g/m*3 10.1 C 0 km/h
1464 25-10-2008 02:01:05 10.1 C 6.9 g/m*3 10.1 C 0 km/h
1465 25-10-2008 02:06:05 10 C 6.86 g/m*3 10 C 0 km/h
1466 25-10-2008 02:11:05 10 C 6.86 g/m*3 10 C 0 km/h
1467 25-10-2008 02:16:05 10 C 6.95 g/m*3 10 C 0 km/h
1468 25-10-2008 02:21:05 9.9 C 7 g/m*3 9.9 C 0 km/h
1469 25-10-2008 02:26:05 9.9 C 7 g/m*3 9.9 C 0 km/h
1470 25-10-2008 02:31:05 9.9 C 7 g/m*3 9.9 C 0 km/h
1471 25-10-2008 02:36:05 10 C 6.95 g/m*3 10 C 0 km/h
1472 25-10-2008 02:41:05 10 C 6.95 g/m*3 10 C 0 km/h
1473 25-10-2008 02:46:05 10 C 6.95 g/m*3 10 C 0 km/h
1474 25-10-2008 02:51:06 10 C 6.95 g/m*3 10 C 0 km/h
1475 25-10-2008 02:56:06 10 C 6.95 g/m*3 10 C 0 km/h
Sensor: Nr:Datum:Temp:Abs-Feuchte:Windchill:Wind:
Aussen-T/F 1476 25-10-2008 03:01:06 10 C 6.95 g/m*3 10 C 0 km/h
1477 25-10-2008 03:06:06 10 C 6.95 g/m*3 10 C 0 km/h
1478 25-10-2008 03:11:06 10 C 6.95 g/m*3 10 C 0 km/h
1479 25-10-2008 03:16:06 9.9 C 7.1 g/m*3 9.9 C 0 km/h
1480 25-10-2008 03:21:06 9.9 C 7.19 g/m*3 9.9 C 0 km/h
1481 25-10-2008 03:26:06 9.9 C 7.19 g/m*3 9.9 C 0 km/h
1482 25-10-2008 03:31:06 9.9 C 7.19 g/m*3 9.9 C 0 km/h
1483 25-10-2008 03:36:06 9.9 C 7.19 g/m*3 9.9 C 0 km/h
1484 25-10-2008 03:41:06 9.9 C 7.19 g/m*3 9.9 C 0 km/h
1485 25-10-2008 03:46:06 9.9 C 7.19 g/m*3 9.9 C 0 km/h
1486 25-10-2008 03:51:06 9.9 C 7.19 g/m*3 9.9 C 0 km/h
1487 25-10-2008 03:56:06 9.9 C 7.19 g/m*3 9.9 C 0 km/h
1488 25-10-2008 04:01:06 9.9 C 7.19 g/m*3 9.9 C 0 km/h
1489 25-10-2008 04:06:06 9.9 C 7.19 g/m*3 9.9 C 0 km/h
1490 25-10-2008 04:11:06 9.9 C 7.28 g/m*3 9.9 C 0 km/h
1491 25-10-2008 04:16:06 9.9 C 7.28 g/m*3 9.9 C 0 km/h
1492 25-10-2008 04:21:06 9.9 C 7.28 g/m*3 9.9 C 0 km/h
1493 25-10-2008 04:26:06 9.9 C 7.28 g/m*3 9.9 C 0 km/h
1494 25-10-2008 04:31:07 10 C 7.14 g/m*3 10 C 0 km/h
1495 25-10-2008 04:36:07 9.9 C 7.28 g/m*3 9.9 C 0 km/h
1496 25-10-2008 04:41:07 10 C 7.14 g/m*3 10 C 0 km/h
1497 25-10-2008 04:46:07 10 C 7.14 g/m*3 10 C 0 km/h
1498 25-10-2008 04:51:07 10 C 7.14 g/m*3 10 C 0 km/h
1499 25-10-2008 04:56:07 10 C 7.14 g/m*3 10 C 0 km/h
1500 25-10-2008 05:01:07 10 C 7.14 g/m*3 10 C 0 km/h
Sensor: Nr:Datum:Temp:Abs-Feuchte:Windchill:Wind:
Aussen-T/F 1501 25-10-2008 05:06:07 9.9 C 7.28 g/m*3 9.9 C 0 km/h
1502 25-10-2008 05:11:07 9.9 C 7.28 g/m*3 9.9 C 0 km/h
1503 25-10-2008 05:16:07 9.9 C 7.28 g/m*3 9.9 C 0 km/h
1504 25-10-2008 05:21:07 10 C 7.24 g/m*3 10 C 0 km/h
1505 25-10-2008 05:26:07 9.9 C 7.28 g/m*3 9.9 C 0 km/h
1506 25-10-2008 05:31:07 9.9 C 7.28 g/m*3 9.9 C 0 km/h
1507 25-10-2008 05:36:07 9.9 C 7.28 g/m*3 9.9 C 0 km/h
1508 25-10-2008 05:41:07 9.9 C 7.28 g/m*3 9.9 C 0 km/h
1509 25-10-2008 05:46:07 9.9 C 7.28 g/m*3 9.9 C 0 km/h
1510 25-10-2008 05:51:07 9.9 C 7.28 g/m*3 9.9 C 0 km/h
1511 25-10-2008 05:56:07 9.9 C 7.28 g/m*3 9.9 C 0 km/h
1512 25-10-2008 06:01:07 9.9 C 7.28 g/m*3 9.9 C 0 km/h
1513 25-10-2008 06:06:07 9.9 C 7.38 g/m*3 9.9 C 0 km/h
1514 25-10-2008 06:11:07 9.9 C 7.38 g/m*3 9.9 C 0 km/h
1515 25-10-2008 06:16:08 9.8 C 7.42 g/m*3 9.8 C 0 km/h
1516 25-10-2008 06:21:08 9.7 C 7.38 g/m*3 9.7 C 0 km/h
1517 25-10-2008 06:26:08 9.7 C 7.56 g/m*3 9.7 C 0 km/h
1518 25-10-2008 06:31:08 9.7 C 7.56 g/m*3 9.7 C 0 km/h
1519 25-10-2008 06:36:08 9.7 C 7.65 g/m*3 9.7 C 0 km/h
1520 25-10-2008 06:41:08 9.7 C 7.65 g/m*3 9.7 C 0 km/h
1521 25-10-2008 06:46:08 9.6 C 7.6 g/m*3 9.6 C 0 km/h
1522 25-10-2008 06:51:08 9.6 C 7.69 g/m*3 9.6 C 0 km/h
1523 25-10-2008 06:56:08 9.5 C 7.74 g/m*3 9.5 C 0 km/h
1524 25-10-2008 07:01:08 9.5 C 7.74 g/m*3 9.5 C 0 km/h
1525 25-10-2008 07:06:08 9.5 C 7.74 g/m*3 9.5 C 0 km/h
Sensor: Nr:Datum:Temp:Abs-Feuchte:Windchill:Wind:
Aussen-T/F 1526 25-10-2008 07:11:08 9.6 C 7.79 g/m*3 9.6 C 0 km/h
1527 25-10-2008 07:16:08 9.6 C 7.79 g/m*3 9.6 C 0 km/h
1528 25-10-2008 07:21:08 9.6 C 7.79 g/m*3 9.6 C 0 km/h
1529 25-10-2008 07:26:08 9.6 C 7.79 g/m*3 9.6 C 0 km/h
1530 25-10-2008 07:31:08 9.6 C 7.79 g/m*3 9.6 C 0 km/h
1531 25-10-2008 07:36:08 9.6 C 7.79 g/m*3 9.6 C 0 km/h
1532 25-10-2008 07:41:08 9.6 C 7.79 g/m*3 9.6 C 0 km/h
1533 25-10-2008 07:46:08 9.6 C 7.79 g/m*3 9.6 C 0 km/h
1534 25-10-2008 07:51:08 9.6 C 7.79 g/m*3 9.6 C 0 km/h
1535 25-10-2008 07:56:08 9.6 C 7.79 g/m*3 9.6 C 0 km/h
1536 25-10-2008 08:01:09 9.6 C 7.69 g/m*3 9.6 C 0 km/h
1537 25-10-2008 08:06:09 9.7 C 7.74 g/m*3 9.7 C 0 km/h
1538 25-10-2008 08:11:09 9.7 C 7.74 g/m*3 9.7 C 0 km/h
1539 25-10-2008 08:16:09 9.7 C 7.74 g/m*3 9.7 C 0 km/h
1540 25-10-2008 08:21:09 9.7 C 7.74 g/m*3 9.7 C 0 km/h
1541 25-10-2008 08:26:09 9.8 C 7.79 g/m*3 9.8 C 0 km/h
1542 25-10-2008 08:31:09 9.8 C 7.79 g/m*3 9.8 C 0 km/h
1543 25-10-2008 08:36:09 9.8 C 7.79 g/m*3 9.8 C 0 km/h
1544 25-10-2008 08:41:09 9.9 C 7.84 g/m*3 9.9 C 0 km/h
1545 25-10-2008 08:46:09 9.9 C 7.84 g/m*3 9.9 C 0 km/h
1546 25-10-2008 08:51:09 9.9 C 7.84 g/m*3 9.9 C 0 km/h
1547 25-10-2008 08:56:09 10 C 7.71 g/m*3 10 C 0 km/h
1548 25-10-2008 09:01:03 10 C 7.71 g/m*3 10 C 0 km/h
1549 25-10-2008 09:06:03 10.1 C 7.75 g/m*3 10.1 C 0 km/h
1550 25-10-2008 09:11:03 10.1 C 7.75 g/m*3 10.1 C 0 km/h
Sensor: Nr:Datum:Temp:Abs-Feuchte:Windchill:Wind:
Aussen-T/F 1551 25-10-2008 09:22:03 10.3 C 7.76 g/m*3 10.3 C 0 km/h
1552 25-10-2008 09:47:02 10.7 C 7.86 g/m*3 10.7 C 0 km/h
1553 25-10-2008 10:12:02 11.1 C 7.76 g/m*3 11.1 C 0 km/h
1554 25-10-2008 10:37:02 11.6 C 7.8 g/m*3 11.6 C 0 km/h
1555 25-10-2008 11:02:02 12 C 7.67 g/m*3 12 C 0 km/h
1556 25-10-2008 11:27:02 12.3 C 7.82 g/m*3 12.3 C 0 km/h
1557 25-10-2008 11:52:01 12.4 C 7.76 g/m*3 12.4 C 0 km/h
1558 25-10-2008 12:17:01 12.7 C 8.01 g/m*3 12.7 C 0 km/h
1559 25-10-2008 12:42:02 14 C 7.84 g/m*3 14 C 0 km/h
1560 25-10-2008 13:07:02 14.8 C 7.73 g/m*3 14.8 C 0 km/h
1561 25-10-2008 13:32:02 14.5 C 7.59 g/m*3 14.5 C 0 km/h
1562 25-10-2008 13:57:02 14.7 C 7.43 g/m*3 14.7 C 0 km/h
1563 25-10-2008 14:22:02 14.9 C 7.65 g/m*3 14.9 C 0 km/h
1564 25-10-2008 14:47:01 15.4 C 7.36 g/m*3 15.4 C 0 km/h
1565 25-10-2008 15:12:02 15.3 C 7.31 g/m*3 15.3 C 0 km/h
1566 25-10-2008 15:37:02 15.2 C 7.53 g/m*3 15.2 C 0 km/h
1567 25-10-2008 16:02:02 16.8 C 7.72 g/m*3 16.8 C 0 km/h
1568 25-10-2008 16:27:02 17.3 C 7.22 g/m*3 17.3 C 0 km/h
1569 25-10-2008 16:52:02 17 C 7.23 g/m*3 17 C 0 km/h
1570 25-10-2008 17:17:02 16.8 C 7.43 g/m*3 16.8 C 0 km/h
1571 25-10-2008 17:42:02 15.5 C 7.4 g/m*3 15.5 C 0 km/h
1572 25-10-2008 18:07:02 13.7 C 7.46 g/m*3 13.7 C 0 km/h
1573 25-10-2008 18:32:02 12.5 C 7.7 g/m*3 12.5 C 0 km/h
1574 25-10-2008 18:57:02 12.3 C 7.93 g/m*3 12.3 C 0 km/h
1575 25-10-2008 19:22:02 12.5 C 7.92 g/m*3 12.5 C 0 km/h
Sensor: Nr:Datum:Temp:Abs-Feuchte:Windchill:Wind:
Aussen-T/F 1576 25-10-2008 19:47:01 11.9 C 7.84 g/m*3 11.9 C 0 km/h
1577 25-10-2008 20:12:02 11.6 C 7.69 g/m*3 11.6 C 0 km/h
1578 25-10-2008 20:37:02 11.1 C 7.45 g/m*3 11.1 C 0 km/h
1579 25-10-2008 21:02:02 10.4 C 7.42 g/m*3 10.4 C 0 km/h
1580 25-10-2008 21:27:02 9.9 C 7.47 g/m*3 9.9 C 0 km/h
1581 25-10-2008 21:52:02 9.5 C 7.37 g/m*3 9.5 C 0 km/h
1582 25-10-2008 22:31:02 9.2 C 7.32 g/m*3 9.2 C 0 km/h
1583 25-10-2008 22:56:02 8.7 C 7.26 g/m*3 8.7 C 0 km/h
1584 25-10-2008 23:21:02 8.3 C 7.08 g/m*3 8.3 C 0 km/h
1585 25-10-2008 23:46:02 8 C 7.03 g/m*3 8 C 0 km/h
1586 26-10-2008 00:11:02 7.6 C 7.01 g/m*3 7.6 C 0 km/h
1587 26-10-2008 00:36:02 7.4 C 6.92 g/m*3 7.4 C 0 km/h
1588 26-10-2008 01:01:02 7.1 C 6.79 g/m*3 7.1 C 0 km/h
1589 26-10-2008 01:26:02 7 C 6.82 g/m*3 7 C 0 km/h
1590 26-10-2008 01:51:02 6.8 C 6.81 g/m*3 6.8 C 0 km/h
1591 26-10-2008 02:16:02 6.6 C 6.72 g/m*3 6.6 C 0 km/h
1592 26-10-2008 02:41:03 6.4 C 6.63 g/m*3 6.4 C 0 km/h
1593 26-10-2008 03:06:03 6.2 C 6.62 g/m*3 6.2 C 0 km/h
1594 26-10-2008 03:31:03 6 C 6.53 g/m*3 6 C 0 km/h
1595 26-10-2008 03:56:03 5.8 C 6.52 g/m*3 5.8 C 0 km/h
1596 26-10-2008 04:11:03 5.8 C 6.59 g/m*3 5.8 C 0 km/h
1597 26-10-2008 04:21:03 5.7 C 6.48 g/m*3 5.7 C 0 km/h
1598 26-10-2008 04:36:03 5.7 C 6.55 g/m*3 5.7 C 0 km/h
1599 26-10-2008 04:46:03 5.9 C 6.63 g/m*3 5.9 C 0 km/h
1600 26-10-2008 05:01:03 5.8 C 6.66 g/m*3 5.8 C 0 km/h
Sensor: Nr:Datum:Temp:Abs-Feuchte:Windchill:Wind:
Aussen-T/F 1601 26-10-2008 05:26:03 5.6 C 6.5 g/m*3 5.6 C 0 km/h
1602 26-10-2008 05:51:03 5.4 C 6.42 g/m*3 5.4 C 0 km/h
1603 26-10-2008 06:16:03 5.7 C 6.62 g/m*3 5.7 C 0 km/h
1604 26-10-2008 06:41:03 6.4 C 6.93 g/m*3 6.4 C 0 km/h
1605 26-10-2008 07:06:03 6.8 C 6.96 g/m*3 6.8 C 0 km/h
1606 26-10-2008 07:31:03 6.8 C 6.81 g/m*3 6.8 C 0 km/h
1607 26-10-2008 07:56:03 6.7 C 6.76 g/m*3 6.7 C 0 km/h
1608 26-10-2008 08:21:03 6.5 C 6.67 g/m*3 6.5 C 0 km/h
1609 26-10-2008 08:46:03 6.6 C 6.72 g/m*3 6.6 C 0 km/h
1610 26-10-2008 09:11:03 7.7 C 7.22 g/m*3 7.7 C 0 km/h
1611 26-10-2008 09:36:03 8.5 C 7.43 g/m*3 8.5 C 0 km/h
1612 26-10-2008 10:01:03 9.4 C 7.69 g/m*3 9.4 C 0 km/h
1613 26-10-2008 10:26:04 10.9 C 7.16 g/m*3 10.9 C 0 km/h
1614 26-10-2008 10:51:04 11.8 C 7.05 g/m*3 11.8 C 0 km/h
1615 26-10-2008 11:16:04 12.3 C 6.62 g/m*3 12.3 C 0 km/h
1616 26-10-2008 11:41:04 12.7 C 6.57 g/m*3 12.7 C 0 km/h
1617 26-10-2008 12:06:04 13.5 C 6.2 g/m*3 13.5 C 0 km/h
1618 26-10-2008 12:31:04 13.9 C 6.11 g/m*3 13.9 C 0 km/h
1619 26-10-2008 12:56:04 15.6 C 5.59 g/m*3 15.6 C 0 km/h
1620 26-10-2008 13:21:04 16.8 C 5.15 g/m*3 16.8 C 0 km/h
1621 26-10-2008 13:46:04 16 C 5.04 g/m*3 16 C 0 km/h
1622 26-10-2008 14:11:04 15.6 C 4.92 g/m*3 15.6 C 0 km/h
1623 26-10-2008 14:36:04 15.2 C 4.8 g/m*3 15.2 C 0 km/h
1624 26-10-2008 15:01:04 15.1 C 4.9 g/m*3 15.1 C 0 km/h
1625 26-10-2008 15:26:04 15.2 C 4.8 g/m*3 15.2 C 0 km/h
Sensor: Nr:Datum:Temp:Abs-Feuchte:Windchill:Wind:
Aussen-T/F 1626 26-10-2008 15:51:04 15.2 C 4.93 g/m*3 15.2 C 0 km/h
1627 26-10-2008 16:16:04 15.1 C 5.03 g/m*3 15.1 C 0 km/h
1628 26-10-2008 16:41:04 14.7 C 5.16 g/m*3 14.7 C 0 km/h
1629 26-10-2008 17:06:04 14.3 C 5.28 g/m*3 14.3 C 0 km/h
1630 26-10-2008 17:31:04 14.5 C 5.1 g/m*3 14.5 C 0 km/h
1631 26-10-2008 17:56:04 14.5 C 5.1 g/m*3 14.5 C 0 km/h
1632 26-10-2008 18:21:04 14.5 C 4.97 g/m*3 14.5 C 0 km/h
1633 26-10-2008 18:46:05 14.3 C 5.04 g/m*3 14.3 C 0 km/h
1634 26-10-2008 19:11:05 14.1 C 5.1 g/m*3 14.1 C 0 km/h
1635 26-10-2008 19:36:05 14.1 C 5.1 g/m*3 14.1 C 0 km/h
1636 26-10-2008 20:01:05 14 C 5.31 g/m*3 14 C 0 km/h
1637 26-10-2008 20:26:05 13.7 C 5.57 g/m*3 13.7 C 0 km/h
1638 26-10-2008 20:51:05 13.7 C 5.92 g/m*3 13.7 C 0 km/h
1639 26-10-2008 21:16:05 13.6 C 6 g/m*3 13.6 C 0 km/h
1640 26-10-2008 21:41:05 13.6 C 6.36 g/m*3 13.6 C 0 km/h
1641 26-10-2008 22:06:05 13.5 C 6.43 g/m*3 13.5 C 0 km/h
1642 26-10-2008 22:31:05 13.5 C 6.55 g/m*3 13.5 C 0 km/h
1643 26-10-2008 22:56:05 13.4 C 6.63 g/m*3 13.4 C 0 km/h
1644 26-10-2008 23:21:05 13.5 C 6.78 g/m*3 13.5 C 0 km/h
1645 26-10-2008 23:46:05 13.2 C 6.89 g/m*3 13.2 C 0 km/h
1646 27-10-2008 00:11:05 13.2 C 6.89 g/m*3 13.2 C 0 km/h
1647 27-10-2008 00:36:05 13.2 C 7 g/m*3 13.2 C 0 km/h
1648 27-10-2008 01:01:05 12 C 7.89 g/m*3 12 C 0 km/h
1649 27-10-2008 01:26:05 11.4 C 8.31 g/m*3 11.4 C 0 km/h
1650 27-10-2008 01:51:05 11 C 8.41 g/m*3 11 C 0 km/h
Sensor: Nr:Datum:Temp:Abs-Feuchte:Windchill:Wind:
Aussen-T/F 1651 27-10-2008 02:16:05 11 C 8.51 g/m*3 11 C 0 km/h
1652 27-10-2008 02:41:05 11.2 C 8.41 g/m*3 11.2 C 0 km/h
1653 27-10-2008 03:06:05 11.1 C 8.36 g/m*3 11.1 C 0 km/h
1654 27-10-2008 03:31:06 10.9 C 8.55 g/m*3 10.9 C 0 km/h
1655 27-10-2008 03:56:06 10.9 C 8.65 g/m*3 10.9 C 0 km/h
1656 27-10-2008 04:21:06 10.7 C 8.74 g/m*3 10.7 C 0 km/h
1657 27-10-2008 04:46:06 10.6 C 8.78 g/m*3 10.6 C 0 km/h
1658 27-10-2008 05:11:06 10.5 C 8.83 g/m*3 10.5 C 0 km/h
1659 27-10-2008 05:36:06 10.5 C 8.92 g/m*3 10.5 C 0 km/h
1660 27-10-2008 06:01:06 10.4 C 8.87 g/m*3 10.4 C 0 km/h
1661 27-10-2008 06:26:06 10.3 C 8.81 g/m*3 10.3 C 0 km/h
1662 27-10-2008 06:51:06 10.2 C 8.76 g/m*3 10.2 C 0 km/h
1663 27-10-2008 07:16:06 10.2 C 8.85 g/m*3 10.2 C 0 km/h
1664 27-10-2008 07:41:06 10.1 C 8.79 g/m*3 10.1 C 0 km/h
1665 27-10-2008 08:06:06 10.1 C 8.79 g/m*3 10.1 C 0 km/h
1666 27-10-2008 08:31:06 10.2 C 8.95 g/m*3 10.2 C 0 km/h
1667 27-10-2008 08:56:06 10.3 C 9 g/m*3 10.3 C 0 km/h
1668 27-10-2008 09:21:06 10.4 C 9.06 g/m*3 10.4 C 0 km/h
1669 27-10-2008 09:46:06 10.4 C 9.06 g/m*3 10.4 C 0 km/h
1670 27-10-2008 10:11:06 10.4 C 9.06 g/m*3 10.4 C 0 km/h
1671 27-10-2008 10:36:06 10.6 C 9.17 g/m*3 10.6 C 0 km/h
1672 27-10-2008 11:01:06 9.5 C 8.56 g/m*3 9.5 C 0 km/h
1673 27-10-2008 11:26:06 9.5 C 8.56 g/m*3 9.5 C 0 km/h
1674 27-10-2008 11:51:07 10.1 C 8.79 g/m*3 10.1 C 0 km/h
1675 27-10-2008 12:16:07 10.2 C 8.85 g/m*3 10.2 C 0 km/h
Sensor: Nr:Datum:Temp:Abs-Feuchte:Windchill:Wind:
Aussen-T/F 1676 27-10-2008 12:41:07 10.5 C 9.02 g/m*3 10.5 C 0 km/h
1677 27-10-2008 13:06:07 10.4 C 8.67 g/m*3 10.4 C 0 km/h
1678 27-10-2008 13:31:07 10.4 C 8.58 g/m*3 10.4 C 0 km/h
1679 27-10-2008 13:56:07 10.7 C 8.15 g/m*3 10.7 C 0 km/h
1680 27-10-2008 14:21:07 11.9 C 8.37 g/m*3 11.9 C 0 km/h
1681 27-10-2008 14:46:07 12 C 7.99 g/m*3 12 C 0 km/h
1682 27-10-2008 15:11:07 14 C 8.81 g/m*3 14 C 0 km/h
1683 27-10-2008 15:36:07 13.5 C 7.49 g/m*3 13.5 C 0 km/h
1684 27-10-2008 16:01:07 13.4 C 7.32 g/m*3 13.4 C 0 km/h
1685 27-10-2008 16:26:07 11.5 C 7.13 g/m*3 11.5 C 0 km/h
1686 27-10-2008 16:51:07 11.2 C 7.3 g/m*3 11.2 C 0 km/h
1687 27-10-2008 17:16:07 10.7 C 7.46 g/m*3 10.7 C 0 km/h
1688 27-10-2008 17:41:07 10.2 C 6.66 g/m*3 10.2 C 0 km/h
1689 27-10-2008 18:06:07 9.8 C 6.77 g/m*3 9.8 C 0 km/h
1690 27-10-2008 18:31:07 9.9 C 6.82 g/m*3 9.9 C 0 km/h
1691 27-10-2008 18:56:07 9.5 C 6.92 g/m*3 9.5 C 0 km/h
1692 27-10-2008 19:21:07 8.8 C 6.88 g/m*3 8.8 C 0 km/h
1693 27-10-2008 19:46:07 9.1 C 7.01 g/m*3 9.1 C 0 km/h
1694 27-10-2008 20:11:08 8.8 C 7.05 g/m*3 8.8 C 0 km/h
1695 27-10-2008 20:36:08 8.4 C 6.87 g/m*3 8.4 C 0 km/h
1696 27-10-2008 21:01:08 8.1 C 6.82 g/m*3 8.1 C 0 km/h
1697 27-10-2008 21:26:08 7.9 C 6.82 g/m*3 7.9 C 0 km/h
1698 27-10-2008 21:51:08 7.1 C 6.55 g/m*3 7.1 C 0 km/h
1699 27-10-2008 22:16:08 7.3 C 6.79 g/m*3 7.3 C 0 km/h
1700 27-10-2008 22:41:08 7.2 C 6.67 g/m*3 7.2 C 0 km/h
Sensor: Nr:Datum:Temp:Abs-Feuchte:Windchill:Wind:
Aussen-T/F 1701 27-10-2008 23:06:08 6.8 C 6.65 g/m*3 6.8 C 0 km/h
1702 27-10-2008 23:31:08 6.3 C 6.51 g/m*3 6.3 C 0 km/h
1703 27-10-2008 23:56:08 6.1 C 6.5 g/m*3 6.1 C 0 km/h
1704 28-10-2008 00:21:08 5.8 C 6.45 g/m*3 5.8 C 0 km/h
1705 28-10-2008 00:46:08 6.1 C 6.58 g/m*3 6.1 C 0 km/h
1706 28-10-2008 01:11:08 6.1 C 6.65 g/m*3 6.1 C 0 km/h
1707 28-10-2008 01:36:08 5.8 C 6.52 g/m*3 5.8 C 0 km/h
1708 28-10-2008 02:01:08 6 C 6.6 g/m*3 6 C 0 km/h
1709 28-10-2008 02:26:08 6.3 C 6.81 g/m*3 6.3 C 0 km/h
1710 28-10-2008 02:51:08 6.4 C 6.78 g/m*3 6.4 C 0 km/h
1711 28-10-2008 03:16:08 6.4 C 6.78 g/m*3 6.4 C 0 km/h
1712 28-10-2008 03:41:08 6.6 C 6.87 g/m*3 6.6 C 0 km/h
1713 28-10-2008 04:06:08 6.5 C 6.82 g/m*3 6.5 C 0 km/h
1714 28-10-2008 04:31:08 6.5 C 6.82 g/m*3 6.5 C 0 km/h
1715 28-10-2008 04:56:09 6.5 C 6.9 g/m*3 6.5 C 0 km/h
1716 28-10-2008 05:21:09 6.5 C 6.9 g/m*3 6.5 C 0 km/h
1717 28-10-2008 05:46:09 6.4 C 6.93 g/m*3 6.4 C 0 km/h
1718 28-10-2008 06:11:09 6.3 C 6.88 g/m*3 6.3 C 0 km/h
1719 28-10-2008 06:36:09 6.5 C 6.97 g/m*3 6.5 C 0 km/h
1720 28-10-2008 07:01:09 6.2 C 6.84 g/m*3 6.2 C 0 km/h
1721 28-10-2008 07:26:09 6 C 6.75 g/m*3 6 C 0 km/h
1722 28-10-2008 07:51:09 6 C 6.75 g/m*3 6 C 0 km/h
1723 28-10-2008 08:16:09 6.2 C 6.91 g/m*3 6.2 C 0 km/h
1724 28-10-2008 08:41:09 6.6 C 7.1 g/m*3 6.6 C 0 km/h
1725 28-10-2008 09:06:09 7 C 7.21 g/m*3 7 C 0 km/h
Sensor: Nr:Datum:Temp:Abs-Feuchte:Windchill:Wind:
Aussen-T/F 1726 28-10-2008 09:31:09 7.3 C 7.19 g/m*3 7.3 C 0 km/h
1727 28-10-2008 09:56:09 7.8 C 6.94 g/m*3 7.8 C 0 km/h
1728 28-10-2008 10:21:09 7.9 C 6.65 g/m*3 7.9 C 0 km/h
1729 28-10-2008 10:46:09 8.5 C 6.92 g/m*3 8.5 C 0 km/h
1730 28-10-2008 11:11:09 9.2 C 6.88 g/m*3 9.2 C 0 km/h
1731 28-10-2008 11:36:09 10.1 C 6.71 g/m*3 10.1 C 0 km/h
1732 28-10-2008 12:01:09 10.5 C 6.3 g/m*3 10.5 C 0 km/h
1733 28-10-2008 12:26:09 10.5 C 5.82 g/m*3 10.5 C 0 km/h
1734 28-10-2008 12:51:09 10.3 C 4.98 g/m*3 10.3 C 0 km/h
1735 28-10-2008 13:16:10 10.6 C 5.37 g/m*3 10.6 C 0 km/h
1736 28-10-2008 13:41:10 10.5 C 5.43 g/m*3 10.5 C 0 km/h
1737 28-10-2008 14:06:10 10.1 C 5.3 g/m*3 10.1 C 0 km/h
1738 28-10-2008 14:31:10 10.2 C 5.33 g/m*3 10.2 C 0 km/h
1739 28-10-2008 14:56:10 10.4 C 5.4 g/m*3 10.4 C 0 km/h
1740 28-10-2008 15:21:10 10.2 C 5.23 g/m*3 10.2 C 0 km/h
1741 28-10-2008 15:46:10 9.8 C 5.38 g/m*3 9.8 C 0 km/h
1742 28-10-2008 16:11:10 9 C 5.73 g/m*3 9 C 0 km/h
1743 28-10-2008 16:36:10 8.4 C 6.19 g/m*3 8.4 C 0 km/h
1744 28-10-2008 17:01:10 7.8 C 6.12 g/m*3 7.8 C 0 km/h
1745 28-10-2008 17:26:10 7 C 5.97 g/m*3 7 C 0 km/h
1746 28-10-2008 17:51:10 6.5 C 5.92 g/m*3 6.5 C 0 km/h
1747 28-10-2008 18:16:10 6.2 C 5.96 g/m*3 6.2 C 0 km/h
1748 28-10-2008 18:41:10 5.5 C 5.76 g/m*3 5.5 C 0 km/h
1749 28-10-2008 19:06:10 5.4 C 5.72 g/m*3 5.4 C 0 km/h
1750 28-10-2008 19:31:10 5.2 C 5.78 g/m*3 5.2 C 0 km/h
Sensor: Nr:Datum:Temp:Abs-Feuchte:Windchill:Wind:
Aussen-T/F 1751 28-10-2008 19:56:10 5 C 5.71 g/m*3 5 C 0 km/h
1752 28-10-2008 20:21:10 4.9 C 5.81 g/m*3 4.9 C 0 km/h
1753 28-10-2008 20:46:10 4.7 C 5.73 g/m*3 4.7 C 0 km/h
1754 28-10-2008 21:11:10 4.4 C 5.62 g/m*3 4.4 C 0 km/h
1755 28-10-2008 21:36:10 4.2 C 5.61 g/m*3 4.2 C 0 km/h
1756 28-10-2008 22:01:11 3.9 C 5.49 g/m*3 3.9 C 0 km/h
1757 28-10-2008 22:26:11 3.8 C 5.58 g/m*3 3.8 C 0 km/h
1758 28-10-2008 22:51:11 3.6 C 5.51 g/m*3 3.6 C 0 km/h
1759 28-10-2008 23:16:11 3.4 C 5.44 g/m*3 3.4 C 0 km/h
1760 28-10-2008 23:41:11 3.2 C 5.36 g/m*3 3.2 C 0 km/h
1761 29-10-2008 00:06:11 3.2 C 5.42 g/m*3 3.2 C 0 km/h
1762 29-10-2008 00:31:11 3.1 C 5.39 g/m*3 3.1 C 0 km/h
1763 29-10-2008 00:56:11 2.8 C 5.34 g/m*3 2.8 C 0 km/h
1764 29-10-2008 01:21:11 2.8 C 5.4 g/m*3 2.8 C 0 km/h
1765 29-10-2008 01:46:11 2.9 C 5.43 g/m*3 2.9 C 0 km/h
1766 29-10-2008 02:11:11 3 C 5.47 g/m*3 3 C 0 km/h
1767 29-10-2008 02:36:11 2.9 C 5.49 g/m*3 2.9 C 0 km/h
1768 29-10-2008 03:01:11 3.1 C 5.51 g/m*3 3.1 C 0 km/h
1769 29-10-2008 03:26:11 3.4 C 5.68 g/m*3 3.4 C 0 km/h
1770 29-10-2008 03:51:11 3.6 C 5.76 g/m*3 3.6 C 0 km/h
1771 29-10-2008 04:16:11 3.6 C 5.69 g/m*3 3.6 C 0 km/h
1772 29-10-2008 04:41:11 3.4 C 5.62 g/m*3 3.4 C 0 km/h
1773 29-10-2008 05:06:11 3.5 C 5.66 g/m*3 3.5 C 0 km/h
1774 29-10-2008 05:31:11 3.7 C 5.73 g/m*3 3.7 C 0 km/h
1775 29-10-2008 05:56:11 3.7 C 5.73 g/m*3 3.7 C 0 km/h
Sensor: Nr:Datum:Temp:Abs-Feuchte:Windchill:Wind:
Aussen-T/F 1776 29-10-2008 06:21:11 3.7 C 5.73 g/m*3 3.7 C 0 km/h
1777 29-10-2008 06:46:12 3.7 C 5.67 g/m*3 3.7 C 0 km/h
1778 29-10-2008 07:11:12 3.7 C 5.67 g/m*3 3.7 C 0 km/h
1779 29-10-2008 07:36:12 3.6 C 5.63 g/m*3 3.6 C 0 km/h
1780 29-10-2008 08:01:12 3.6 C 5.63 g/m*3 3.6 C 0 km/h
1781 29-10-2008 08:26:12 3.9 C 5.75 g/m*3 3.9 C 0 km/h
1782 29-10-2008 08:51:12 3.9 C 5.68 g/m*3 3.9 C 0 km/h
1783 29-10-2008 09:16:12 4.4 C 5.75 g/m*3 4.4 C 0 km/h
1784 29-10-2008 09:41:12 4.6 C 5.69 g/m*3 4.6 C 0 km/h
1785 29-10-2008 10:06:12 5 C 5.57 g/m*3 5 C 0 km/h
1786 29-10-2008 10:31:12 5.6 C 5.66 g/m*3 5.6 C 0 km/h
1787 29-10-2008 10:56:12 5.6 C 5.59 g/m*3 5.6 C 0 km/h
1788 29-10-2008 11:21:12 6.5 C 5.77 g/m*3 6.5 C 0 km/h
1789 29-10-2008 11:46:12 7.2 C 5.65 g/m*3 7.2 C 0 km/h
1790 29-10-2008 12:11:12 7.1 C 5.54 g/m*3 7.1 C 0 km/h
1791 29-10-2008 12:36:12 7.5 C 5.76 g/m*3 7.5 C 0 km/h
1792 29-10-2008 13:01:12 8 C 5.37 g/m*3 8 C 0 km/h
1793 29-10-2008 13:26:12 8.4 C 5.51 g/m*3 8.4 C 0 km/h
1794 29-10-2008 13:51:12 9.2 C 5.63 g/m*3 9.2 C 0 km/h
1795 29-10-2008 14:16:12 9.1 C 5.41 g/m*3 9.1 C 0 km/h
1796 29-10-2008 14:41:12 10.2 C 5.42 g/m*3 10.2 C 0 km/h
1797 29-10-2008 15:06:13 10.7 C 5.11 g/m*3 10.7 C 0 km/h
1798 29-10-2008 15:31:13 9.8 C 5.1 g/m*3 9.8 C 0 km/h
1799 29-10-2008 15:56:13 9.4 C 5.34 g/m*3 9.4 C 0 km/h
1800 29-10-2008 16:21:13 8.4 C 5.34 g/m*3 8.4 C 0 km/h
Sensor: Nr:Datum:Temp:Abs-Feuchte:Windchill:Wind:
Aussen-T/F 1801 29-10-2008 16:46:13 7.9 C 5.5 g/m*3 7.9 C 0 km/h
1802 29-10-2008 17:11:13 7.1 C 5.38 g/m*3 7.1 C 0 km/h
1803 29-10-2008 17:36:13 6.7 C 5.47 g/m*3 6.7 C 0 km/h
1804 29-10-2008 18:01:13 6.4 C 5.59 g/m*3 6.4 C 0 km/h
1805 29-10-2008 18:26:13 6.2 C 5.52 g/m*3 6.2 C 0 km/h
1806 29-10-2008 18:51:13 6 C 5.52 g/m*3 6 C 0 km/h
1807 29-10-2008 19:16:13 5.9 C 5.62 g/m*3 5.9 C 0 km/h
1808 29-10-2008 19:41:13 5.9 C 5.7 g/m*3 5.9 C 0 km/h
1809 29-10-2008 20:06:13 5.8 C 5.66 g/m*3 5.8 C 0 km/h
1810 29-10-2008 20:31:13 5.4 C 5.58 g/m*3 5.4 C 0 km/h
1811 29-10-2008 20:56:13 5.1 C 5.54 g/m*3 5.1 C 0 km/h
1812 29-10-2008 21:21:13 5.3 C 5.54 g/m*3 5.3 C 0 km/h
1813 29-10-2008 21:46:13 5.1 C 5.47 g/m*3 5.1 C 0 km/h
1814 29-10-2008 22:11:13 5.2 C 5.51 g/m*3 5.2 C 0 km/h
1815 29-10-2008 22:36:13 5.2 C 5.58 g/m*3 5.2 C 0 km/h
1816 29-10-2008 23:01:13 5.2 C 5.65 g/m*3 5.2 C 0 km/h
1817 29-10-2008 23:26:13 5.2 C 5.65 g/m*3 5.2 C 0 km/h
1818 29-10-2008 23:51:14 5 C 5.64 g/m*3 5 C 0 km/h
1819 30-10-2008 00:16:14 5 C 5.71 g/m*3 5 C 0 km/h
1820 30-10-2008 00:41:14 4.9 C 5.74 g/m*3 4.9 C 0 km/h
1821 30-10-2008 01:06:14 4.7 C 5.73 g/m*3 4.7 C 0 km/h
1822 30-10-2008 01:31:14 4.8 C 5.83 g/m*3 4.8 C 0 km/h
1823 30-10-2008 01:56:14 4.8 C 5.83 g/m*3 4.8 C 0 km/h
1824 30-10-2008 02:21:14 5 C 5.84 g/m*3 5 C 0 km/h
1825 30-10-2008 02:46:14 4.8 C 5.83 g/m*3 4.8 C 0 km/h
Sensor: Nr:Datum:Temp:Abs-Feuchte:Windchill:Wind:
Aussen-T/F 1826 30-10-2008 03:11:14 4.8 C 5.9 g/m*3 4.8 C 0 km/h
1827 30-10-2008 03:36:14 4.7 C 5.93 g/m*3 4.7 C 0 km/h
1828 30-10-2008 04:01:14 4.7 C 6 g/m*3 4.7 C 0 km/h
1829 30-10-2008 04:26:14 4.5 C 5.98 g/m*3 4.5 C 0 km/h
1830 30-10-2008 04:51:14 4.5 C 5.98 g/m*3 4.5 C 0 km/h
1831 30-10-2008 05:16:14 4.5 C 6.05 g/m*3 4.5 C 0 km/h
1832 30-10-2008 05:41:14 4.5 C 6.05 g/m*3 4.5 C 0 km/h
1833 30-10-2008 06:06:14 4.2 C 5.93 g/m*3 4.2 C 0 km/h
1834 30-10-2008 06:31:14 4.2 C 5.93 g/m*3 4.2 C 0 km/h
1835 30-10-2008 06:56:14 4.1 C 5.89 g/m*3 4.1 C 0 km/h
1836 30-10-2008 07:21:14 3.9 C 5.87 g/m*3 3.9 C 0 km/h
1837 30-10-2008 07:46:14 3.9 C 5.94 g/m*3 3.9 C 0 km/h
1838 30-10-2008 08:11:15 4 C 5.98 g/m*3 4 C 0 km/h
1839 30-10-2008 08:36:15 4.2 C 6.06 g/m*3 4.2 C 0 km/h
1840 30-10-2008 09:01:15 4.6 C 6.22 g/m*3 4.6 C 0 km/h
1841 30-10-2008 09:26:15 4.8 C 6.3 g/m*3 4.8 C 0 km/h
1842 30-10-2008 09:51:15 4.8 C 6.24 g/m*3 4.8 C 0 km/h
1843 30-10-2008 10:16:15 4.7 C 6 g/m*3 4.7 C 0 km/h
1844 30-10-2008 10:41:15 4.7 C 5.93 g/m*3 4.7 C 0 km/h
1845 30-10-2008 11:06:15 5.1 C 6.02 g/m*3 5.1 C 0 km/h
1846 30-10-2008 11:31:15 5.3 C 6.1 g/m*3 5.3 C 0 km/h
1847 30-10-2008 11:56:15 5.8 C 6.23 g/m*3 5.8 C 0 km/h
1848 30-10-2008 12:21:15 5.7 C 6.05 g/m*3 5.7 C 0 km/h
1849 30-10-2008 12:46:15 5.6 C 6.08 g/m*3 5.6 C 0 km/h
1850 30-10-2008 13:11:15 5.7 C 6.12 g/m*3 5.7 C 0 km/h
Sensor: Nr:Datum:Temp:Abs-Feuchte:Windchill:Wind:
Aussen-T/F 1851 30-10-2008 13:36:15 5.3 C 5.82 g/m*3 5.3 C 0 km/h
1852 30-10-2008 14:01:15 5.7 C 6.05 g/m*3 5.7 C 0 km/h
1853 30-10-2008 14:26:15 5.6 C 6.08 g/m*3 5.6 C 0 km/h
1854 30-10-2008 14:51:15 5.4 C 6 g/m*3 5.4 C 0 km/h
1855 30-10-2008 15:16:15 5.8 C 6.16 g/m*3 5.8 C 0 km/h
1856 30-10-2008 15:41:15 5.7 C 6.05 g/m*3 5.7 C 0 km/h
1857 30-10-2008 16:06:15 5.7 C 6.12 g/m*3 5.7 C 0 km/h
1858 30-10-2008 16:31:15 5.7 C 6.19 g/m*3 5.7 C 0 km/h
1859 30-10-2008 16:56:16 5.4 C 6.07 g/m*3 5.4 C 0 km/h
1860 30-10-2008 17:21:16 4.8 C 5.9 g/m*3 4.8 C 0 km/h
1861 30-10-2008 17:46:16 4.7 C 5.86 g/m*3 4.7 C 0 km/h
1862 30-10-2008 18:11:16 4.8 C 5.97 g/m*3 4.8 C 0 km/h
1863 30-10-2008 18:36:16 4.6 C 5.89 g/m*3 4.6 C 0 km/h
1864 30-10-2008 19:01:16 4.6 C 6.02 g/m*3 4.6 C 0 km/h
1865 30-10-2008 19:26:16 4.6 C 6.02 g/m*3 4.6 C 0 km/h
1866 30-10-2008 19:51:16 4.6 C 6.09 g/m*3 4.6 C 0 km/h
1867 30-10-2008 20:16:16 4.4 C 6.01 g/m*3 4.4 C 0 km/h
1868 30-10-2008 20:41:16 4.5 C 6.11 g/m*3 4.5 C 0 km/h
1869 30-10-2008 21:06:16 4.4 C 6.07 g/m*3 4.4 C 0 km/h
1870 30-10-2008 21:31:16 4.3 C 6.03 g/m*3 4.3 C 0 km/h
1871 30-10-2008 21:56:16 4.3 C 6.03 g/m*3 4.3 C 0 km/h
1872 30-10-2008 22:21:16 4.3 C 6.1 g/m*3 4.3 C 0 km/h
1873 30-10-2008 22:46:16 4.3 C 6.1 g/m*3 4.3 C 0 km/h
1874 30-10-2008 23:11:16 4.1 C 6.02 g/m*3 4.1 C 0 km/h
1875 30-10-2008 23:36:16 3.9 C 5.94 g/m*3 3.9 C 0 km/h
Sensor: Nr:Datum:Temp:Abs-Feuchte:Windchill:Wind:
Aussen-T/F 1876 31-10-2008 00:01:16 3.8 C 5.96 g/m*3 3.8 C 0 km/h
1877 31-10-2008 00:26:16 3.7 C 5.92 g/m*3 3.7 C 0 km/h
1878 31-10-2008 00:51:16 3.4 C 5.8 g/m*3 3.4 C 0 km/h
1879 31-10-2008 01:16:16 3.2 C 5.72 g/m*3 3.2 C 0 km/h
1880 31-10-2008 01:41:17 2.8 C 5.57 g/m*3 2.8 C 0 km/h
1881 31-10-2008 02:06:17 2.7 C 5.54 g/m*3 2.7 C 0 km/h
1882 31-10-2008 02:31:17 2.9 C 5.61 g/m*3 2.9 C 0 km/h
1883 31-10-2008 02:56:17 3.2 C 5.72 g/m*3 3.2 C 0 km/h
1884 31-10-2008 03:21:17 3.1 C 5.69 g/m*3 3.1 C 0 km/h
1885 31-10-2008 03:46:17 3 C 5.65 g/m*3 3 C 0 km/h
1886 31-10-2008 04:11:17 3.1 C 5.69 g/m*3 3.1 C 0 km/h
1887 31-10-2008 04:36:17 3.2 C 5.72 g/m*3 3.2 C 0 km/h
1888 31-10-2008 05:01:17 3.3 C 5.76 g/m*3 3.3 C 0 km/h
1889 31-10-2008 05:26:17 3.6 C 5.88 g/m*3 3.6 C 0 km/h
1890 31-10-2008 05:51:17 3.7 C 5.92 g/m*3 3.7 C 0 km/h
1891 31-10-2008 06:16:17 3.8 C 5.96 g/m*3 3.8 C 0 km/h
1892 31-10-2008 06:41:17 4 C 6.04 g/m*3 4 C 0 km/h
1893 31-10-2008 07:06:17 4 C 6.04 g/m*3 4 C 0 km/h
1894 31-10-2008 07:31:17 4 C 6.04 g/m*3 4 C 0 km/h
1895 31-10-2008 07:56:17 4.1 C 6.08 g/m*3 4.1 C 0 km/h
1896 31-10-2008 08:21:17 4.3 C 6.16 g/m*3 4.3 C 0 km/h
1897 31-10-2008 08:46:17 4.5 C 6.24 g/m*3 4.5 C 0 km/h
1898 31-10-2008 09:11:17 4.9 C 6.41 g/m*3 4.9 C 0 km/h
1899 31-10-2008 09:36:17 5.4 C 6.63 g/m*3 5.4 C 0 km/h
1900 31-10-2008 10:01:17 5.8 C 6.81 g/m*3 5.8 C 0 km/h
Sensor: Nr:Datum:Temp:Abs-Feuchte:Windchill:Wind:
Aussen-T/F 1901 31-10-2008 10:26:18 6.3 C 6.74 g/m*3 6.3 C 0 km/h
1902 31-10-2008 10:51:18 6.5 C 6.6 g/m*3 6.5 C 0 km/h
1903 31-10-2008 11:16:18 7.1 C 6.55 g/m*3 7.1 C 0 km/h
1904 31-10-2008 11:41:18 7 C 6.51 g/m*3 7 C 0 km/h
1905 31-10-2008 12:06:18 7 C 6.66 g/m*3 7 C 0 km/h
1906 31-10-2008 12:31:18 7.8 C 7.02 g/m*3 7.8 C 0 km/h
1907 31-10-2008 12:56:18 8 C 6.7 g/m*3 8 C 0 km/h
1908 31-10-2008 13:21:18 8 C 6.7 g/m*3 8 C 0 km/h
1909 31-10-2008 13:46:18 8.8 C 6.7 g/m*3 8.8 C 0 km/h
1910 31-10-2008 14:11:18 9.5 C 6.74 g/m*3 9.5 C 0 km/h
1911 31-10-2008 14:36:18 10 C 6.77 g/m*3 10 C 0 km/h
1912 31-10-2008 15:01:18 11.2 C 6.99 g/m*3 11.2 C 0 km/h
1913 31-10-2008 15:26:18 11.1 C 6.35 g/m*3 11.1 C 0 km/h
1914 31-10-2008 15:51:18 10.2 C 6.38 g/m*3 10.2 C 0 km/h
1915 31-10-2008 16:16:18 9.6 C 6.5 g/m*3 9.6 C 0 km/h
1916 31-10-2008 16:41:18 8.9 C 6.48 g/m*3 8.9 C 0 km/h
1917 31-10-2008 17:06:18 8.4 C 6.53 g/m*3 8.4 C 0 km/h
1918 31-10-2008 17:31:18 8.1 C 6.32 g/m*3 8.1 C 0 km/h
1919 31-10-2008 17:56:18 7.9 C 6.32 g/m*3 7.9 C 0 km/h
1920 31-10-2008 18:21:18 7.3 C 6.32 g/m*3 7.3 C 0 km/h
1921 31-10-2008 18:46:19 6.8 C 6.42 g/m*3 6.8 C 0 km/h
1922 31-10-2008 19:11:19 7 C 6.51 g/m*3 7 C 0 km/h
1923 31-10-2008 19:36:19 6.8 C 6.5 g/m*3 6.8 C 0 km/h
1924 31-10-2008 20:01:19 6.7 C 6.53 g/m*3 6.7 C 0 km/h
1925 31-10-2008 20:26:19 6.5 C 6.52 g/m*3 6.5 C 0 km/h
Sensor: Nr:Datum:Temp:Abs-Feuchte:Windchill:Wind:
Aussen-T/F 1926 31-10-2008 20:51:19 6.4 C 6.56 g/m*3 6.4 C 0 km/h
1927 31-10-2008 21:16:19 6.2 C 6.47 g/m*3 6.2 C 0 km/h
1928 31-10-2008 21:41:19 6.2 C 6.55 g/m*3 6.2 C 0 km/h
1929 31-10-2008 22:06:19 6.2 C 6.55 g/m*3 6.2 C 0 km/h
1930 31-10-2008 22:31:19 6.2 C 6.55 g/m*3 6.2 C 0 km/h
1931 31-10-2008 22:56:19 6.3 C 6.66 g/m*3 6.3 C 0 km/h
1932 31-10-2008 23:21:19 6.5 C 6.75 g/m*3 6.5 C 0 km/h
1933 31-10-2008 23:46:19 6.5 C 6.67 g/m*3 6.5 C 0 km/h
1934 01-11-2008 00:11:19 6.4 C 6.63 g/m*3 6.4 C 0 km/h
1935 01-11-2008 00:36:19 6.3 C 6.66 g/m*3 6.3 C 0 km/h
1936 01-11-2008 01:01:19 6.4 C 6.71 g/m*3 6.4 C 0 km/h
1937 01-11-2008 01:26:19 6.4 C 6.78 g/m*3 6.4 C 0 km/h
1938 01-11-2008 01:51:19 6.4 C 6.85 g/m*3 6.4 C 0 km/h
1939 01-11-2008 02:16:19 6.3 C 6.81 g/m*3 6.3 C 0 km/h
1940 01-11-2008 02:41:19 6.2 C 6.84 g/m*3 6.2 C 0 km/h
1941 01-11-2008 03:06:19 6.2 C 6.91 g/m*3 6.2 C 0 km/h
1942 01-11-2008 03:31:20 6 C 6.82 g/m*3 6 C 0 km/h
1943 01-11-2008 03:56:20 5.9 C 6.85 g/m*3 5.9 C 0 km/h
1944 01-11-2008 04:21:20 6 C 6.9 g/m*3 6 C 0 km/h
1945 01-11-2008 04:46:20 5.9 C 6.85 g/m*3 5.9 C 0 km/h
1946 01-11-2008 05:11:20 6 C 6.9 g/m*3 6 C 0 km/h
1947 01-11-2008 05:36:20 6 C 6.9 g/m*3 6 C 0 km/h
1948 01-11-2008 06:01:20 5.9 C 6.85 g/m*3 5.9 C 0 km/h
1949 01-11-2008 06:26:20 5.9 C 6.85 g/m*3 5.9 C 0 km/h
1950 01-11-2008 06:51:20 5.7 C 6.76 g/m*3 5.7 C 0 km/h
Sensor: Nr:Datum:Temp:Abs-Feuchte:Windchill:Wind:
Aussen-T/F 1951 01-11-2008 07:16:20 5.5 C 6.67 g/m*3 5.5 C 0 km/h
1952 01-11-2008 07:41:20 5.3 C 6.58 g/m*3 5.3 C 0 km/h
1953 01-11-2008 08:06:20 5.6 C 6.72 g/m*3 5.6 C 0 km/h
1954 01-11-2008 08:31:20 5.9 C 6.85 g/m*3 5.9 C 0 km/h
1955 01-11-2008 08:56:20 6.5 C 7.12 g/m*3 6.5 C 0 km/h
1956 01-11-2008 09:21:20 7.1 C 7.41 g/m*3 7.1 C 0 km/h
1957 01-11-2008 09:46:20 7.4 C 7.55 g/m*3 7.4 C 0 km/h
1958 01-11-2008 10:11:20 7.9 C 7.56 g/m*3 7.9 C 0 km/h
1959 01-11-2008 10:36:20 8.2 C 7.2 g/m*3 8.2 C 0 km/h
1960 01-11-2008 11:01:20 8.5 C 7.09 g/m*3 8.5 C 0 km/h
1961 01-11-2008 11:26:20 8.7 C 7.01 g/m*3 8.7 C 0 km/h
1962 01-11-2008 11:51:20 9.3 C 6.74 g/m*3 9.3 C 0 km/h
1963 01-11-2008 12:16:21 9.6 C 6.78 g/m*3 9.6 C 0 km/h
1964 01-11-2008 12:41:21 10 C 6.58 g/m*3 10 C 0 km/h
1965 01-11-2008 13:06:21 10 C 6.58 g/m*3 10 C 0 km/h
1966 01-11-2008 13:31:21 10.3 C 6.7 g/m*3 10.3 C 0 km/h
1967 01-11-2008 13:56:21 10.3 C 6.8 g/m*3 10.3 C 0 km/h
1968 01-11-2008 14:21:21 10.4 C 6.84 g/m*3 10.4 C 0 km/h
1969 01-11-2008 14:46:21 10.5 C 6.89 g/m*3 10.5 C 0 km/h
1970 01-11-2008 15:11:21 10.8 C 6.92 g/m*3 10.8 C 0 km/h
1971 01-11-2008 15:36:21 10.5 C 7.18 g/m*3 10.5 C 0 km/h
1972 01-11-2008 16:01:21 10.1 C 7.28 g/m*3 10.1 C 0 km/h
1973 01-11-2008 16:26:21 9.8 C 7.52 g/m*3 9.8 C 0 km/h
1974 01-11-2008 16:51:21 9.5 C 7.55 g/m*3 9.5 C 0 km/h
1975 01-11-2008 17:16:21 9.4 C 7.6 g/m*3 9.4 C 0 km/h
Sensor: Nr:Datum:Temp:Abs-Feuchte:Windchill:Wind:
Aussen-T/F 1976 01-11-2008 17:41:21 9.5 C 7.74 g/m*3 9.5 C 0 km/h
1977 01-11-2008 18:06:21 9.4 C 7.69 g/m*3 9.4 C 0 km/h
1978 01-11-2008 18:31:21 9.2 C 7.59 g/m*3 9.2 C 0 km/h
1979 01-11-2008 18:56:21 9.2 C 7.68 g/m*3 9.2 C 0 km/h
1980 01-11-2008 19:21:21 9.2 C 7.68 g/m*3 9.2 C 0 km/h
1981 01-11-2008 19:46:21 9.2 C 7.68 g/m*3 9.2 C 0 km/h
1982 01-11-2008 20:11:21 9 C 7.41 g/m*3 9 C 0 km/h
1983 01-11-2008 20:36:22 8.9 C 7.53 g/m*3 8.9 C 0 km/h
1984 01-11-2008 21:01:22 8.7 C 7.52 g/m*3 8.7 C 0 km/h
1985 01-11-2008 21:26:22 8.4 C 7.38 g/m*3 8.4 C 0 km/h
1986 01-11-2008 21:51:22 8.3 C 7.42 g/m*3 8.3 C 0 km/h
1987 01-11-2008 22:16:22 8.6 C 7.65 g/m*3 8.6 C 0 km/h
1988 01-11-2008 22:41:22 8.6 C 7.73 g/m*3 8.6 C 0 km/h
1989 01-11-2008 23:06:22 8.5 C 7.68 g/m*3 8.5 C 0 km/h
1990 01-11-2008 23:31:22 8.4 C 7.63 g/m*3 8.4 C 0 km/h
1991 01-11-2008 23:56:22 8.4 C 7.72 g/m*3 8.4 C 0 km/h
1992 02-11-2008 00:21:22 8.5 C 7.77 g/m*3 8.5 C 0 km/h
1993 02-11-2008 00:46:22 8.5 C 7.85 g/m*3 8.5 C 0 km/h
1994 02-11-2008 01:11:22 9.6 C 7.79 g/m*3 9.6 C 0 km/h
1995 02-11-2008 01:36:22 9.8 C 7.42 g/m*3 9.8 C 0 km/h
1996 02-11-2008 02:01:22 9.3 C 7.46 g/m*3 9.3 C 0 km/h
1997 02-11-2008 02:26:22 9.4 C 7.51 g/m*3 9.4 C 0 km/h
1998 02-11-2008 02:51:22 9 C 7.41 g/m*3 9 C 0 km/h
1999 02-11-2008 03:16:22 8.9 C 7.53 g/m*3 8.9 C 0 km/h
2000 02-11-2008 03:41:22 8.5 C 7.43 g/m*3 8.5 C 0 km/h
Sensor: Nr:Datum:Temp:Abs-Feuchte:Windchill:Wind:
Aussen-T/F 2001 02-11-2008 04:06:22 8.3 C 7.5 g/m*3 8.3 C 0 km/h
2002 02-11-2008 04:31:22 8.1 C 7.49 g/m*3 8.1 C 0 km/h
2003 02-11-2008 04:56:22 7.9 C 7.47 g/m*3 7.9 C 0 km/h
2004 02-11-2008 05:21:23 7.6 C 7.41 g/m*3 7.6 C 0 km/h
2005 02-11-2008 05:46:23 7.6 C 7.41 g/m*3 7.6 C 0 km/h
2006 02-11-2008 06:11:23 7.4 C 7.4 g/m*3 7.4 C 0 km/h
2007 02-11-2008 06:36:23 7.5 C 7.52 g/m*3 7.5 C 0 km/h
2008 02-11-2008 07:01:23 7.4 C 7.48 g/m*3 7.4 C 0 km/h
2009 02-11-2008 07:26:23 7.3 C 7.43 g/m*3 7.3 C 0 km/h
2010 02-11-2008 07:51:23 7.1 C 7.33 g/m*3 7.1 C 0 km/h
2011 02-11-2008 08:16:23 7.3 C 7.43 g/m*3 7.3 C 0 km/h
2012 02-11-2008 08:41:23 7.6 C 7.65 g/m*3 7.6 C 0 km/h
2013 02-11-2008 09:06:23 7.6 C 7.65 g/m*3 7.6 C 0 km/h
2014 02-11-2008 09:31:23 8.1 C 7.82 g/m*3 8.1 C 0 km/h
2015 02-11-2008 09:56:23 8.7 C 8.13 g/m*3 8.7 C 0 km/h
2016 02-11-2008 10:21:23 9.5 C 8.47 g/m*3 9.5 C 0 km/h
2017 02-11-2008 10:46:23 10.1 C 8.42 g/m*3 10.1 C 0 km/h
2018 02-11-2008 11:11:23 10.8 C 8.2 g/m*3 10.8 C 0 km/h
2019 02-11-2008 11:36:23 11.5 C 8.06 g/m*3 11.5 C 0 km/h
2020 02-11-2008 12:01:23 12.5 C 8.25 g/m*3 12.5 C 0 km/h
2021 02-11-2008 12:26:23 13.4 C 8.02 g/m*3 13.4 C 0 km/h
2022 02-11-2008 12:51:23 13.5 C 7.84 g/m*3 13.5 C 0 km/h
2023 02-11-2008 13:16:23 13.8 C 7.74 g/m*3 13.8 C 0 km/h
2024 02-11-2008 13:41:24 14.1 C 7.89 g/m*3 14.1 C 0 km/h
2025 02-11-2008 14:06:24 15.4 C 7.88 g/m*3 15.4 C 0 km/h
Sensor: Nr:Datum:Temp:Abs-Feuchte:Windchill:Wind:
Aussen-T/F 2026 02-11-2008 14:31:24 14.8 C 7.73 g/m*3 14.8 C 0 km/h
2027 02-11-2008 14:56:24 14.4 C 7.91 g/m*3 14.4 C 0 km/h
2028 02-11-2008 15:21:24 14.4 C 7.91 g/m*3 14.4 C 0 km/h
2029 02-11-2008 15:46:24 13.8 C 8.1 g/m*3 13.8 C 0 km/h
2030 02-11-2008 16:11:24 13.5 C 8.19 g/m*3 13.5 C 0 km/h
2031 02-11-2008 16:36:24 12.6 C 8.19 g/m*3 12.6 C 0 km/h
2032 02-11-2008 17:01:24 11.8 C 8.1 g/m*3 11.8 C 0 km/h
2033 02-11-2008 17:26:24 11.2 C 8.01 g/m*3 11.2 C 0 km/h
2034 02-11-2008 17:51:24 10.6 C 8 g/m*3 10.6 C 0 km/h
2035 02-11-2008 18:16:24 10.7 C 8.15 g/m*3 10.7 C 0 km/h
2036 02-11-2008 18:41:24 10.1 C 7.85 g/m*3 10.1 C 0 km/h
2037 02-11-2008 19:06:24 9.9 C 7.94 g/m*3 9.9 C 0 km/h
2038 02-11-2008 19:31:24 9.8 C 7.89 g/m*3 9.8 C 0 km/h
2039 02-11-2008 19:56:24 9.6 C 7.88 g/m*3 9.6 C 0 km/h
2040 02-11-2008 20:21:24 9.4 C 7.87 g/m*3 9.4 C 0 km/h
2041 02-11-2008 20:46:24 9.2 C 7.86 g/m*3 9.2 C 0 km/h
2042 02-11-2008 21:11:24 9.1 C 7.81 g/m*3 9.1 C 0 km/h
2043 02-11-2008 21:36:24 9.1 C 7.9 g/m*3 9.1 C 0 km/h
2044 02-11-2008 22:01:24 9.2 C 7.95 g/m*3 9.2 C 0 km/h
2045 02-11-2008 22:26:25 9 C 7.85 g/m*3 9 C 0 km/h
2046 02-11-2008 22:51:25 8.7 C 7.7 g/m*3 8.7 C 0 km/h
2047 02-11-2008 23:16:25 8.6 C 7.73 g/m*3 8.6 C 0 km/h
2048 02-11-2008 23:41:25 8.2 C 7.62 g/m*3 8.2 C 0 km/h
2049 03-11-2008 00:06:25 8.1 C 7.57 g/m*3 8.1 C 0 km/h
2050 03-11-2008 00:31:25 8 C 7.52 g/m*3 8 C 0 km/h
Sensor: Nr:Datum:Temp:Abs-Feuchte:Windchill:Wind:
Aussen-T/F 2051 03-11-2008 00:56:25 7.7 C 7.46 g/m*3 7.7 C 0 km/h
2052 03-11-2008 01:21:25 7.8 C 7.59 g/m*3 7.8 C 0 km/h
2053 03-11-2008 01:46:25 8 C 7.69 g/m*3 8 C 0 km/h
2054 03-11-2008 02:11:25 8 C 7.69 g/m*3 8 C 0 km/h
2055 03-11-2008 02:36:25 8 C 7.69 g/m*3 8 C 0 km/h
2056 03-11-2008 03:01:25 8.5 C 8.03 g/m*3 8.5 C 0 km/h
2057 03-11-2008 03:26:25 8.9 C 8.23 g/m*3 8.9 C 0 km/h
2058 03-11-2008 03:51:25 9 C 8.11 g/m*3 9 C 0 km/h
2059 03-11-2008 04:16:25 9.1 C 8.07 g/m*3 9.1 C 0 km/h
2060 03-11-2008 04:41:25 9.1 C 7.99 g/m*3 9.1 C 0 km/h
2061 03-11-2008 05:06:25 9.2 C 7.95 g/m*3 9.2 C 0 km/h
2062 03-11-2008 05:31:25 9.2 C 7.86 g/m*3 9.2 C 0 km/h
2063 03-11-2008 05:56:25 9.1 C 7.81 g/m*3 9.1 C 0 km/h
2064 03-11-2008 06:21:25 9.2 C 7.86 g/m*3 9.2 C 0 km/h
2065 03-11-2008 06:46:25 9.2 C 7.77 g/m*3 9.2 C 0 km/h
2066 03-11-2008 07:11:26 9.2 C 7.77 g/m*3 9.2 C 0 km/h
2067 03-11-2008 07:36:26 9.2 C 7.77 g/m*3 9.2 C 0 km/h
2068 03-11-2008 08:01:26 9.4 C 7.87 g/m*3 9.4 C 0 km/h
2069 03-11-2008 08:26:26 9.5 C 7.92 g/m*3 9.5 C 0 km/h
2070 03-11-2008 08:51:26 9.8 C 8.07 g/m*3 9.8 C 0 km/h
2071 03-11-2008 09:16:26 10.1 C 7.94 g/m*3 10.1 C 0 km/h
2072 03-11-2008 09:41:26 10.2 C 7.9 g/m*3 10.2 C 0 km/h
2073 03-11-2008 10:06:26 10.4 C 7.81 g/m*3 10.4 C 0 km/h
2074 03-11-2008 10:31:26 10.5 C 7.76 g/m*3 10.5 C 0 km/h
2075 03-11-2008 10:56:26 11.1 C 7.96 g/m*3 11.1 C 0 km/h
Sensor: Nr:Datum:Temp:Abs-Feuchte:Windchill:Wind:
Aussen-T/F 2076 03-11-2008 11:21:26 11.4 C 7.8 g/m*3 11.4 C 0 km/h
2077 03-11-2008 11:46:26 11.7 C 7.84 g/m*3 11.7 C 0 km/h
2078 03-11-2008 12:11:26 12.7 C 8.24 g/m*3 12.7 C 0 km/h
2079 03-11-2008 12:36:26 13.1 C 7.99 g/m*3 13.1 C 0 km/h
2080 03-11-2008 13:01:26 13.4 C 7.9 g/m*3 13.4 C 0 km/h
2081 03-11-2008 13:26:26 13.4 C 7.9 g/m*3 13.4 C 0 km/h
2082 03-11-2008 13:51:26 13.5 C 7.72 g/m*3 13.5 C 0 km/h
2083 03-11-2008 14:16:26 13.6 C 7.77 g/m*3 13.6 C 0 km/h
2084 03-11-2008 14:41:26 14.4 C 7.79 g/m*3 14.4 C 0 km/h
2085 03-11-2008 15:06:27 14 C 7.84 g/m*3 14 C 0 km/h
2086 03-11-2008 15:31:27 13.3 C 8.09 g/m*3 13.3 C 0 km/h
2087 03-11-2008 15:56:27 13.2 C 8.27 g/m*3 13.2 C 0 km/h
2088 03-11-2008 16:21:27 12.7 C 8.24 g/m*3 12.7 C 0 km/h
2089 03-11-2008 16:46:27 12.3 C 8.25 g/m*3 12.3 C 0 km/h
2090 03-11-2008 17:11:27 11.5 C 8.06 g/m*3 11.5 C 0 km/h
2091 03-11-2008 17:36:27 10.8 C 8.01 g/m*3 10.8 C 0 km/h
2092 03-11-2008 18:01:27 10.1 C 7.85 g/m*3 10.1 C 0 km/h
2093 03-11-2008 18:26:27 9.7 C 7.93 g/m*3 9.7 C 0 km/h
2094 03-11-2008 18:51:27 9.3 C 7.82 g/m*3 9.3 C 0 km/h
2095 03-11-2008 19:16:27 9 C 7.76 g/m*3 9 C 0 km/h
2096 03-11-2008 19:41:27 8.5 C 7.6 g/m*3 8.5 C 0 km/h
2097 03-11-2008 20:06:27 8.4 C 7.63 g/m*3 8.4 C 0 km/h
2098 03-11-2008 20:31:27 8.1 C 7.49 g/m*3 8.1 C 0 km/h
2099 03-11-2008 20:56:27 7.9 C 7.56 g/m*3 7.9 C 0 km/h
2100 03-11-2008 21:21:27 7.5 C 7.36 g/m*3 7.5 C 0 km/h
Sensor: Nr:Datum:Temp:Abs-Feuchte:Windchill:Wind:
Aussen-T/F 2101 03-11-2008 21:46:27 7.1 C 7.18 g/m*3 7.1 C 0 km/h
2102 03-11-2008 22:11:27 6.8 C 7.11 g/m*3 6.8 C 0 km/h
2103 03-11-2008 22:36:27 6.6 C 7.02 g/m*3 6.6 C 0 km/h
2104 03-11-2008 23:01:27 6.4 C 6.93 g/m*3 6.4 C 0 km/h
2105 03-11-2008 23:26:28 6.7 C 7.14 g/m*3 6.7 C 0 km/h
2106 03-11-2008 23:51:28 7.1 C 7.33 g/m*3 7.1 C 0 km/h
2107 04-11-2008 00:16:28 6.9 C 7.31 g/m*3 6.9 C 0 km/h
2108 04-11-2008 00:41:28 6.7 C 7.22 g/m*3 6.7 C 0 km/h
2109 04-11-2008 01:06:28 6.8 C 7.27 g/m*3 6.8 C 0 km/h
2110 04-11-2008 01:31:28 6.8 C 7.27 g/m*3 6.8 C 0 km/h
2111 04-11-2008 01:56:28 6.6 C 7.17 g/m*3 6.6 C 0 km/h
2112 04-11-2008 02:21:28 6.5 C 7.12 g/m*3 6.5 C 0 km/h
2113 04-11-2008 02:46:28 6.7 C 7.22 g/m*3 6.7 C 0 km/h
2114 04-11-2008 03:11:28 6.8 C 7.27 g/m*3 6.8 C 0 km/h
2115 04-11-2008 03:36:28 6.8 C 7.27 g/m*3 6.8 C 0 km/h
2116 04-11-2008 04:01:28 6.8 C 7.27 g/m*3 6.8 C 0 km/h
2117 04-11-2008 04:26:28 6.7 C 7.22 g/m*3 6.7 C 0 km/h
2118 04-11-2008 04:51:28 6.8 C 7.27 g/m*3 6.8 C 0 km/h
2119 04-11-2008 05:16:28 6.4 C 7.08 g/m*3 6.4 C 0 km/h
2120 04-11-2008 05:41:28 6.3 C 7.03 g/m*3 6.3 C 0 km/h
2121 04-11-2008 06:06:28 6.2 C 6.99 g/m*3 6.2 C 0 km/h
2122 04-11-2008 06:31:28 6.3 C 7.03 g/m*3 6.3 C 0 km/h
2123 04-11-2008 06:56:28 6.4 C 7.08 g/m*3 6.4 C 0 km/h
2124 04-11-2008 07:21:29 6.4 C 7.08 g/m*3 6.4 C 0 km/h
2125 04-11-2008 07:46:29 6.5 C 7.12 g/m*3 6.5 C 0 km/h
Sensor: Nr:Datum:Temp:Abs-Feuchte:Windchill:Wind:
Aussen-T/F 2126 04-11-2008 08:11:29 6.6 C 7.17 g/m*3 6.6 C 0 km/h
2127 04-11-2008 08:36:29 6.6 C 7.17 g/m*3 6.6 C 0 km/h
2128 04-11-2008 09:01:29 6.9 C 7.31 g/m*3 6.9 C 0 km/h
2129 04-11-2008 09:26:29 7.4 C 7.55 g/m*3 7.4 C 0 km/h
2130 04-11-2008 09:51:29 7.7 C 7.7 g/m*3 7.7 C 0 km/h
2131 04-11-2008 10:16:29 8.1 C 7.9 g/m*3 8.1 C 0 km/h
2132 04-11-2008 10:41:29 7.8 C 7.75 g/m*3 7.8 C 0 km/h
2133 04-11-2008 11:06:29 8.5 C 8.03 g/m*3 8.5 C 0 km/h
2134 04-11-2008 11:31:29 9 C 8.11 g/m*3 9 C 0 km/h
2135 04-11-2008 11:56:29 9 C 7.93 g/m*3 9 C 0 km/h
2136 04-11-2008 12:21:29 9.1 C 7.81 g/m*3 9.1 C 0 km/h
2137 04-11-2008 12:46:29 9.7 C 8.11 g/m*3 9.7 C 0 km/h
2138 04-11-2008 13:11:29 12 C 8.85 g/m*3 12 C 0 km/h
2139 04-11-2008 13:36:29 13.7 C 8.05 g/m*3 13.7 C 0 km/h
2140 04-11-2008 14:01:29 14.5 C 8.46 g/m*3 14.5 C 0 km/h
2141 04-11-2008 14:26:29 14.4 C 8.41 g/m*3 14.4 C 0 km/h
2142 04-11-2008 14:51:29 14.4 C 8.41 g/m*3 14.4 C 0 km/h
2143 04-11-2008 15:16:30 13.9 C 8.51 g/m*3 13.9 C 0 km/h
2144 04-11-2008 15:41:30 13.4 C 8.49 g/m*3 13.4 C 0 km/h
2145 04-11-2008 16:06:30 12.8 C 8.4 g/m*3 12.8 C 0 km/h
2146 04-11-2008 16:31:30 12.1 C 8.36 g/m*3 12.1 C 0 km/h
2147 04-11-2008 16:56:30 11.8 C 8.21 g/m*3 11.8 C 0 km/h
2148 04-11-2008 17:21:30 11.9 C 8.26 g/m*3 11.9 C 0 km/h
2149 04-11-2008 17:46:30 11.1 C 8.16 g/m*3 11.1 C 0 km/h
2150 04-11-2008 18:11:30 10.9 C 8.26 g/m*3 10.9 C 0 km/h
Sensor: Nr:Datum:Temp:Abs-Feuchte:Windchill:Wind:
Aussen-T/F 2151 04-11-2008 18:36:30 10.8 C 8.4 g/m*3 10.8 C 0 km/h
2152 04-11-2008 19:01:30 10.6 C 8.39 g/m*3 10.6 C 0 km/h
2153 04-11-2008 19:26:30 10.4 C 8.29 g/m*3 10.4 C 0 km/h
2154 04-11-2008 19:51:30 10.2 C 8.28 g/m*3 10.2 C 0 km/h
2155 04-11-2008 20:16:30 10.1 C 8.32 g/m*3 10.1 C 0 km/h
2156 04-11-2008 20:41:30 9.7 C 8.2 g/m*3 9.7 C 0 km/h
2157 04-11-2008 21:06:30 9.3 C 8.09 g/m*3 9.3 C 0 km/h
2158 04-11-2008 21:31:30 9.1 C 7.99 g/m*3 9.1 C 0 km/h
2159 04-11-2008 21:56:30 9.1 C 8.07 g/m*3 9.1 C 0 km/h
2160 04-11-2008 22:21:30 9.1 C 8.16 g/m*3 9.1 C 0 km/h
2161 04-11-2008 22:46:30 8.7 C 8.04 g/m*3 8.7 C 0 km/h
2162 04-11-2008 23:11:31 8.4 C 7.89 g/m*3 8.4 C 0 km/h
2163 04-11-2008 23:36:31 9 C 8.2 g/m*3 9 C 0 km/h
2164 05-11-2008 00:01:31 8.7 C 8.04 g/m*3 8.7 C 0 km/h
2165 05-11-2008 00:26:31 8.7 C 8.04 g/m*3 8.7 C 0 km/h
2166 05-11-2008 00:51:31 8.6 C 7.99 g/m*3 8.6 C 0 km/h
2167 05-11-2008 01:16:31 8.7 C 8.04 g/m*3 8.7 C 0 km/h
2168 05-11-2008 01:41:31 8.8 C 7.92 g/m*3 8.8 C 0 km/h
2169 05-11-2008 02:06:31 8.7 C 7.7 g/m*3 8.7 C 0 km/h
2170 05-11-2008 02:31:31 8.5 C 7.6 g/m*3 8.5 C 0 km/h
2171 05-11-2008 02:56:31 8.4 C 7.55 g/m*3 8.4 C 0 km/h
2172 05-11-2008 03:21:31 8.3 C 7.5 g/m*3 8.3 C 0 km/h
2173 05-11-2008 03:46:31 8.4 C 7.55 g/m*3 8.4 C 0 km/h
2174 05-11-2008 04:11:31 8.2 C 7.37 g/m*3 8.2 C 0 km/h
2175 05-11-2008 04:36:31 7.9 C 7.39 g/m*3 7.9 C 0 km/h
Sensor: Nr:Datum:Temp:Abs-Feuchte:Windchill:Wind:
Aussen-T/F 2176 05-11-2008 05:01:31 8.2 C 7.45 g/m*3 8.2 C 0 km/h
2177 05-11-2008 05:26:31 8.4 C 7.55 g/m*3 8.4 C 0 km/h
2178 05-11-2008 05:51:31 8.4 C 7.55 g/m*3 8.4 C 0 km/h
2179 05-11-2008 06:16:31 8.4 C 7.38 g/m*3 8.4 C 0 km/h
2180 05-11-2008 06:41:31 8.5 C 7.34 g/m*3 8.5 C 0 km/h
2181 05-11-2008 07:06:31 8.4 C 7.21 g/m*3 8.4 C 0 km/h
2182 05-11-2008 07:31:32 8.4 C 7.21 g/m*3 8.4 C 0 km/h
2183 05-11-2008 07:56:32 8.5 C 7.26 g/m*3 8.5 C 0 km/h
2184 05-11-2008 08:21:32 8.7 C 7.35 g/m*3 8.7 C 0 km/h
2185 05-11-2008 08:46:32 8.9 C 7.45 g/m*3 8.9 C 0 km/h
2186 05-11-2008 09:11:32 9.2 C 7.5 g/m*3 9.2 C 0 km/h
2187 05-11-2008 09:36:32 9.8 C 7.79 g/m*3 9.8 C 0 km/h
2188 05-11-2008 10:01:32 10 C 7.42 g/m*3 10 C 0 km/h
2189 05-11-2008 10:26:32 10.7 C 7.46 g/m*3 10.7 C 0 km/h
2190 05-11-2008 10:51:32 10.7 C 7.46 g/m*3 10.7 C 0 km/h
2191 05-11-2008 11:16:32 10.9 C 7.46 g/m*3 10.9 C 0 km/h
2192 05-11-2008 11:41:32 11 C 7.51 g/m*3 11 C 0 km/h
2193 05-11-2008 12:06:32 11.1 C 7.45 g/m*3 11.1 C 0 km/h
2194 05-11-2008 12:31:32 11 C 7.41 g/m*3 11 C 0 km/h
2195 05-11-2008 12:56:32 10.8 C 7.51 g/m*3 10.8 C 0 km/h
2196 05-11-2008 13:21:32 11 C 7.61 g/m*3 11 C 0 km/h
2197 05-11-2008 13:46:32 11.2 C 7.6 g/m*3 11.2 C 0 km/h
2198 05-11-2008 14:11:32 11.2 C 7.7 g/m*3 11.2 C 0 km/h
2199 05-11-2008 14:36:32 11.4 C 7.8 g/m*3 11.4 C 0 km/h
2200 05-11-2008 15:01:32 11.5 C 7.64 g/m*3 11.5 C 0 km/h
Sensor: Nr:Datum:Temp:Abs-Feuchte:Windchill:Wind:
Aussen-T/F 2201 05-11-2008 15:26:33 11.5 C 7.64 g/m*3 11.5 C 0 km/h
2202 05-11-2008 15:51:33 11.4 C 7.7 g/m*3 11.4 C 0 km/h
2203 05-11-2008 16:16:33 11.1 C 7.66 g/m*3 11.1 C 0 km/h
2204 05-11-2008 16:41:33 10.9 C 7.76 g/m*3 10.9 C 0 km/h
2205 05-11-2008 17:06:33 10.7 C 7.66 g/m*3 10.7 C 0 km/h
2206 05-11-2008 17:31:33 10.5 C 7.66 g/m*3 10.5 C 0 km/h
2207 05-11-2008 17:56:33 10.5 C 7.76 g/m*3 10.5 C 0 km/h
2208 05-11-2008 18:21:33 10.4 C 7.81 g/m*3 10.4 C 0 km/h
2209 05-11-2008 18:46:33 10.4 C 7.81 g/m*3 10.4 C 0 km/h
2210 05-11-2008 19:11:33 10.4 C 7.9 g/m*3 10.4 C 0 km/h
2211 05-11-2008 19:36:33 10.3 C 7.85 g/m*3 10.3 C 0 km/h
2212 05-11-2008 20:01:33 10.3 C 7.85 g/m*3 10.3 C 0 km/h
2213 05-11-2008 20:26:33 10.3 C 7.95 g/m*3 10.3 C 0 km/h
2214 05-11-2008 20:51:33 10.2 C 7.9 g/m*3 10.2 C 0 km/h
2215 05-11-2008 21:16:33 10.2 C 7.9 g/m*3 10.2 C 0 km/h
2216 05-11-2008 21:41:33 10.2 C 7.9 g/m*3 10.2 C 0 km/h
2217 05-11-2008 22:06:33 10.2 C 7.9 g/m*3 10.2 C 0 km/h
2218 05-11-2008 22:31:33 10.2 C 7.99 g/m*3 10.2 C 0 km/h
2219 05-11-2008 22:56:33 10.2 C 7.99 g/m*3 10.2 C 0 km/h
2220 05-11-2008 23:21:34 10.2 C 7.99 g/m*3 10.2 C 0 km/h
2221 05-11-2008 23:46:34 10 C 7.99 g/m*3 10 C 0 km/h
2222 06-11-2008 00:11:34 10 C 7.99 g/m*3 10 C 0 km/h
2223 06-11-2008 00:36:34 10 C 7.99 g/m*3 10 C 0 km/h
2224 06-11-2008 01:01:34 10 C 7.99 g/m*3 10 C 0 km/h
2225 06-11-2008 01:26:34 9.9 C 8.12 g/m*3 9.9 C 0 km/h
Sensor: Nr:Datum:Temp:Abs-Feuchte:Windchill:Wind:
Aussen-T/F 2226 06-11-2008 01:51:34 9.8 C 8.07 g/m*3 9.8 C 0 km/h
2227 06-11-2008 02:16:34 9.8 C 7.98 g/m*3 9.8 C 0 km/h
2228 06-11-2008 02:41:34 9.7 C 7.84 g/m*3 9.7 C 0 km/h
2229 06-11-2008 03:06:34 9.5 C 7.74 g/m*3 9.5 C 0 km/h
2230 06-11-2008 03:31:34 9.3 C 7.73 g/m*3 9.3 C 0 km/h
2231 06-11-2008 03:56:34 8.9 C 7.62 g/m*3 8.9 C 0 km/h
2232 06-11-2008 04:21:34 8.5 C 7.43 g/m*3 8.5 C 0 km/h
2233 06-11-2008 04:46:34 8.6 C 7.48 g/m*3 8.6 C 0 km/h
2234 06-11-2008 05:11:34 8.9 C 7.71 g/m*3 8.9 C 0 km/h
2235 06-11-2008 05:36:34 9 C 7.58 g/m*3 9 C 0 km/h
2236 06-11-2008 06:01:34 9 C 7.58 g/m*3 9 C 0 km/h
2237 06-11-2008 06:26:34 9.3 C 7.64 g/m*3 9.3 C 0 km/h
2238 06-11-2008 06:51:34 9.3 C 7.46 g/m*3 9.3 C 0 km/h
2239 06-11-2008 07:16:34 9.3 C 7.46 g/m*3 9.3 C 0 km/h
2240 06-11-2008 07:41:35 9.1 C 7.36 g/m*3 9.1 C 0 km/h
2241 06-11-2008 08:06:35 9.4 C 7.51 g/m*3 9.4 C 0 km/h
2242 06-11-2008 08:31:35 9.7 C 7.56 g/m*3 9.7 C 0 km/h
2243 06-11-2008 08:56:35 10 C 7.42 g/m*3 10 C 0 km/h
2244 06-11-2008 09:21:35 10.3 C 7.47 g/m*3 10.3 C 0 km/h
2245 06-11-2008 09:46:35 10.6 C 7.12 g/m*3 10.6 C 0 km/h
2246 06-11-2008 10:11:35 11 C 7.01 g/m*3 11 C 0 km/h
2247 06-11-2008 10:36:35 11.3 C 7.04 g/m*3 11.3 C 0 km/h
2248 06-11-2008 11:01:35 12.1 C 7.18 g/m*3 12.1 C 0 km/h
2249 06-11-2008 11:26:35 12.4 C 7.1 g/m*3 12.4 C 0 km/h
2250 06-11-2008 11:51:35 12.2 C 6.91 g/m*3 12.2 C 0 km/h
Sensor: Nr:Datum:Temp:Abs-Feuchte:Windchill:Wind:
Aussen-T/F 2251 06-11-2008 12:16:35 12.2 C 6.91 g/m*3 12.2 C 0 km/h
2252 06-11-2008 12:41:35 12.1 C 6.97 g/m*3 12.1 C 0 km/h
2253 06-11-2008 13:06:35 12.6 C 7.08 g/m*3 12.6 C 0 km/h
2254 06-11-2008 13:31:35 12.7 C 7.01 g/m*3 12.7 C 0 km/h
2255 06-11-2008 13:56:35 12.4 C 7.1 g/m*3 12.4 C 0 km/h
2256 06-11-2008 14:21:35 13 C 7.14 g/m*3 13 C 0 km/h
2257 06-11-2008 14:46:35 13.1 C 6.96 g/m*3 13.1 C 0 km/h
2258 06-11-2008 15:11:35 13 C 6.92 g/m*3 13 C 0 km/h
2259 06-11-2008 15:36:36 12.6 C 6.97 g/m*3 12.6 C 0 km/h
2260 06-11-2008 16:01:36 12.4 C 6.99 g/m*3 12.4 C 0 km/h
2261 06-11-2008 16:26:36 11.8 C 6.95 g/m*3 11.8 C 0 km/h
2262 06-11-2008 16:51:36 11.4 C 6.98 g/m*3 11.4 C 0 km/h
2263 06-11-2008 17:16:36 11.1 C 6.95 g/m*3 11.1 C 0 km/h
2264 06-11-2008 17:41:36 10.9 C 7.06 g/m*3 10.9 C 0 km/h
2265 06-11-2008 18:06:36 10.1 C 6.9 g/m*3 10.1 C 0 km/h
2266 06-11-2008 18:31:36 10.1 C 7 g/m*3 10.1 C 0 km/h
2267 06-11-2008 18:56:36 10.2 C 7.04 g/m*3 10.2 C 0 km/h
2268 06-11-2008 19:21:36 10.4 C 7.13 g/m*3 10.4 C 0 km/h
2269 06-11-2008 19:46:36 10.3 C 7.09 g/m*3 10.3 C 0 km/h
2270 06-11-2008 20:11:36 10.2 C 7.14 g/m*3 10.2 C 0 km/h
2271 06-11-2008 20:36:36 10.3 C 7.28 g/m*3 10.3 C 0 km/h
2272 06-11-2008 21:01:36 10.2 C 7.23 g/m*3 10.2 C 0 km/h
2273 06-11-2008 21:26:36 10.4 C 7.23 g/m*3 10.4 C 0 km/h
2274 06-11-2008 21:51:36 10.3 C 7.18 g/m*3 10.3 C 0 km/h
2275 06-11-2008 22:16:36 10.2 C 7.33 g/m*3 10.2 C 0 km/h
Sensor: Nr:Datum:Temp:Abs-Feuchte:Windchill:Wind:
Aussen-T/F 2276 06-11-2008 22:41:36 10.2 C 7.33 g/m*3 10.2 C 0 km/h
2277 06-11-2008 23:06:36 10.1 C 7.28 g/m*3 10.1 C 0 km/h
2278 06-11-2008 23:31:37 10.2 C 7.23 g/m*3 10.2 C 0 km/h
2279 06-11-2008 23:56:37 10.2 C 7.23 g/m*3 10.2 C 0 km/h
2280 07-11-2008 00:21:37 10.1 C 7.19 g/m*3 10.1 C 0 km/h
2281 07-11-2008 00:46:37 10.1 C 7.19 g/m*3 10.1 C 0 km/h
2282 07-11-2008 01:11:37 10 C 7.24 g/m*3 10 C 0 km/h
2283 07-11-2008 01:36:37 10 C 7.24 g/m*3 10 C 0 km/h
2284 07-11-2008 02:01:37 10 C 7.14 g/m*3 10 C 0 km/h
2285 07-11-2008 02:26:37 10 C 7.14 g/m*3 10 C 0 km/h
2286 07-11-2008 02:51:37 9.9 C 7.28 g/m*3 9.9 C 0 km/h
2287 07-11-2008 03:16:37 9.9 C 7.19 g/m*3 9.9 C 0 km/h
2288 07-11-2008 03:41:37 10 C 7.14 g/m*3 10 C 0 km/h
2289 07-11-2008 04:06:37 10.2 C 7.14 g/m*3 10.2 C 0 km/h
2290 07-11-2008 04:31:37 10.1 C 7.19 g/m*3 10.1 C 0 km/h
2291 07-11-2008 04:56:37 10.3 C 7.28 g/m*3 10.3 C 0 km/h
2292 07-11-2008 05:21:37 10.3 C 7.28 g/m*3 10.3 C 0 km/h
2293 07-11-2008 05:46:37 10.2 C 7.23 g/m*3 10.2 C 0 km/h
2294 07-11-2008 06:11:37 10.1 C 7.19 g/m*3 10.1 C 0 km/h
2295 07-11-2008 06:36:37 10 C 7.14 g/m*3 10 C 0 km/h
2296 07-11-2008 07:01:37 10.1 C 7.09 g/m*3 10.1 C 0 km/h
2297 07-11-2008 07:26:38 10.1 C 7 g/m*3 10.1 C 0 km/h
2298 07-11-2008 07:51:38 9.8 C 7.05 g/m*3 9.8 C 0 km/h
2299 07-11-2008 08:16:38 9.6 C 7.15 g/m*3 9.6 C 0 km/h
2300 07-11-2008 08:41:38 10.3 C 6.99 g/m*3 10.3 C 0 km/h
Sensor: Nr:Datum:Temp:Abs-Feuchte:Windchill:Wind:
Aussen-T/F 2301 07-11-2008 09:06:38 10.8 C 7.02 g/m*3 10.8 C 0 km/h
2302 07-11-2008 09:31:38 11 C 6.91 g/m*3 11 C 0 km/h
2303 07-11-2008 09:56:38 11.1 C 6.95 g/m*3 11.1 C 0 km/h
2304 07-11-2008 10:21:38 11.3 C 7.04 g/m*3 11.3 C 0 km/h
2305 07-11-2008 10:46:38 11.2 C 6.89 g/m*3 11.2 C 0 km/h
2306 07-11-2008 11:11:38 11.6 C 6.96 g/m*3 11.6 C 0 km/h
2307 07-11-2008 11:36:38 12.2 C 6.91 g/m*3 12.2 C 0 km/h
2308 07-11-2008 12:01:38 12.7 C 6.9 g/m*3 12.7 C 0 km/h
2309 07-11-2008 12:26:38 13.1 C 6.85 g/m*3 13.1 C 0 km/h
2310 07-11-2008 12:51:38 13.2 C 6.77 g/m*3 13.2 C 0 km/h
2311 07-11-2008 13:16:38 13.8 C 6.91 g/m*3 13.8 C 0 km/h
2312 07-11-2008 13:41:38 13.6 C 6.71 g/m*3 13.6 C 0 km/h
2313 07-11-2008 14:06:38 13.8 C 7.03 g/m*3 13.8 C 0 km/h
2314 07-11-2008 14:31:38 14.5 C 7.09 g/m*3 14.5 C 0 km/h
2315 07-11-2008 14:56:38 14 C 7 g/m*3 14 C 0 km/h
2316 07-11-2008 15:21:38 13.8 C 7.27 g/m*3 13.8 C 0 km/h
2317 07-11-2008 15:46:39 13.5 C 7.37 g/m*3 13.5 C 0 km/h
2318 07-11-2008 16:11:39 13.1 C 7.3 g/m*3 13.1 C 0 km/h
2319 07-11-2008 16:36:39 12.7 C 7.57 g/m*3 12.7 C 0 km/h
2320 07-11-2008 17:01:39 12.4 C 7.43 g/m*3 12.4 C 0 km/h
2321 07-11-2008 17:26:39 11.8 C 7.26 g/m*3 11.8 C 0 km/h
2322 07-11-2008 17:51:39 11.1 C 7.15 g/m*3 11.1 C 0 km/h
2323 07-11-2008 18:16:39 10.4 C 7.23 g/m*3 10.4 C 0 km/h
2324 07-11-2008 18:41:39 10.4 C 7.42 g/m*3 10.4 C 0 km/h
2325 07-11-2008 19:06:39 10.7 C 7.56 g/m*3 10.7 C 0 km/h
Sensor: Nr:Datum:Temp:Abs-Feuchte:Windchill:Wind:
Aussen-T/F 2326 07-11-2008 19:31:39 10.6 C 7.32 g/m*3 10.6 C 0 km/h
2327 07-11-2008 19:56:39 10 C 7.33 g/m*3 10 C 0 km/h
2328 07-11-2008 20:21:39 9.9 C 7.56 g/m*3 9.9 C 0 km/h
2329 07-11-2008 20:46:39 9.5 C 7.37 g/m*3 9.5 C 0 km/h
2330 07-11-2008 21:11:39 9.1 C 7.36 g/m*3 9.1 C 0 km/h
2331 07-11-2008 21:36:39 8.7 C 7.44 g/m*3 8.7 C 0 km/h
2332 07-11-2008 22:01:39 8.4 C 7.38 g/m*3 8.4 C 0 km/h
2333 07-11-2008 22:26:39 7.9 C 7.31 g/m*3 7.9 C 0 km/h
2334 07-11-2008 22:51:39 7.5 C 7.12 g/m*3 7.5 C 0 km/h
2335 07-11-2008 23:16:39 7.3 C 7.03 g/m*3 7.3 C 0 km/h
2336 07-11-2008 23:41:40 7.3 C 7.11 g/m*3 7.3 C 0 km/h
2337 08-11-2008 00:06:40 7.3 C 7.19 g/m*3 7.3 C 0 km/h
2338 08-11-2008 00:31:40 6.9 C 7.08 g/m*3 6.9 C 0 km/h
2339 08-11-2008 00:56:40 7.1 C 7.18 g/m*3 7.1 C 0 km/h
2340 08-11-2008 01:21:40 7 C 7.13 g/m*3 7 C 0 km/h
2341 08-11-2008 01:46:40 7.2 C 7.3 g/m*3 7.2 C 0 km/h
2342 08-11-2008 02:11:40 7.3 C 7.35 g/m*3 7.3 C 0 km/h
2343 08-11-2008 02:36:40 7.5 C 7.44 g/m*3 7.5 C 0 km/h
2344 08-11-2008 03:01:40 7.8 C 7.59 g/m*3 7.8 C 0 km/h
2345 08-11-2008 03:26:40 7.9 C 7.56 g/m*3 7.9 C 0 km/h
2346 08-11-2008 03:51:40 8.1 C 7.57 g/m*3 8.1 C 0 km/h
2347 08-11-2008 04:16:40 8.2 C 7.62 g/m*3 8.2 C 0 km/h
2348 08-11-2008 04:41:40 8.3 C 7.67 g/m*3 8.3 C 0 km/h
2349 08-11-2008 05:06:40 8.3 C 7.59 g/m*3 8.3 C 0 km/h
2350 08-11-2008 05:31:40 8 C 7.44 g/m*3 8 C 0 km/h
Sensor: Nr:Datum:Temp:Abs-Feuchte:Windchill:Wind:
Aussen-T/F 2351 08-11-2008 05:56:40 8.6 C 7.82 g/m*3 8.6 C 0 km/h
2352 08-11-2008 06:21:40 8.6 C 7.65 g/m*3 8.6 C 0 km/h
2353 08-11-2008 06:46:40 8.5 C 7.6 g/m*3 8.5 C 0 km/h
2354 08-11-2008 07:11:40 8.5 C 7.77 g/m*3 8.5 C 0 km/h
2355 08-11-2008 07:36:41 8 C 7.52 g/m*3 8 C 0 km/h
2356 08-11-2008 08:01:41 7.9 C 7.64 g/m*3 7.9 C 0 km/h
2357 08-11-2008 08:26:41 7.3 C 7.27 g/m*3 7.3 C 0 km/h
2358 08-11-2008 08:51:41 7.2 C 7.3 g/m*3 7.2 C 0 km/h
2359 08-11-2008 09:16:41 7.6 C 7.57 g/m*3 7.6 C 0 km/h
2360 08-11-2008 09:41:41 8.2 C 7.87 g/m*3 8.2 C 0 km/h
2361 08-11-2008 10:06:41 8.7 C 8.13 g/m*3 8.7 C 0 km/h
2362 08-11-2008 10:31:41 8.9 C 7.88 g/m*3 8.9 C 0 km/h
2363 08-11-2008 10:56:41 9.3 C 7.28 g/m*3 9.3 C 0 km/h
2364 08-11-2008 11:21:41 9.7 C 6.36 g/m*3 9.7 C 0 km/h
2365 08-11-2008 11:46:41 10.3 C 6.03 g/m*3 10.3 C 0 km/h
2366 08-11-2008 12:11:41 10.9 C 5.97 g/m*3 10.9 C 0 km/h
2367 08-11-2008 12:36:41 11.7 C 5.86 g/m*3 11.7 C 0 km/h
2368 08-11-2008 13:01:41 12.2 C 5.4 g/m*3 12.2 C 0 km/h
2369 08-11-2008 13:26:41 12.4 C 5.14 g/m*3 12.4 C 0 km/h
2370 08-11-2008 13:51:01 12 C 5.33 g/m*3 12 C 0 km/h
2371 08-11-2008 14:16:01 11.9 C 5.51 g/m*3 11.9 C 0 km/h
2372 08-11-2008 14:41:01 12 C 5.44 g/m*3 12 C 0 km/h
2373 08-11-2008 15:06:02 11.8 C 5.79 g/m*3 11.8 C 0 km/h
2374 08-11-2008 15:31:02 12 C 5.86 g/m*3 12 C 0 km/h
2375 08-11-2008 15:56:02 11.2 C 5.98 g/m*3 11.2 C 0 km/h
Sensor: Nr:Datum:Temp:Abs-Feuchte:Windchill:Wind:
Aussen-T/F 2376 08-11-2008 16:21:02 10.2 C 5.8 g/m*3 10.2 C 0 km/h
2377 08-11-2008 16:46:02 9.5 C 6.01 g/m*3 9.5 C 0 km/h
2378 08-11-2008 17:11:02 8.8 C 6.09 g/m*3 8.8 C 0 km/h
2379 08-11-2008 17:36:02 8.2 C 6.03 g/m*3 8.2 C 0 km/h
2380 08-11-2008 18:01:02 7.7 C 6.08 g/m*3 7.7 C 0 km/h
2381 08-11-2008 18:26:01 7.4 C 6.04 g/m*3 7.4 C 0 km/h
2382 08-11-2008 18:51:01 7.2 C 6.12 g/m*3 7.2 C 0 km/h
2383 08-11-2008 19:16:02 6.8 C 6.12 g/m*3 6.8 C 0 km/h
2384 08-11-2008 19:41:02 6.5 C 6.15 g/m*3 6.5 C 0 km/h
2385 08-11-2008 20:06:02 6.1 C 5.99 g/m*3 6.1 C 0 km/h
2386 08-11-2008 20:31:02 5.8 C 6.02 g/m*3 5.8 C 0 km/h
2387 08-11-2008 20:56:02 5.6 C 6.08 g/m*3 5.6 C 0 km/h
2388 08-11-2008 21:21:02 5.3 C 5.96 g/m*3 5.3 C 0 km/h
2389 08-11-2008 21:46:02 5.2 C 6.06 g/m*3 5.2 C 0 km/h
2390 08-11-2008 22:11:03 5.1 C 6.02 g/m*3 5.1 C 0 km/h
2391 08-11-2008 22:36:03 4.7 C 6 g/m*3 4.7 C 0 km/h
2392 08-11-2008 23:01:02 4.9 C 6.14 g/m*3 4.9 C 0 km/h
2393 08-11-2008 23:26:02 5.3 C 6.38 g/m*3 5.3 C 0 km/h
2394 08-11-2008 23:50:02 5.8 C 6.66 g/m*3 5.8 C 0 km/h
2395 09-11-2008 00:02:03 6.4 C 6.85 g/m*3 6.4 C 0 km/h
2396 09-11-2008 00:14:03 6.7 C 6.84 g/m*3 6.7 C 0 km/h
2397 09-11-2008 00:26:03 6.7 C 6.76 g/m*3 6.7 C 0 km/h
2398 09-11-2008 00:38:03 7 C 6.74 g/m*3 7 C 0 km/h
2399 09-11-2008 00:50:02 7 C 6.59 g/m*3 7 C 0 km/h
2400 09-11-2008 01:02:03 6.6 C 6.42 g/m*3 6.6 C 0 km/h
Sensor: Nr:Datum:Temp:Abs-Feuchte:Windchill:Wind:
Aussen-T/F 2401 09-11-2008 01:14:03 6.7 C 6.53 g/m*3 6.7 C 0 km/h
2402 09-11-2008 01:26:02 6.5 C 6.37 g/m*3 6.5 C 0 km/h
2403 09-11-2008 01:38:03 6.5 C 6.45 g/m*3 6.5 C 0 km/h
2404 09-11-2008 01:50:02 6.4 C 6.41 g/m*3 6.4 C 0 km/h
2405 09-11-2008 02:02:01 7.1 C 6.63 g/m*3 7.1 C 0 km/h
2406 09-11-2008 02:14:01 7.5 C 6.56 g/m*3 7.5 C 0 km/h
2407 09-11-2008 02:26:02 7.3 C 6.4 g/m*3 7.3 C 0 km/h
2408 09-11-2008 02:38:01 7.6 C 6.53 g/m*3 7.6 C 0 km/h
2409 09-11-2008 02:50:01 7.5 C 6.32 g/m*3 7.5 C 0 km/h
2410 09-11-2008 03:02:01 7.7 C 6.49 g/m*3 7.7 C 0 km/h
2411 09-11-2008 03:14:02 8 C 6.45 g/m*3 8 C 0 km/h
2412 09-11-2008 03:26:02 8 C 6.45 g/m*3 8 C 0 km/h
2413 09-11-2008 03:38:01 8.2 C 6.53 g/m*3 8.2 C 0 km/h
2414 09-11-2008 03:50:01 8.8 C 6.61 g/m*3 8.8 C 0 km/h
2415 09-11-2008 04:02:01 9.3 C 6.56 g/m*3 9.3 C 0 km/h
2416 09-11-2008 04:14:01 9.4 C 6.51 g/m*3 9.4 C 0 km/h
2417 09-11-2008 04:26:01 9.6 C 6.5 g/m*3 9.6 C 0 km/h
2418 09-11-2008 04:38:01 9.3 C 6.47 g/m*3 9.3 C 0 km/h
2419 09-11-2008 04:50:02 9.3 C 6.56 g/m*3 9.3 C 0 km/h
2420 09-11-2008 05:02:01 9.2 C 6.52 g/m*3 9.2 C 0 km/h
2421 09-11-2008 05:14:01 9.6 C 6.6 g/m*3 9.6 C 0 km/h
2422 09-11-2008 05:26:02 9.7 C 6.64 g/m*3 9.7 C 0 km/h
2423 09-11-2008 05:38:01 9.7 C 6.64 g/m*3 9.7 C 0 km/h
2424 09-11-2008 05:50:02 9.6 C 6.6 g/m*3 9.6 C 0 km/h
2425 09-11-2008 06:02:01 9.6 C 6.69 g/m*3 9.6 C 0 km/h
Sensor: Nr:Datum:Temp:Abs-Feuchte:Windchill:Wind:
Aussen-T/F 2426 09-11-2008 06:14:01 9.6 C 6.6 g/m*3 9.6 C 0 km/h
2427 09-11-2008 06:26:02 9.8 C 6.68 g/m*3 9.8 C 0 km/h
2428 09-11-2008 06:38:01 9.7 C 6.64 g/m*3 9.7 C 0 km/h
2429 09-11-2008 06:50:02 9.7 C 6.64 g/m*3 9.7 C 0 km/h
2430 09-11-2008 07:02:01 9.9 C 6.82 g/m*3 9.9 C 0 km/h
2431 09-11-2008 07:14:01 10 C 6.77 g/m*3 10 C 0 km/h
2432 09-11-2008 07:26:02 9.8 C 6.87 g/m*3 9.8 C 0 km/h
2433 09-11-2008 07:38:01 9.4 C 7.15 g/m*3 9.4 C 0 km/h
2434 09-11-2008 07:50:01 9.2 C 7.41 g/m*3 9.2 C 0 km/h
2435 09-11-2008 08:02:01 9.3 C 7.64 g/m*3 9.3 C 0 km/h
2436 09-11-2008 08:14:01 9.1 C 7.72 g/m*3 9.1 C 0 km/h
2437 09-11-2008 08:26:01 9.3 C 7.82 g/m*3 9.3 C 0 km/h
2438 09-11-2008 08:38:01 9.4 C 7.96 g/m*3 9.4 C 0 km/h
2439 09-11-2008 08:50:01 9.4 C 7.96 g/m*3 9.4 C 0 km/h
2440 09-11-2008 09:02:02 9.6 C 8.15 g/m*3 9.6 C 0 km/h
2441 09-11-2008 09:14:02 9.6 C 8.15 g/m*3 9.6 C 0 km/h
2442 09-11-2008 09:26:01 9.7 C 8.2 g/m*3 9.7 C 0 km/h
2443 09-11-2008 09:38:01 9.7 C 8.2 g/m*3 9.7 C 0 km/h
2444 09-11-2008 09:50:01 9.8 C 8.35 g/m*3 9.8 C 0 km/h
2445 09-11-2008 10:02:02 9.7 C 8.3 g/m*3 9.7 C 0 km/h
2446 09-11-2008 10:14:02 9.7 C 8.3 g/m*3 9.7 C 0 km/h
2447 09-11-2008 10:26:01 9.7 C 8.39 g/m*3 9.7 C 0 km/h
2448 09-11-2008 10:38:02 9.8 C 8.44 g/m*3 9.8 C 0 km/h
2449 09-11-2008 10:50:01 9.8 C 8.54 g/m*3 9.8 C 0 km/h
2450 09-11-2008 11:02:02 9.8 C 8.54 g/m*3 9.8 C 0 km/h
Sensor: Nr:Datum:Temp:Abs-Feuchte:Windchill:Wind:
Aussen-T/F 2451 09-11-2008 11:14:02 9.9 C 8.59 g/m*3 9.9 C 0 km/h
2452 09-11-2008 11:26:01 10.1 C 8.7 g/m*3 10.1 C 0 km/h
2453 09-11-2008 11:38:02 10.3 C 8.81 g/m*3 10.3 C 0 km/h
2454 09-11-2008 11:50:02 10.3 C 8.81 g/m*3 10.3 C 0 km/h
2455 09-11-2008 12:02:02 10.4 C 8.87 g/m*3 10.4 C 0 km/h
2456 09-11-2008 12:14:02 10.7 C 9.04 g/m*3 10.7 C 0 km/h
2457 09-11-2008 12:26:02 11 C 9.11 g/m*3 11 C 0 km/h
2458 09-11-2008 12:38:02 10.8 C 8.99 g/m*3 10.8 C 0 km/h
2459 09-11-2008 12:50:02 10.9 C 9.05 g/m*3 10.9 C 0 km/h
2460 09-11-2008 13:02:02 10.6 C 8.69 g/m*3 10.6 C 0 km/h
2461 09-11-2008 13:14:02 10.5 C 8.44 g/m*3 10.5 C 0 km/h
2462 09-11-2008 13:26:02 10.6 C 8.39 g/m*3 10.6 C 0 km/h
2463 09-11-2008 13:38:02 10.3 C 8.24 g/m*3 10.3 C 0 km/h
2464 09-11-2008 13:50:02 9.8 C 7.61 g/m*3 9.8 C 0 km/h
2465 09-11-2008 14:02:02 9.5 C 7.1 g/m*3 9.5 C 0 km/h
2466 09-11-2008 14:14:02 9.7 C 7.19 g/m*3 9.7 C 0 km/h
2467 09-11-2008 14:26:01 9.5 C 7.28 g/m*3 9.5 C 0 km/h
2468 09-11-2008 14:38:02 9.6 C 7.51 g/m*3 9.6 C 0 km/h
2469 09-11-2008 14:50:01 9.7 C 7.56 g/m*3 9.7 C 0 km/h
2470 09-11-2008 15:02:01 9.8 C 7.24 g/m*3 9.8 C 0 km/h
2471 09-11-2008 15:14:01 10.1 C 6.9 g/m*3 10.1 C 0 km/h
2472 09-11-2008 15:26:02 10 C 6.95 g/m*3 10 C 0 km/h
2473 09-11-2008 15:38:02 10.1 C 6.9 g/m*3 10.1 C 0 km/h
2474 09-11-2008 15:50:01 9.9 C 7 g/m*3 9.9 C 0 km/h
2475 09-11-2008 16:02:03 9.8 C 7.14 g/m*3 9.8 C 0 km/h
Sensor: Nr:Datum:Temp:Abs-Feuchte:Windchill:Wind:
Aussen-T/F 2476 09-11-2008 16:14:03 9.6 C 7.15 g/m*3 9.6 C 0 km/h
2477 09-11-2008 16:26:01 9.4 C 7.15 g/m*3 9.4 C 0 km/h
2478 09-11-2008 16:38:02 9.2 C 7.23 g/m*3 9.2 C 0 km/h
2479 09-11-2008 16:50:02 9.1 C 7.19 g/m*3 9.1 C 0 km/h
2480 09-11-2008 17:02:02 9.1 C 7.19 g/m*3 9.1 C 0 km/h
2481 09-11-2008 17:14:02 9 C 7.14 g/m*3 9 C 0 km/h
2482 09-11-2008 17:26:02 8.8 C 7.22 g/m*3 8.8 C 0 km/h
2483 09-11-2008 17:38:03 8.7 C 7.26 g/m*3 8.7 C 0 km/h
2484 09-11-2008 17:50:02 8.7 C 7.26 g/m*3 8.7 C 0 km/h
2485 09-11-2008 18:02:02 8.6 C 7.22 g/m*3 8.6 C 0 km/h
2486 09-11-2008 18:14:02 8.5 C 7 g/m*3 8.5 C 0 km/h
2487 09-11-2008 18:26:02 8.1 C 6.82 g/m*3 8.1 C 0 km/h
2488 09-11-2008 18:38:02 7.9 C 6.82 g/m*3 7.9 C 0 km/h
2489 09-11-2008 18:50:01 7.8 C 6.77 g/m*3 7.8 C 0 km/h
2490 09-11-2008 19:02:02 7.6 C 6.69 g/m*3 7.6 C 0 km/h
2491 09-11-2008 19:14:02 7.4 C 6.68 g/m*3 7.4 C 0 km/h
2492 09-11-2008 19:26:03 7.4 C 6.76 g/m*3 7.4 C 0 km/h
2493 09-11-2008 19:38:03 7.3 C 6.72 g/m*3 7.3 C 0 km/h
2494 09-11-2008 19:50:02 7.4 C 6.84 g/m*3 7.4 C 0 km/h
2495 09-11-2008 20:02:02 7.5 C 6.8 g/m*3 7.5 C 0 km/h
2496 09-11-2008 20:14:02 7.4 C 6.76 g/m*3 7.4 C 0 km/h
2497 09-11-2008 20:26:01 7.6 C 6.93 g/m*3 7.6 C 0 km/h
2498 09-11-2008 20:38:02 7.4 C 6.76 g/m*3 7.4 C 0 km/h
2499 09-11-2008 20:50:02 7.4 C 6.92 g/m*3 7.4 C 0 km/h
2500 09-11-2008 21:02:01 7.6 C 7.01 g/m*3 7.6 C 0 km/h
Sensor: Nr:Datum:Temp:Abs-Feuchte:Windchill:Wind:
Aussen-T/F 2501 09-11-2008 21:14:01 7.7 C 7.14 g/m*3 7.7 C 0 km/h
2502 09-11-2008 21:26:02 7.9 C 7.23 g/m*3 7.9 C 0 km/h
2503 09-11-2008 21:38:01 7.9 C 7.23 g/m*3 7.9 C 0 km/h
2504 09-11-2008 21:50:02 7.9 C 7.31 g/m*3 7.9 C 0 km/h
2505 09-11-2008 22:02:01 7.9 C 7.31 g/m*3 7.9 C 0 km/h
2506 09-11-2008 22:14:01 7.8 C 7.35 g/m*3 7.8 C 0 km/h
2507 09-11-2008 22:26:02 8 C 7.44 g/m*3 8 C 0 km/h
2508 09-11-2008 22:38:01 8.3 C 7.67 g/m*3 8.3 C 0 km/h
2509 09-11-2008 22:50:01 8.5 C 7.77 g/m*3 8.5 C 0 km/h
2510 09-11-2008 23:02:01 8.5 C 7.77 g/m*3 8.5 C 0 km/h
2511 09-11-2008 23:14:01 8.9 C 8.06 g/m*3 8.9 C 0 km/h
2512 09-11-2008 23:26:01 9.3 C 8.27 g/m*3 9.3 C 0 km/h
2513 09-11-2008 23:38:01 10.1 C 8.7 g/m*3 10.1 C 0 km/h
2514 09-11-2008 23:50:01 11.4 C 9.34 g/m*3 11.4 C 0 km/h

Legende:
   Min
   Max


Maximal/Minimal-Werte vom 17.04.2019 - 19.05.2019

Sensor Min Max Avg
Temp
(Aussen-T/F)
2.2 °C
13-05-2019  06:50:00
26.6 °C
24-04-2019  17:05:00
11.51 °C

Die Daten stammen von einer Davis Vantage Pro 2 Wetter-Station und werden unter Linux mit der Software wview2wettercgi und aufbereitet. Alle Angaben erfolgen ohne Gewähr für ihre Vollständigkeit oder Richtigkeit.
Kontakt: Rainer Krienke krienke@uni-koblenz.de . Meine Webseiten an der Uni Koblenz oder privat.
Version: $Revision: 0.78 $